Darstellungsparameter: Aktuell verwendete Einstellungen:
Skalierung der Graphiken ... ?
xyx+y,   Skalierungsfaktor:      Skalierung: Modus: x, Faktor: 1
Darstellungszeitraum ... ?
Vom - - bis: - -   Zeitraum: 26.04.2010 - 16.05.2010
Min/Max/Avg-Anzeige ... ?
Zeige MMA aktuell
Zeige MMA Monat
Zeige MMA alles
Zeige --A aktuell
Zeige --A Monat
Zeige --A alles
Keine MMA-Anzeige
MMA:
Average (ber die Originaldaten)
MMA-Basis: 26.04.2010 - 16.05.2010
Quicknavigation für Darstellung... ?
Tage:      1T, 2T, 3T, 5T -1T -2T -3T -5T +1T +2T +3T +5T
Wochen: 1W, 2W, 3W -1W -2W -3W +1W +2W +3W
Monate: 1M, 3M, 6M -1M -3M -6M +1M +3M +6M
Jahre:    1J, 3J, 5J, 10J -1J -3J -5J -10J +1J +3J +5J +10J
Nutze für die Darstellung ... ?
Originaldaten oder Mittelwerte auf ...
Stundenbasis Tagesbasis Wochenbasis
Monatsbasis Jahresbasis      Datenbasis: Original-Daten
Darstellen als:
Statistik (Auto) Statistik J:M      Darstellung:
Zur Graphik,    zurück zur Übersicht aller Sensoren.
 
Tabellarische Datenbersicht: ?
 
Sensor: Nr:Datum:Temp:Abs-Feuchte:Windchill:Wind:
Aussen-T/F 1 26-04-2010 00:11:02 17.3 C 6.04 g/m*3 17.3 C 0 km/h
2 26-04-2010 00:23:02 17 C 6.22 g/m*3 17 C 0 km/h
3 26-04-2010 00:35:02 17.2 C 6 g/m*3 17.2 C 0 km/h
4 26-04-2010 00:47:02 17.1 C 5.82 g/m*3 17.1 C 0 km/h
5 26-04-2010 00:59:03 16.9 C 5.75 g/m*3 16.9 C 0 km/h
6 26-04-2010 01:11:03 16.7 C 5.83 g/m*3 16.7 C 0 km/h
7 26-04-2010 01:23:03 16.4 C 5.86 g/m*3 16.4 C 0 km/h
8 26-04-2010 01:35:03 16.1 C 6.03 g/m*3 16.1 C 0 km/h
9 26-04-2010 01:47:03 15.9 C 6.09 g/m*3 15.9 C 0 km/h
10 26-04-2010 01:59:03 16 C 6.13 g/m*3 16 C 0 km/h
11 26-04-2010 02:11:03 14.6 C 7.38 g/m*3 14.6 C 0 km/h
12 26-04-2010 02:23:03 13.3 C 8.43 g/m*3 13.3 C 0 km/h
13 26-04-2010 02:35:03 13 C 8.96 g/m*3 13 C 0 km/h
14 26-04-2010 02:47:03 12.5 C 9.02 g/m*3 12.5 C 0 km/h
15 26-04-2010 02:59:03 12.7 C 9.24 g/m*3 12.7 C 0 km/h
16 26-04-2010 03:11:03 12.4 C 9.07 g/m*3 12.4 C 0 km/h
17 26-04-2010 03:23:03 12.6 C 9.18 g/m*3 12.6 C 0 km/h
18 26-04-2010 03:35:03 12.7 C 9.13 g/m*3 12.7 C 0 km/h
19 26-04-2010 03:47:03 12.8 C 8.96 g/m*3 12.8 C 0 km/h
20 26-04-2010 03:59:03 12.7 C 8.79 g/m*3 12.7 C 0 km/h
21 26-04-2010 04:11:03 12.4 C 8.63 g/m*3 12.4 C 0 km/h
22 26-04-2010 04:23:03 12.3 C 8.58 g/m*3 12.3 C 0 km/h
23 26-04-2010 04:35:03 12.2 C 8.52 g/m*3 12.2 C 0 km/h
24 26-04-2010 04:47:03 12.2 C 8.52 g/m*3 12.2 C 0 km/h
25 26-04-2010 04:59:04 12.2 C 8.52 g/m*3 12.2 C 0 km/h
Sensor: Nr:Datum:Temp:Abs-Feuchte:Windchill:Wind:
Aussen-T/F 26 26-04-2010 05:11:04 11.8 C 8.42 g/m*3 11.8 C 0 km/h
27 26-04-2010 05:23:04 11.6 C 8.42 g/m*3 11.6 C 0 km/h
28 26-04-2010 05:35:04 11.5 C 8.37 g/m*3 11.5 C 0 km/h
29 26-04-2010 05:47:04 11.6 C 8.52 g/m*3 11.6 C 0 km/h
30 26-04-2010 05:59:04 11.2 C 8.31 g/m*3 11.2 C 0 km/h
31 26-04-2010 06:11:04 11.1 C 8.36 g/m*3 11.1 C 0 km/h
32 26-04-2010 06:23:04 11 C 8.31 g/m*3 11 C 0 km/h
33 26-04-2010 06:35:04 10.8 C 8.2 g/m*3 10.8 C 0 km/h
34 26-04-2010 06:47:01 10.7 C 8.15 g/m*3 10.7 C 0 km/h
35 26-04-2010 06:59:01 10.7 C 8.25 g/m*3 10.7 C 0 km/h
36 26-04-2010 07:11:01 11.1 C 8.36 g/m*3 11.1 C 0 km/h
37 26-04-2010 07:23:02 10.9 C 8.16 g/m*3 10.9 C 0 km/h
38 26-04-2010 07:35:01 10.8 C 8.11 g/m*3 10.8 C 0 km/h
39 26-04-2010 07:47:02 10.7 C 8.15 g/m*3 10.7 C 0 km/h
40 26-04-2010 07:59:02 11.2 C 8.41 g/m*3 11.2 C 0 km/h
41 26-04-2010 08:11:01 11.2 C 8.31 g/m*3 11.2 C 0 km/h
42 26-04-2010 08:23:01 11.5 C 8.47 g/m*3 11.5 C 0 km/h
43 26-04-2010 08:35:02 12 C 8.42 g/m*3 12 C 0 km/h
44 26-04-2010 08:47:01 12.4 C 8.19 g/m*3 12.4 C 0 km/h
45 26-04-2010 08:59:01 12.7 C 7.9 g/m*3 12.7 C 0 km/h
46 26-04-2010 09:11:01 12.4 C 7.32 g/m*3 12.4 C 0 km/h
47 26-04-2010 09:23:01 12.8 C 7.39 g/m*3 12.8 C 0 km/h
48 26-04-2010 09:35:02 13.1 C 7.19 g/m*3 13.1 C 0 km/h
49 26-04-2010 09:47:01 13.2 C 7.12 g/m*3 13.2 C 0 km/h
50 26-04-2010 09:59:01 13.3 C 6.82 g/m*3 13.3 C 0 km/h
Sensor: Nr:Datum:Temp:Abs-Feuchte:Windchill:Wind:
Aussen-T/F 51 26-04-2010 10:11:02 13.7 C 7.34 g/m*3 13.7 C 0 km/h
52 26-04-2010 10:23:01 14.3 C 7 g/m*3 14.3 C 0 km/h
53 26-04-2010 10:35:02 14.9 C 7.01 g/m*3 14.9 C 0 km/h
54 26-04-2010 10:47:01 15 C 6.8 g/m*3 15 C 0 km/h
55 26-04-2010 10:59:01 15.2 C 6.75 g/m*3 15.2 C 0 km/h
56 26-04-2010 11:11:01 15.5 C 6.74 g/m*3 15.5 C 0 km/h
57 26-04-2010 11:23:01 15.8 C 6.87 g/m*3 15.8 C 0 km/h
58 26-04-2010 11:35:02 16 C 6.54 g/m*3 16 C 0 km/h
59 26-04-2010 11:47:01 16.1 C 6.44 g/m*3 16.1 C 0 km/h
60 26-04-2010 11:59:01 16.2 C 6.48 g/m*3 16.2 C 0 km/h
61 26-04-2010 12:11:02 16.5 C 6.46 g/m*3 16.5 C 0 km/h
62 26-04-2010 12:23:01 17.8 C 6.98 g/m*3 17.8 C 0 km/h
63 26-04-2010 12:35:02 18 C 6.14 g/m*3 18 C 0 km/h
64 26-04-2010 12:47:01 17.7 C 6.34 g/m*3 17.7 C 0 km/h
65 26-04-2010 12:59:01 17.7 C 6.49 g/m*3 17.7 C 0 km/h
66 26-04-2010 13:11:02 18.1 C 6.49 g/m*3 18.1 C 0 km/h
67 26-04-2010 13:23:01 19.1 C 6.56 g/m*3 19.1 C 0 km/h
68 26-04-2010 13:35:02 20.2 C 6.29 g/m*3 20.2 C 0 km/h
69 26-04-2010 13:47:01 19.5 C 6.04 g/m*3 19.5 C 0 km/h
70 26-04-2010 13:59:01 18.1 C 6.18 g/m*3 18.1 C 0 km/h
71 26-04-2010 14:11:02 18.3 C 6.41 g/m*3 18.3 C 0 km/h
72 26-04-2010 14:23:01 19.4 C 6.51 g/m*3 19.4 C 0 km/h
73 26-04-2010 14:35:02 20 C 6.05 g/m*3 20 C 0 km/h
74 26-04-2010 14:47:01 20.5 C 6.23 g/m*3 20.5 C 0 km/h
75 26-04-2010 14:59:01 19.1 C 6.07 g/m*3 19.1 C 0 km/h
Sensor: Nr:Datum:Temp:Abs-Feuchte:Windchill:Wind:
Aussen-T/F 76 26-04-2010 15:11:02 19.2 C 6.1 g/m*3 19.2 C 0 km/h
77 26-04-2010 15:23:01 19.4 C 6.01 g/m*3 19.4 C 0 km/h
78 26-04-2010 15:35:01 19.5 C 5.87 g/m*3 19.5 C 0 km/h
79 26-04-2010 15:47:01 19.4 C 5.84 g/m*3 19.4 C 0 km/h
80 26-04-2010 15:59:01 18.4 C 5.35 g/m*3 18.4 C 0 km/h
81 26-04-2010 16:11:02 20.2 C 5.6 g/m*3 20.2 C 0 km/h
82 26-04-2010 16:23:01 19.8 C 5.3 g/m*3 19.8 C 0 km/h
83 26-04-2010 16:35:01 19.3 C 5.31 g/m*3 19.3 C 0 km/h
84 26-04-2010 16:47:01 19.6 C 5.4 g/m*3 19.6 C 0 km/h
85 26-04-2010 16:59:01 19.5 C 5.37 g/m*3 19.5 C 0 km/h
86 26-04-2010 17:11:02 21.2 C 5.37 g/m*3 21.2 C 0 km/h
87 26-04-2010 17:23:01 22.3 C 5.13 g/m*3 22.3 C 0 km/h
88 26-04-2010 17:35:01 21.5 C 5.09 g/m*3 21.5 C 0 km/h
89 26-04-2010 17:47:01 20.1 C 5.04 g/m*3 20.1 C 0 km/h
90 26-04-2010 17:59:01 19.3 C 5.31 g/m*3 19.3 C 0 km/h
91 26-04-2010 18:11:02 19.1 C 5.57 g/m*3 19.1 C 0 km/h
92 26-04-2010 18:23:01 19 C 5.54 g/m*3 19 C 0 km/h
93 26-04-2010 18:35:01 18.9 C 5.51 g/m*3 18.9 C 0 km/h
94 26-04-2010 18:47:01 19.7 C 5.6 g/m*3 19.7 C 0 km/h
95 26-04-2010 18:59:01 20.2 C 5.25 g/m*3 20.2 C 0 km/h
96 26-04-2010 19:11:02 19.5 C 5.37 g/m*3 19.5 C 0 km/h
97 26-04-2010 19:23:01 18.7 C 5.44 g/m*3 18.7 C 0 km/h
98 26-04-2010 19:35:01 18.3 C 5.63 g/m*3 18.3 C 0 km/h
99 26-04-2010 19:47:01 18.2 C 5.44 g/m*3 18.2 C 0 km/h
100 26-04-2010 19:59:01 18.5 C 5.7 g/m*3 18.5 C 0 km/h
Sensor: Nr:Datum:Temp:Abs-Feuchte:Windchill:Wind:
Aussen-T/F 101 26-04-2010 20:11:01 18.8 C 5.64 g/m*3 18.8 C 0 km/h
102 26-04-2010 20:23:01 18.1 C 5.56 g/m*3 18.1 C 0 km/h
103 26-04-2010 20:35:01 17.1 C 5.39 g/m*3 17.1 C 0 km/h
104 26-04-2010 20:47:01 16.7 C 5.68 g/m*3 16.7 C 0 km/h
105 26-04-2010 20:59:01 16.2 C 5.52 g/m*3 16.2 C 0 km/h
106 26-04-2010 21:11:01 16.1 C 5.35 g/m*3 16.1 C 0 km/h
107 26-04-2010 21:23:01 15.9 C 5.55 g/m*3 15.9 C 0 km/h
108 26-04-2010 21:35:01 15.8 C 5.52 g/m*3 15.8 C 0 km/h
109 26-04-2010 21:47:01 15.8 C 5.65 g/m*3 15.8 C 0 km/h
110 26-04-2010 21:59:01 15.7 C 5.62 g/m*3 15.7 C 0 km/h
111 26-04-2010 22:11:02 15.6 C 5.72 g/m*3 15.6 C 0 km/h
112 26-04-2010 22:23:01 15.4 C 5.78 g/m*3 15.4 C 0 km/h
113 26-04-2010 22:35:02 15.4 C 5.65 g/m*3 15.4 C 0 km/h
114 26-04-2010 22:49:05 15.2 C 5.71 g/m*3 15.2 C 0 km/h
115 26-04-2010 23:01:05 15.2 C 5.84 g/m*3 15.2 C 0 km/h
116 26-04-2010 23:13:05 15.1 C 5.81 g/m*3 15.1 C 0 km/h
117 26-04-2010 23:25:05 14.6 C 6.01 g/m*3 14.6 C 0 km/h
118 26-04-2010 23:37:05 14.2 C 5.98 g/m*3 14.2 C 0 km/h
119 26-04-2010 23:49:05 14.1 C 5.95 g/m*3 14.1 C 0 km/h
120 27-04-2010 00:01:05 14 C 6.03 g/m*3 14 C 0 km/h
121 27-04-2010 00:13:05 13.7 C 6.04 g/m*3 13.7 C 0 km/h
122 27-04-2010 00:25:05 13.7 C 6.16 g/m*3 13.7 C 0 km/h
123 27-04-2010 00:37:06 13.5 C 6.08 g/m*3 13.5 C 0 km/h
124 27-04-2010 00:49:06 13.6 C 6.24 g/m*3 13.6 C 0 km/h
125 27-04-2010 01:01:06 13.6 C 6.24 g/m*3 13.6 C 0 km/h
Sensor: Nr:Datum:Temp:Abs-Feuchte:Windchill:Wind:
Aussen-T/F 126 27-04-2010 01:13:06 13.4 C 6.16 g/m*3 13.4 C 0 km/h
127 27-04-2010 01:25:06 13.4 C 6.28 g/m*3 13.4 C 0 km/h
128 27-04-2010 01:37:06 13.2 C 6.2 g/m*3 13.2 C 0 km/h
129 27-04-2010 01:49:06 12.9 C 6.31 g/m*3 12.9 C 0 km/h
130 27-04-2010 02:01:06 13 C 6.35 g/m*3 13 C 0 km/h
131 27-04-2010 02:13:06 13 C 6.46 g/m*3 13 C 0 km/h
132 27-04-2010 02:25:06 12.6 C 6.42 g/m*3 12.6 C 0 km/h
133 27-04-2010 02:37:06 12.4 C 6.45 g/m*3 12.4 C 0 km/h
134 27-04-2010 02:49:06 12 C 6.5 g/m*3 12 C 0 km/h
135 27-04-2010 03:01:06 11.8 C 6.53 g/m*3 11.8 C 0 km/h
136 27-04-2010 03:13:06 11.6 C 6.55 g/m*3 11.6 C 0 km/h
137 27-04-2010 03:25:06 11.2 C 6.49 g/m*3 11.2 C 0 km/h
138 27-04-2010 03:37:06 10.9 C 6.56 g/m*3 10.9 C 0 km/h
139 27-04-2010 03:49:06 10.8 C 6.52 g/m*3 10.8 C 0 km/h
140 27-04-2010 04:01:06 10.8 C 6.62 g/m*3 10.8 C 0 km/h
141 27-04-2010 04:13:06 10.6 C 6.44 g/m*3 10.6 C 0 km/h
142 27-04-2010 04:25:06 10.3 C 6.42 g/m*3 10.3 C 0 km/h
143 27-04-2010 04:37:07 10.1 C 6.52 g/m*3 10.1 C 0 km/h
144 27-04-2010 04:49:07 9.8 C 6.68 g/m*3 9.8 C 0 km/h
145 27-04-2010 05:01:07 9.6 C 6.6 g/m*3 9.6 C 0 km/h
146 27-04-2010 05:13:07 9.4 C 6.6 g/m*3 9.4 C 0 km/h
147 27-04-2010 05:25:07 9.2 C 6.61 g/m*3 9.2 C 0 km/h
148 27-04-2010 05:37:07 9 C 6.52 g/m*3 9 C 0 km/h
149 27-04-2010 05:49:07 8.7 C 6.49 g/m*3 8.7 C 0 km/h
150 27-04-2010 06:01:07 8.8 C 6.61 g/m*3 8.8 C 0 km/h
Sensor: Nr:Datum:Temp:Abs-Feuchte:Windchill:Wind:
Aussen-T/F 151 27-04-2010 06:13:07 8.4 C 6.62 g/m*3 8.4 C 0 km/h
152 27-04-2010 06:25:07 8.2 C 6.62 g/m*3 8.2 C 0 km/h
153 27-04-2010 06:37:05 8.1 C 6.57 g/m*3 8.1 C 0 km/h
154 27-04-2010 06:49:01 8.1 C 6.66 g/m*3 8.1 C 0 km/h
155 27-04-2010 07:01:02 8.1 C 6.74 g/m*3 8.1 C 0 km/h
156 27-04-2010 07:13:02 8.1 C 6.74 g/m*3 8.1 C 0 km/h
157 27-04-2010 07:25:02 8 C 6.7 g/m*3 8 C 0 km/h
158 27-04-2010 07:37:02 8.2 C 6.78 g/m*3 8.2 C 0 km/h
159 27-04-2010 07:49:01 8.6 C 6.96 g/m*3 8.6 C 0 km/h
160 27-04-2010 08:01:02 8.6 C 6.87 g/m*3 8.6 C 0 km/h
161 27-04-2010 08:13:02 8.9 C 6.92 g/m*3 8.9 C 0 km/h
162 27-04-2010 08:25:01 9.2 C 6.88 g/m*3 9.2 C 0 km/h
163 27-04-2010 08:37:02 9.2 C 6.88 g/m*3 9.2 C 0 km/h
164 27-04-2010 08:49:02 9.7 C 7.01 g/m*3 9.7 C 0 km/h
165 27-04-2010 09:01:02 10.1 C 7 g/m*3 10.1 C 0 km/h
166 27-04-2010 09:13:02 10.6 C 7.03 g/m*3 10.6 C 0 km/h
167 27-04-2010 09:25:01 11.1 C 7.05 g/m*3 11.1 C 0 km/h
168 27-04-2010 09:37:02 11.8 C 7.37 g/m*3 11.8 C 0 km/h
169 27-04-2010 09:49:01 12.4 C 7.32 g/m*3 12.4 C 0 km/h
170 27-04-2010 10:01:02 13 C 7.14 g/m*3 13 C 0 km/h
171 27-04-2010 10:13:02 13.6 C 7.06 g/m*3 13.6 C 0 km/h
172 27-04-2010 10:25:02 14.1 C 6.92 g/m*3 14.1 C 0 km/h
173 27-04-2010 10:37:02 14.3 C 6.76 g/m*3 14.3 C 0 km/h
174 27-04-2010 10:49:01 14 C 6.27 g/m*3 14 C 0 km/h
175 27-04-2010 11:01:02 14.6 C 6.51 g/m*3 14.6 C 0 km/h
Sensor: Nr:Datum:Temp:Abs-Feuchte:Windchill:Wind:
Aussen-T/F 176 27-04-2010 11:13:02 15.3 C 6.53 g/m*3 15.3 C 0 km/h
177 27-04-2010 11:25:02 16.1 C 6.44 g/m*3 16.1 C 0 km/h
178 27-04-2010 11:37:02 16.9 C 6.62 g/m*3 16.9 C 0 km/h
179 27-04-2010 11:49:01 17.4 C 6.52 g/m*3 17.4 C 0 km/h
180 27-04-2010 12:01:02 18.1 C 6.49 g/m*3 18.1 C 0 km/h
181 27-04-2010 12:13:02 17.8 C 6.37 g/m*3 17.8 C 0 km/h
182 27-04-2010 12:25:02 18.8 C 6.44 g/m*3 18.8 C 0 km/h
183 27-04-2010 12:37:02 19.3 C 6.14 g/m*3 19.3 C 0 km/h
184 27-04-2010 12:49:01 18.6 C 5.73 g/m*3 18.6 C 0 km/h
185 27-04-2010 13:01:02 19.1 C 5.74 g/m*3 19.1 C 0 km/h
186 27-04-2010 13:13:02 19.7 C 5.94 g/m*3 19.7 C 0 km/h
187 27-04-2010 13:25:02 21 C 5.68 g/m*3 21 C 0 km/h
188 27-04-2010 13:37:01 20.9 C 5.28 g/m*3 20.9 C 0 km/h
189 27-04-2010 13:49:02 21 C 4.95 g/m*3 21 C 0 km/h
190 27-04-2010 14:01:01 21.3 C 4.85 g/m*3 21.3 C 0 km/h
191 27-04-2010 14:13:01 22.1 C 4.88 g/m*3 22.1 C 0 km/h
192 27-04-2010 14:25:02 21.9 C 5.21 g/m*3 21.9 C 0 km/h
193 27-04-2010 14:37:01 21.8 C 4.8 g/m*3 21.8 C 0 km/h
194 27-04-2010 14:49:02 20 C 4.84 g/m*3 20 C 0 km/h
195 27-04-2010 15:01:01 21.5 C 4.9 g/m*3 21.5 C 0 km/h
196 27-04-2010 15:13:01 23.9 C 4.98 g/m*3 23.9 C 0 km/h
197 27-04-2010 15:25:02 22.6 C 4.22 g/m*3 22.6 C 0 km/h
198 27-04-2010 15:37:01 23.2 C 4.78 g/m*3 23.2 C 0 km/h
199 27-04-2010 15:49:03 21.9 C 4.25 g/m*3 21.9 C 0 km/h
200 27-04-2010 16:01:02 22.5 C 4.39 g/m*3 22.5 C 0 km/h
Sensor: Nr:Datum:Temp:Abs-Feuchte:Windchill:Wind:
Aussen-T/F 201 27-04-2010 16:13:02 22.6 C 4.02 g/m*3 22.6 C 0 km/h
202 27-04-2010 16:25:02 23.3 C 4.39 g/m*3 23.3 C 0 km/h
203 27-04-2010 16:37:02 23.9 C 4.33 g/m*3 23.9 C 0 km/h
204 27-04-2010 16:49:02 23.7 C 4.28 g/m*3 23.7 C 0 km/h
205 27-04-2010 17:01:02 24.2 C 4.4 g/m*3 24.2 C 0 km/h
206 27-04-2010 17:13:02 22.7 C 4.24 g/m*3 22.7 C 0 km/h
207 27-04-2010 17:25:02 24 C 4.35 g/m*3 24 C 0 km/h
208 27-04-2010 17:37:02 23.8 C 4.3 g/m*3 23.8 C 0 km/h
209 27-04-2010 17:49:02 23.1 C 4.13 g/m*3 23.1 C 0 km/h
210 27-04-2010 18:01:02 24.2 C 4.4 g/m*3 24.2 C 0 km/h
211 27-04-2010 18:13:02 24.1 C 4.38 g/m*3 24.1 C 0 km/h
212 27-04-2010 18:25:02 23.2 C 4.16 g/m*3 23.2 C 0 km/h
213 27-04-2010 18:37:01 22.4 C 3.97 g/m*3 22.4 C 0 km/h
214 27-04-2010 18:49:02 22.2 C 3.93 g/m*3 22.2 C 0 km/h
215 27-04-2010 19:01:01 21.3 C 3.73 g/m*3 21.3 C 0 km/h
216 27-04-2010 19:13:01 21.3 C 4.1 g/m*3 21.3 C 0 km/h
217 27-04-2010 19:25:02 20.6 C 4.12 g/m*3 20.6 C 0 km/h
218 27-04-2010 19:37:01 20.2 C 4.37 g/m*3 20.2 C 0 km/h
219 27-04-2010 19:49:02 20 C 4.67 g/m*3 20 C 0 km/h
220 27-04-2010 20:01:01 19.7 C 4.92 g/m*3 19.7 C 0 km/h
221 27-04-2010 20:13:01 19.3 C 4.98 g/m*3 19.3 C 0 km/h
222 27-04-2010 20:25:02 18.4 C 5.03 g/m*3 18.4 C 0 km/h
223 27-04-2010 20:37:01 17.5 C 5.22 g/m*3 17.5 C 0 km/h
224 27-04-2010 20:49:02 16.8 C 5 g/m*3 16.8 C 0 km/h
225 27-04-2010 21:01:02 16.3 C 4.99 g/m*3 16.3 C 0 km/h
Sensor: Nr:Datum:Temp:Abs-Feuchte:Windchill:Wind:
Aussen-T/F 226 27-04-2010 21:13:02 15.9 C 5.01 g/m*3 15.9 C 0 km/h
227 27-04-2010 21:25:02 15.5 C 5.02 g/m*3 15.5 C 0 km/h
228 27-04-2010 21:37:02 15.2 C 4.93 g/m*3 15.2 C 0 km/h
229 27-04-2010 21:50:02 15.1 C 5.16 g/m*3 15.1 C 0 km/h
230 27-04-2010 22:02:02 14.9 C 5.23 g/m*3 14.9 C 0 km/h
231 27-04-2010 22:14:02 14.7 C 5.16 g/m*3 14.7 C 0 km/h
232 27-04-2010 22:26:02 14.4 C 5.19 g/m*3 14.4 C 0 km/h
233 27-04-2010 22:38:02 14.2 C 5.13 g/m*3 14.2 C 0 km/h
234 27-04-2010 22:50:02 14 C 5.19 g/m*3 14 C 0 km/h
235 27-04-2010 23:02:03 13.7 C 5.33 g/m*3 13.7 C 0 km/h
236 27-04-2010 23:14:03 13.4 C 5.35 g/m*3 13.4 C 0 km/h
237 27-04-2010 23:26:03 13.1 C 5.36 g/m*3 13.1 C 0 km/h
238 27-04-2010 23:38:03 12.7 C 5.34 g/m*3 12.7 C 0 km/h
239 27-04-2010 23:50:03 12.6 C 5.42 g/m*3 12.6 C 0 km/h
240 28-04-2010 00:02:03 12.5 C 5.5 g/m*3 12.5 C 0 km/h
241 28-04-2010 00:14:03 12.3 C 5.43 g/m*3 12.3 C 0 km/h
242 28-04-2010 00:26:03 12.2 C 5.5 g/m*3 12.2 C 0 km/h
243 28-04-2010 00:38:03 12 C 5.54 g/m*3 12 C 0 km/h
244 28-04-2010 00:50:03 11.9 C 5.61 g/m*3 11.9 C 0 km/h
245 28-04-2010 01:02:03 11.7 C 5.65 g/m*3 11.7 C 0 km/h
246 28-04-2010 01:14:03 11.5 C 5.58 g/m*3 11.5 C 0 km/h
247 28-04-2010 01:26:03 11.1 C 5.74 g/m*3 11.1 C 0 km/h
248 28-04-2010 01:38:03 10.8 C 5.83 g/m*3 10.8 C 0 km/h
249 28-04-2010 01:50:03 10.8 C 5.83 g/m*3 10.8 C 0 km/h
250 28-04-2010 02:02:03 10.8 C 5.83 g/m*3 10.8 C 0 km/h
Sensor: Nr:Datum:Temp:Abs-Feuchte:Windchill:Wind:
Aussen-T/F 251 28-04-2010 02:14:03 10.7 C 5.8 g/m*3 10.7 C 0 km/h
252 28-04-2010 02:26:03 10.5 C 5.82 g/m*3 10.5 C 0 km/h
253 28-04-2010 02:38:03 10.3 C 5.75 g/m*3 10.3 C 0 km/h
254 28-04-2010 02:50:03 10.1 C 5.67 g/m*3 10.1 C 0 km/h
255 28-04-2010 03:02:04 9.9 C 5.79 g/m*3 9.9 C 0 km/h
256 28-04-2010 03:14:04 9.8 C 5.75 g/m*3 9.8 C 0 km/h
257 28-04-2010 03:26:04 9.7 C 5.81 g/m*3 9.7 C 0 km/h
258 28-04-2010 03:38:04 9.5 C 5.83 g/m*3 9.5 C 0 km/h
259 28-04-2010 03:50:04 9.3 C 5.84 g/m*3 9.3 C 0 km/h
260 28-04-2010 04:02:04 9.1 C 5.86 g/m*3 9.1 C 0 km/h
261 28-04-2010 04:14:04 8.9 C 5.96 g/m*3 8.9 C 0 km/h
262 28-04-2010 04:26:04 8.7 C 5.97 g/m*3 8.7 C 0 km/h
263 28-04-2010 04:38:04 8.5 C 5.98 g/m*3 8.5 C 0 km/h
264 28-04-2010 04:50:04 8.3 C 5.9 g/m*3 8.3 C 0 km/h
265 28-04-2010 05:02:04 8.2 C 5.95 g/m*3 8.2 C 0 km/h
266 28-04-2010 05:14:04 7.9 C 5.91 g/m*3 7.9 C 0 km/h
267 28-04-2010 05:26:04 7.9 C 5.91 g/m*3 7.9 C 0 km/h
268 28-04-2010 05:38:04 7.7 C 5.84 g/m*3 7.7 C 0 km/h
269 28-04-2010 05:50:04 7.6 C 5.8 g/m*3 7.6 C 0 km/h
270 28-04-2010 06:02:04 7.5 C 5.76 g/m*3 7.5 C 0 km/h
271 28-04-2010 06:14:04 7.3 C 5.77 g/m*3 7.3 C 0 km/h
272 28-04-2010 06:26:04 7.2 C 5.81 g/m*3 7.2 C 0 km/h
273 28-04-2010 06:38:04 7.1 C 5.85 g/m*3 7.1 C 0 km/h
274 28-04-2010 06:50:04 7.1 C 5.85 g/m*3 7.1 C 0 km/h
275 28-04-2010 07:02:01 7.2 C 5.89 g/m*3 7.2 C 0 km/h
Sensor: Nr:Datum:Temp:Abs-Feuchte:Windchill:Wind:
Aussen-T/F 276 28-04-2010 07:14:01 7.3 C 6 g/m*3 7.3 C 0 km/h
277 28-04-2010 07:26:02 7.4 C 5.96 g/m*3 7.4 C 0 km/h
278 28-04-2010 07:38:01 7.6 C 6.12 g/m*3 7.6 C 0 km/h
279 28-04-2010 07:50:02 7.7 C 6.08 g/m*3 7.7 C 0 km/h
280 28-04-2010 08:02:01 7.9 C 6.16 g/m*3 7.9 C 0 km/h
281 28-04-2010 08:14:01 8 C 6.04 g/m*3 8 C 0 km/h
282 28-04-2010 08:26:02 8.2 C 6.11 g/m*3 8.2 C 0 km/h
283 28-04-2010 08:38:01 8.6 C 6.19 g/m*3 8.6 C 0 km/h
284 28-04-2010 08:50:02 8.8 C 6.18 g/m*3 8.8 C 0 km/h
285 28-04-2010 09:02:02 9.2 C 6.16 g/m*3 9.2 C 0 km/h
286 28-04-2010 09:14:02 9.8 C 6.31 g/m*3 9.8 C 0 km/h
287 28-04-2010 09:26:02 10.5 C 6.4 g/m*3 10.5 C 0 km/h
288 28-04-2010 09:38:02 11.1 C 6.45 g/m*3 11.1 C 0 km/h
289 28-04-2010 09:50:02 11.7 C 6.38 g/m*3 11.7 C 0 km/h
290 28-04-2010 10:02:02 12.4 C 6.56 g/m*3 12.4 C 0 km/h
291 28-04-2010 10:14:02 13.2 C 6.43 g/m*3 13.2 C 0 km/h
292 28-04-2010 10:26:02 13.8 C 6.43 g/m*3 13.8 C 0 km/h
293 28-04-2010 10:38:02 14.8 C 6.21 g/m*3 14.8 C 0 km/h
294 28-04-2010 10:50:02 15.6 C 6.12 g/m*3 15.6 C 0 km/h
295 28-04-2010 11:02:01 16.3 C 5.97 g/m*3 16.3 C 0 km/h
296 28-04-2010 11:14:01 17.3 C 6.19 g/m*3 17.3 C 0 km/h
297 28-04-2010 11:26:02 18 C 6.14 g/m*3 18 C 0 km/h
298 28-04-2010 11:38:01 18.4 C 5.82 g/m*3 18.4 C 0 km/h
299 28-04-2010 11:50:03 18.8 C 5.31 g/m*3 18.8 C 0 km/h
300 28-04-2010 12:02:02 19.1 C 5.25 g/m*3 19.1 C 0 km/h
Sensor: Nr:Datum:Temp:Abs-Feuchte:Windchill:Wind:
Aussen-T/F 301 28-04-2010 12:14:02 19.7 C 4.58 g/m*3 19.7 C 0 km/h
302 28-04-2010 12:26:02 20 C 4.49 g/m*3 20 C 0 km/h
303 28-04-2010 12:38:02 20.6 C 4.47 g/m*3 20.6 C 0 km/h
304 28-04-2010 12:50:02 21.1 C 4.24 g/m*3 21.1 C 0 km/h
305 28-04-2010 13:02:01 21.4 C 4.12 g/m*3 21.4 C 0 km/h
306 28-04-2010 13:14:01 22.6 C 4.02 g/m*3 22.6 C 0 km/h
307 28-04-2010 13:26:02 23.5 C 4.23 g/m*3 23.5 C 0 km/h
308 28-04-2010 13:38:01 23.3 C 4.18 g/m*3 23.3 C 0 km/h
309 28-04-2010 13:50:02 23.5 C 4.23 g/m*3 23.5 C 0 km/h
310 28-04-2010 14:02:01 24.1 C 4.38 g/m*3 24.1 C 0 km/h
311 28-04-2010 14:14:01 24.6 C 4.5 g/m*3 24.6 C 0 km/h
312 28-04-2010 14:26:02 24.9 C 4.58 g/m*3 24.9 C 0 km/h
313 28-04-2010 14:38:01 24.5 C 4.48 g/m*3 24.5 C 0 km/h
314 28-04-2010 14:50:02 24.7 C 4.53 g/m*3 24.7 C 0 km/h
315 28-04-2010 15:02:02 25.8 C 4.82 g/m*3 25.8 C 0 km/h
316 28-04-2010 15:14:02 25.5 C 4.73 g/m*3 25.5 C 0 km/h
317 28-04-2010 15:26:02 25.8 C 4.82 g/m*3 25.8 C 0 km/h
318 28-04-2010 15:38:02 26.4 C 4.98 g/m*3 26.4 C 0 km/h
319 28-04-2010 15:50:02 26.6 C 5.03 g/m*3 26.6 C 0 km/h
320 28-04-2010 16:02:02 27.4 C 5.26 g/m*3 27.4 C 0 km/h
321 28-04-2010 16:14:02 27.6 C 5.32 g/m*3 27.6 C 0 km/h
322 28-04-2010 16:26:02 28 C 5.44 g/m*3 28 C 0 km/h
323 28-04-2010 16:38:01 28 C 5.44 g/m*3 28 C 0 km/h
324 28-04-2010 16:50:02 27.9 C 5.41 g/m*3 27.9 C 0 km/h
325 28-04-2010 17:02:01 28 C 5.44 g/m*3 28 C 0 km/h
Sensor: Nr:Datum:Temp:Abs-Feuchte:Windchill:Wind:
Aussen-T/F 326 28-04-2010 17:14:01 29.2 C 5.81 g/m*3 29.2 C 0 km/h
327 28-04-2010 17:26:02 28.9 C 5.71 g/m*3 28.9 C 0 km/h
328 28-04-2010 17:38:01 27.9 C 5.41 g/m*3 27.9 C 0 km/h
329 28-04-2010 17:50:02 28.5 C 5.59 g/m*3 28.5 C 0 km/h
330 28-04-2010 18:02:02 28.2 C 5.5 g/m*3 28.2 C 0 km/h
331 28-04-2010 18:14:02 28.4 C 5.56 g/m*3 28.4 C 0 km/h
332 28-04-2010 18:26:02 28.4 C 5.56 g/m*3 28.4 C 0 km/h
333 28-04-2010 18:38:02 28.3 C 5.53 g/m*3 28.3 C 0 km/h
334 28-04-2010 18:50:02 27.9 C 5.41 g/m*3 27.9 C 0 km/h
335 28-04-2010 19:02:01 27.1 C 5.18 g/m*3 27.1 C 0 km/h
336 28-04-2010 19:14:01 26.5 C 5.01 g/m*3 26.5 C 0 km/h
337 28-04-2010 19:26:02 25.9 C 4.84 g/m*3 25.9 C 0 km/h
338 28-04-2010 19:38:01 25 C 4.83 g/m*3 25 C 0 km/h
339 28-04-2010 19:50:02 24.6 C 4.95 g/m*3 24.6 C 0 km/h
340 28-04-2010 20:02:01 23.9 C 5.41 g/m*3 23.9 C 0 km/h
341 28-04-2010 20:14:01 23 C 5.34 g/m*3 23 C 0 km/h
342 28-04-2010 20:26:01 22.1 C 5.47 g/m*3 22.1 C 0 km/h
343 28-04-2010 20:38:02 21.3 C 5.59 g/m*3 21.3 C 0 km/h
344 28-04-2010 20:50:02 20.4 C 5.48 g/m*3 20.4 C 0 km/h
345 28-04-2010 21:02:02 19.7 C 5.6 g/m*3 19.7 C 0 km/h
346 28-04-2010 21:14:02 19.3 C 5.47 g/m*3 19.3 C 0 km/h
347 28-04-2010 21:26:02 18.9 C 5.67 g/m*3 18.9 C 0 km/h
348 28-04-2010 21:38:01 18.8 C 5.64 g/m*3 18.8 C 0 km/h
349 28-04-2010 21:51:04 18.5 C 5.54 g/m*3 18.5 C 0 km/h
350 28-04-2010 22:03:04 18.5 C 5.7 g/m*3 18.5 C 0 km/h
Sensor: Nr:Datum:Temp:Abs-Feuchte:Windchill:Wind:
Aussen-T/F 351 28-04-2010 22:15:04 18.3 C 5.63 g/m*3 18.3 C 0 km/h
352 28-04-2010 22:27:04 18.2 C 5.6 g/m*3 18.2 C 0 km/h
353 28-04-2010 22:39:04 18 C 5.68 g/m*3 18 C 0 km/h
354 28-04-2010 22:51:04 18 C 5.53 g/m*3 18 C 0 km/h
355 28-04-2010 23:03:04 17.7 C 5.73 g/m*3 17.7 C 0 km/h
356 28-04-2010 23:15:04 17.3 C 5.75 g/m*3 17.3 C 0 km/h
357 28-04-2010 23:27:04 17 C 5.64 g/m*3 17 C 0 km/h
358 28-04-2010 23:39:04 16.6 C 5.79 g/m*3 16.6 C 0 km/h
359 28-04-2010 23:51:04 16.2 C 5.79 g/m*3 16.2 C 0 km/h
360 29-04-2010 00:03:04 16.2 C 5.79 g/m*3 16.2 C 0 km/h
361 29-04-2010 00:15:04 15.8 C 6.06 g/m*3 15.8 C 0 km/h
362 29-04-2010 00:27:05 15.4 C 5.78 g/m*3 15.4 C 0 km/h
363 29-04-2010 00:39:05 15.1 C 5.93 g/m*3 15.1 C 0 km/h
364 29-04-2010 00:51:05 14.7 C 5.79 g/m*3 14.7 C 0 km/h
365 29-04-2010 01:03:05 14.6 C 5.88 g/m*3 14.6 C 0 km/h
366 29-04-2010 01:15:05 14.2 C 5.74 g/m*3 14.2 C 0 km/h
367 29-04-2010 01:27:05 14 C 5.67 g/m*3 14 C 0 km/h
368 29-04-2010 01:39:05 13.8 C 5.72 g/m*3 13.8 C 0 km/h
369 29-04-2010 01:51:05 13.5 C 5.85 g/m*3 13.5 C 0 km/h
370 29-04-2010 02:03:05 13.6 C 5.88 g/m*3 13.6 C 0 km/h
371 29-04-2010 02:15:05 12.8 C 6.05 g/m*3 12.8 C 0 km/h
372 29-04-2010 02:27:05 12.9 C 6.09 g/m*3 12.9 C 0 km/h
373 29-04-2010 02:39:05 12.7 C 6.01 g/m*3 12.7 C 0 km/h
374 29-04-2010 02:51:05 12.5 C 6.16 g/m*3 12.5 C 0 km/h
375 29-04-2010 03:03:05 12.2 C 6.37 g/m*3 12.2 C 0 km/h
Sensor: Nr:Datum:Temp:Abs-Feuchte:Windchill:Wind:
Aussen-T/F 376 29-04-2010 03:15:05 12 C 6.29 g/m*3 12 C 0 km/h
377 29-04-2010 03:27:05 11.8 C 6.21 g/m*3 11.8 C 0 km/h
378 29-04-2010 03:39:05 11.8 C 6.31 g/m*3 11.8 C 0 km/h
379 29-04-2010 03:51:05 11.7 C 6.38 g/m*3 11.7 C 0 km/h
380 29-04-2010 04:03:05 11.7 C 6.38 g/m*3 11.7 C 0 km/h
381 29-04-2010 04:15:05 11.5 C 6.4 g/m*3 11.5 C 0 km/h
382 29-04-2010 04:27:06 11.2 C 6.49 g/m*3 11.2 C 0 km/h
383 29-04-2010 04:39:06 10.9 C 6.56 g/m*3 10.9 C 0 km/h
384 29-04-2010 04:51:06 10.8 C 6.42 g/m*3 10.8 C 0 km/h
385 29-04-2010 05:03:06 10.7 C 6.38 g/m*3 10.7 C 0 km/h
386 29-04-2010 05:15:06 10.6 C 6.34 g/m*3 10.6 C 0 km/h
387 29-04-2010 05:27:06 10.4 C 6.26 g/m*3 10.4 C 0 km/h
388 29-04-2010 05:39:06 10.3 C 6.32 g/m*3 10.3 C 0 km/h
389 29-04-2010 05:51:06 10.2 C 6.28 g/m*3 10.2 C 0 km/h
390 29-04-2010 06:03:06 10.1 C 6.24 g/m*3 10.1 C 0 km/h
391 29-04-2010 06:15:06 9.9 C 6.35 g/m*3 9.9 C 0 km/h
392 29-04-2010 06:27:06 9.7 C 6.45 g/m*3 9.7 C 0 km/h
393 29-04-2010 06:39:06 9.8 C 6.49 g/m*3 9.8 C 0 km/h
394 29-04-2010 06:51:01 9.8 C 6.49 g/m*3 9.8 C 0 km/h
395 29-04-2010 07:03:02 10 C 6.48 g/m*3 10 C 0 km/h
396 29-04-2010 07:15:01 10.1 C 6.52 g/m*3 10.1 C 0 km/h
397 29-04-2010 07:27:01 10.3 C 6.61 g/m*3 10.3 C 0 km/h
398 29-04-2010 07:39:02 10.3 C 6.61 g/m*3 10.3 C 0 km/h
399 29-04-2010 07:51:02 10.4 C 6.65 g/m*3 10.4 C 0 km/h
400 29-04-2010 08:03:02 10.9 C 6.76 g/m*3 10.9 C 0 km/h
Sensor: Nr:Datum:Temp:Abs-Feuchte:Windchill:Wind:
Aussen-T/F 401 29-04-2010 08:15:02 11.9 C 6.88 g/m*3 11.9 C 0 km/h
402 29-04-2010 08:27:02 12.5 C 6.71 g/m*3 12.5 C 0 km/h
403 29-04-2010 08:39:02 12.8 C 6.72 g/m*3 12.8 C 0 km/h
404 29-04-2010 08:51:01 12.9 C 6.76 g/m*3 12.9 C 0 km/h
405 29-04-2010 09:03:02 12.8 C 6.72 g/m*3 12.8 C 0 km/h
406 29-04-2010 09:15:02 13.1 C 6.62 g/m*3 13.1 C 0 km/h
407 29-04-2010 09:27:02 14 C 6.39 g/m*3 14 C 0 km/h
408 29-04-2010 09:39:02 14.9 C 6.5 g/m*3 14.9 C 0 km/h
409 29-04-2010 09:51:01 15.7 C 6.15 g/m*3 15.7 C 0 km/h
410 29-04-2010 10:03:02 16.6 C 6.36 g/m*3 16.6 C 0 km/h
411 29-04-2010 10:15:02 17.4 C 6.37 g/m*3 17.4 C 0 km/h
412 29-04-2010 10:27:02 17.7 C 6.49 g/m*3 17.7 C 0 km/h
413 29-04-2010 10:39:01 18.3 C 6.88 g/m*3 18.3 C 0 km/h
414 29-04-2010 10:51:01 19.3 C 6.8 g/m*3 19.3 C 0 km/h
415 29-04-2010 11:03:01 20.1 C 6.78 g/m*3 20.1 C 0 km/h
416 29-04-2010 11:15:02 20.9 C 6.74 g/m*3 20.9 C 0 km/h
417 29-04-2010 11:27:02 22 C 6.4 g/m*3 22 C 0 km/h
418 29-04-2010 11:39:01 22.3 C 6.12 g/m*3 22.3 C 0 km/h
419 29-04-2010 11:51:01 22.5 C 6.39 g/m*3 22.5 C 0 km/h
420 29-04-2010 12:03:01 22.7 C 6.26 g/m*3 22.7 C 0 km/h
421 29-04-2010 12:15:02 23.7 C 6.2 g/m*3 23.7 C 0 km/h
422 29-04-2010 12:27:02 24 C 5.87 g/m*3 24 C 0 km/h
423 29-04-2010 12:39:01 24.3 C 5.75 g/m*3 24.3 C 0 km/h
424 29-04-2010 12:51:03 24.7 C 4.75 g/m*3 24.7 C 0 km/h
425 29-04-2010 13:03:02 25.2 C 4.66 g/m*3 25.2 C 0 km/h
Sensor: Nr:Datum:Temp:Abs-Feuchte:Windchill:Wind:
Aussen-T/F 426 29-04-2010 13:15:03 25.7 C 4.79 g/m*3 25.7 C 0 km/h
427 29-04-2010 13:27:03 25.9 C 4.84 g/m*3 25.9 C 0 km/h
428 29-04-2010 13:39:02 26.1 C 4.9 g/m*3 26.1 C 0 km/h
429 29-04-2010 13:51:03 26.4 C 4.98 g/m*3 26.4 C 0 km/h
430 29-04-2010 14:03:02 26.4 C 4.98 g/m*3 26.4 C 0 km/h
431 29-04-2010 14:15:02 26.6 C 5.03 g/m*3 26.6 C 0 km/h
432 29-04-2010 14:27:02 27.1 C 5.18 g/m*3 27.1 C 0 km/h
433 29-04-2010 14:39:02 27 C 5.15 g/m*3 27 C 0 km/h
434 29-04-2010 14:51:02 28 C 5.44 g/m*3 28 C 0 km/h
435 29-04-2010 15:03:02 27.9 C 5.41 g/m*3 27.9 C 0 km/h
436 29-04-2010 15:15:02 27.6 C 5.32 g/m*3 27.6 C 0 km/h
437 29-04-2010 15:27:02 27.6 C 5.32 g/m*3 27.6 C 0 km/h
438 29-04-2010 15:39:01 27.6 C 5.32 g/m*3 27.6 C 0 km/h
439 29-04-2010 15:51:02 27.6 C 5.32 g/m*3 27.6 C 0 km/h
440 29-04-2010 16:03:01 27.9 C 5.41 g/m*3 27.9 C 0 km/h
441 29-04-2010 16:15:02 27.8 C 5.38 g/m*3 27.8 C 0 km/h
442 29-04-2010 16:27:02 27.9 C 5.41 g/m*3 27.9 C 0 km/h
443 29-04-2010 16:39:01 27.6 C 5.32 g/m*3 27.6 C 0 km/h
444 29-04-2010 16:51:03 27.8 C 5.38 g/m*3 27.8 C 0 km/h
445 29-04-2010 17:03:02 27.8 C 5.38 g/m*3 27.8 C 0 km/h
446 29-04-2010 17:15:02 27.8 C 5.38 g/m*3 27.8 C 0 km/h
447 29-04-2010 17:27:02 27.5 C 5.29 g/m*3 27.5 C 0 km/h
448 29-04-2010 17:39:02 27.8 C 5.38 g/m*3 27.8 C 0 km/h
449 29-04-2010 17:51:02 28.4 C 5.56 g/m*3 28.4 C 0 km/h
450 29-04-2010 18:03:02 28 C 5.44 g/m*3 28 C 0 km/h
Sensor: Nr:Datum:Temp:Abs-Feuchte:Windchill:Wind:
Aussen-T/F 451 29-04-2010 18:15:02 27.8 C 5.38 g/m*3 27.8 C 0 km/h
452 29-04-2010 18:27:02 27.5 C 5.29 g/m*3 27.5 C 0 km/h
453 29-04-2010 18:39:02 27.5 C 5.29 g/m*3 27.5 C 0 km/h
454 29-04-2010 18:51:02 27 C 5.15 g/m*3 27 C 0 km/h
455 29-04-2010 19:03:02 26.5 C 5.01 g/m*3 26.5 C 0 km/h
456 29-04-2010 19:15:02 26.1 C 4.9 g/m*3 26.1 C 0 km/h
457 29-04-2010 19:27:02 25.7 C 4.79 g/m*3 25.7 C 0 km/h
458 29-04-2010 19:39:02 25.3 C 4.68 g/m*3 25.3 C 0 km/h
459 29-04-2010 19:51:01 24.8 C 5.01 g/m*3 24.8 C 0 km/h
460 29-04-2010 20:03:02 24.4 C 5.12 g/m*3 24.4 C 0 km/h
461 29-04-2010 20:15:02 23.9 C 5.41 g/m*3 23.9 C 0 km/h
462 29-04-2010 20:27:02 23.6 C 5.53 g/m*3 23.6 C 0 km/h
463 29-04-2010 20:39:02 23.1 C 5.58 g/m*3 23.1 C 0 km/h
464 29-04-2010 20:51:02 22.6 C 6.03 g/m*3 22.6 C 0 km/h
465 29-04-2010 21:03:02 22.2 C 6.09 g/m*3 22.2 C 0 km/h
466 29-04-2010 21:15:02 21.9 C 6.37 g/m*3 21.9 C 0 km/h
467 29-04-2010 21:27:02 21.7 C 6.29 g/m*3 21.7 C 0 km/h
468 29-04-2010 21:39:01 21.6 C 6.45 g/m*3 21.6 C 0 km/h
469 29-04-2010 21:51:02 21.5 C 6.41 g/m*3 21.5 C 0 km/h
470 29-04-2010 22:03:01 21.4 C 6.56 g/m*3 21.4 C 0 km/h
471 29-04-2010 22:15:02 21.3 C 6.52 g/m*3 21.3 C 0 km/h
472 29-04-2010 22:27:02 21.1 C 6.63 g/m*3 21.1 C 0 km/h
473 29-04-2010 22:39:01 20.7 C 7.02 g/m*3 20.7 C 0 km/h
474 29-04-2010 22:51:02 20.5 C 7.12 g/m*3 20.5 C 0 km/h
475 29-04-2010 23:04:01 20.4 C 7.08 g/m*3 20.4 C 0 km/h
Sensor: Nr:Datum:Temp:Abs-Feuchte:Windchill:Wind:
Aussen-T/F 476 29-04-2010 23:16:01 20.1 C 7.13 g/m*3 20.1 C 0 km/h
477 29-04-2010 23:28:01 19.7 C 7.3 g/m*3 19.7 C 0 km/h
478 29-04-2010 23:40:01 19.5 C 7.22 g/m*3 19.5 C 0 km/h
479 29-04-2010 23:52:01 19.3 C 7.13 g/m*3 19.3 C 0 km/h
480 30-04-2010 00:04:01 19.4 C 7.17 g/m*3 19.4 C 0 km/h
481 30-04-2010 00:16:02 19.6 C 7.09 g/m*3 19.6 C 0 km/h
482 30-04-2010 00:28:02 19.7 C 6.96 g/m*3 19.7 C 0 km/h
483 30-04-2010 00:40:02 20 C 6.91 g/m*3 20 C 0 km/h
484 30-04-2010 00:52:02 20.3 C 6.68 g/m*3 20.3 C 0 km/h
485 30-04-2010 01:04:02 20.5 C 6.58 g/m*3 20.5 C 0 km/h
486 30-04-2010 01:16:02 20.8 C 6.7 g/m*3 20.8 C 0 km/h
487 30-04-2010 01:28:02 20.9 C 6.92 g/m*3 20.9 C 0 km/h
488 30-04-2010 01:40:02 20.7 C 6.84 g/m*3 20.7 C 0 km/h
489 30-04-2010 01:52:02 20.8 C 6.7 g/m*3 20.8 C 0 km/h
490 30-04-2010 02:04:02 20.8 C 6.7 g/m*3 20.8 C 0 km/h
491 30-04-2010 02:16:02 20.9 C 6.74 g/m*3 20.9 C 0 km/h
492 30-04-2010 02:28:02 21 C 6.59 g/m*3 21 C 0 km/h
493 30-04-2010 02:40:02 20.5 C 6.94 g/m*3 20.5 C 0 km/h
494 30-04-2010 02:52:02 20.6 C 6.98 g/m*3 20.6 C 0 km/h
495 30-04-2010 03:04:02 20.4 C 7.08 g/m*3 20.4 C 0 km/h
496 30-04-2010 03:16:02 20.1 C 7.13 g/m*3 20.1 C 0 km/h
497 30-04-2010 03:28:02 20.1 C 7.3 g/m*3 20.1 C 0 km/h
498 30-04-2010 03:40:02 19.8 C 7.69 g/m*3 19.8 C 0 km/h
499 30-04-2010 03:52:02 19.8 C 7.86 g/m*3 19.8 C 0 km/h
500 30-04-2010 04:04:02 19.7 C 7.81 g/m*3 19.7 C 0 km/h
Sensor: Nr:Datum:Temp:Abs-Feuchte:Windchill:Wind:
Aussen-T/F 501 30-04-2010 04:16:02 19.7 C 7.98 g/m*3 19.7 C 0 km/h
502 30-04-2010 04:28:02 19.4 C 8.18 g/m*3 19.4 C 0 km/h
503 30-04-2010 04:40:03 19.2 C 8.24 g/m*3 19.2 C 0 km/h
504 30-04-2010 04:52:03 18.9 C 8.42 g/m*3 18.9 C 0 km/h
505 30-04-2010 05:04:03 18.7 C 8.33 g/m*3 18.7 C 0 km/h
506 30-04-2010 05:16:03 18.6 C 8.44 g/m*3 18.6 C 0 km/h
507 30-04-2010 05:28:03 18.2 C 8.39 g/m*3 18.2 C 0 km/h
508 30-04-2010 05:40:03 17.9 C 8.7 g/m*3 17.9 C 0 km/h
509 30-04-2010 05:52:03 17.8 C 8.65 g/m*3 17.8 C 0 km/h
510 30-04-2010 06:04:03 17.5 C 8.65 g/m*3 17.5 C 0 km/h
511 30-04-2010 06:16:03 17.4 C 8.74 g/m*3 17.4 C 0 km/h
512 30-04-2010 06:28:03 17.3 C 8.69 g/m*3 17.3 C 0 km/h
513 30-04-2010 06:40:03 17.4 C 8.74 g/m*3 17.4 C 0 km/h
514 30-04-2010 06:52:03 17.2 C 8.64 g/m*3 17.2 C 0 km/h
515 30-04-2010 07:04:02 17.1 C 8.73 g/m*3 17.1 C 0 km/h
516 30-04-2010 07:16:01 17.3 C 8.84 g/m*3 17.3 C 0 km/h
517 30-04-2010 07:28:01 17.5 C 8.95 g/m*3 17.5 C 0 km/h
518 30-04-2010 07:40:02 17.7 C 8.9 g/m*3 17.7 C 0 km/h
519 30-04-2010 07:52:02 17.6 C 8.55 g/m*3 17.6 C 0 km/h
520 30-04-2010 08:04:02 18.1 C 8.19 g/m*3 18.1 C 0 km/h
521 30-04-2010 08:16:02 18.3 C 7.97 g/m*3 18.3 C 0 km/h
522 30-04-2010 08:28:02 18.3 C 7.97 g/m*3 18.3 C 0 km/h
523 30-04-2010 08:40:02 18.2 C 7.93 g/m*3 18.2 C 0 km/h
524 30-04-2010 08:52:02 18.4 C 8.02 g/m*3 18.4 C 0 km/h
525 30-04-2010 09:04:03 18.3 C 7.97 g/m*3 18.3 C 0 km/h
Sensor: Nr:Datum:Temp:Abs-Feuchte:Windchill:Wind:
Aussen-T/F 526 30-04-2010 09:16:02 18.3 C 7.82 g/m*3 18.3 C 0 km/h
527 30-04-2010 09:28:02 18.4 C 7.24 g/m*3 18.4 C 0 km/h
528 30-04-2010 09:40:02 18.5 C 6.65 g/m*3 18.5 C 0 km/h
529 30-04-2010 09:52:01 18.4 C 6.61 g/m*3 18.4 C 0 km/h
530 30-04-2010 10:04:02 18.3 C 6.57 g/m*3 18.3 C 0 km/h
531 30-04-2010 10:16:01 18.5 C 6.33 g/m*3 18.5 C 0 km/h
532 30-04-2010 10:28:01 18.6 C 6.37 g/m*3 18.6 C 0 km/h
533 30-04-2010 10:40:02 18.8 C 6.44 g/m*3 18.8 C 0 km/h
534 30-04-2010 10:52:02 18.6 C 5.73 g/m*3 18.6 C 0 km/h
535 30-04-2010 11:04:02 19 C 5.87 g/m*3 19 C 0 km/h
536 30-04-2010 11:16:02 18.9 C 5.83 g/m*3 18.9 C 0 km/h
537 30-04-2010 11:28:02 19 C 5.87 g/m*3 19 C 0 km/h
538 30-04-2010 11:40:02 19.5 C 6.04 g/m*3 19.5 C 0 km/h
539 30-04-2010 11:52:02 19.7 C 6.11 g/m*3 19.7 C 0 km/h
540 30-04-2010 12:04:02 20.6 C 6.09 g/m*3 20.6 C 0 km/h
541 30-04-2010 12:16:02 20.8 C 5.79 g/m*3 20.8 C 0 km/h
542 30-04-2010 12:28:02 19.9 C 6.01 g/m*3 19.9 C 0 km/h
543 30-04-2010 12:40:02 19.8 C 5.98 g/m*3 19.8 C 0 km/h
544 30-04-2010 12:52:01 20 C 5.88 g/m*3 20 C 0 km/h
545 30-04-2010 13:04:02 20.6 C 5.73 g/m*3 20.6 C 0 km/h
546 30-04-2010 13:16:01 20.7 C 5.76 g/m*3 20.7 C 0 km/h
547 30-04-2010 13:28:01 21 C 5.5 g/m*3 21 C 0 km/h
548 30-04-2010 13:40:01 21 C 5.5 g/m*3 21 C 0 km/h
549 30-04-2010 13:52:01 20.8 C 5.61 g/m*3 20.8 C 0 km/h
550 30-04-2010 14:04:02 20.5 C 5.69 g/m*3 20.5 C 0 km/h
Sensor: Nr:Datum:Temp:Abs-Feuchte:Windchill:Wind:
Aussen-T/F 551 30-04-2010 14:16:01 21.4 C 5.81 g/m*3 21.4 C 0 km/h
552 30-04-2010 14:28:01 20.9 C 5.65 g/m*3 20.9 C 0 km/h
553 30-04-2010 14:40:02 20.8 C 5.79 g/m*3 20.8 C 0 km/h
554 30-04-2010 14:52:02 20.8 C 6.34 g/m*3 20.8 C 0 km/h
555 30-04-2010 15:04:02 20.4 C 6.01 g/m*3 20.4 C 0 km/h
556 30-04-2010 15:16:01 20.7 C 6.12 g/m*3 20.7 C 0 km/h
557 30-04-2010 15:28:01 20.6 C 6.09 g/m*3 20.6 C 0 km/h
558 30-04-2010 15:40:02 20.9 C 6.19 g/m*3 20.9 C 0 km/h
559 30-04-2010 15:52:02 20.6 C 6.09 g/m*3 20.6 C 0 km/h
560 30-04-2010 16:04:02 19.7 C 5.94 g/m*3 19.7 C 0 km/h
561 30-04-2010 16:16:01 19.4 C 5.84 g/m*3 19.4 C 0 km/h
562 30-04-2010 16:28:01 19.6 C 5.91 g/m*3 19.6 C 0 km/h
563 30-04-2010 16:40:02 19.7 C 5.94 g/m*3 19.7 C 0 km/h
564 30-04-2010 16:52:02 19.5 C 6.04 g/m*3 19.5 C 0 km/h
565 30-04-2010 17:04:02 19.7 C 6.11 g/m*3 19.7 C 0 km/h
566 30-04-2010 17:16:02 19.8 C 5.98 g/m*3 19.8 C 0 km/h
567 30-04-2010 17:28:02 20 C 6.22 g/m*3 20 C 0 km/h
568 30-04-2010 17:40:02 19.4 C 6.01 g/m*3 19.4 C 0 km/h
569 30-04-2010 17:52:02 19.5 C 6.04 g/m*3 19.5 C 0 km/h
570 30-04-2010 18:04:02 19.5 C 6.04 g/m*3 19.5 C 0 km/h
571 30-04-2010 18:16:02 19.7 C 6.28 g/m*3 19.7 C 0 km/h
572 30-04-2010 18:28:02 19.2 C 5.94 g/m*3 19.2 C 0 km/h
573 30-04-2010 18:40:02 19.1 C 6.07 g/m*3 19.1 C 0 km/h
574 30-04-2010 18:52:02 18.9 C 6.16 g/m*3 18.9 C 0 km/h
575 30-04-2010 19:04:02 18.8 C 6.44 g/m*3 18.8 C 0 km/h
Sensor: Nr:Datum:Temp:Abs-Feuchte:Windchill:Wind:
Aussen-T/F 576 30-04-2010 19:16:03 18.7 C 6.24 g/m*3 18.7 C 0 km/h
577 30-04-2010 19:28:03 18.4 C 6.13 g/m*3 18.4 C 0 km/h
578 30-04-2010 19:40:02 18.1 C 6.18 g/m*3 18.1 C 0 km/h
579 30-04-2010 19:52:02 18.1 C 6.33 g/m*3 18.1 C 0 km/h
580 30-04-2010 20:04:02 18 C 6.3 g/m*3 18 C 0 km/h
581 30-04-2010 20:16:03 17.9 C 6.41 g/m*3 17.9 C 0 km/h
582 30-04-2010 20:28:03 17.7 C 6.49 g/m*3 17.7 C 0 km/h
583 30-04-2010 20:40:02 17 C 7.23 g/m*3 17 C 0 km/h
584 30-04-2010 20:52:02 16.3 C 7.77 g/m*3 16.3 C 0 km/h
585 30-04-2010 21:04:02 15.1 C 8.26 g/m*3 15.1 C 0 km/h
586 30-04-2010 21:16:02 14.7 C 8.69 g/m*3 14.7 C 0 km/h
587 30-04-2010 21:28:02 15.1 C 8.9 g/m*3 15.1 C 0 km/h
588 30-04-2010 21:40:02 15.3 C 8.75 g/m*3 15.3 C 0 km/h
589 30-04-2010 21:52:02 15.2 C 8.44 g/m*3 15.2 C 0 km/h
590 30-04-2010 22:04:02 15.3 C 8.23 g/m*3 15.3 C 0 km/h
591 30-04-2010 22:16:02 15.2 C 8.05 g/m*3 15.2 C 0 km/h
592 30-04-2010 22:28:02 14.9 C 8.16 g/m*3 14.9 C 0 km/h
593 30-04-2010 22:40:02 14.9 C 8.16 g/m*3 14.9 C 0 km/h
594 30-04-2010 22:52:01 14.8 C 8.11 g/m*3 14.8 C 0 km/h
595 30-04-2010 23:05:02 14.2 C 7.33 g/m*3 14.2 C 0 km/h
596 30-04-2010 23:17:02 13.8 C 7.15 g/m*3 13.8 C 0 km/h
597 30-04-2010 23:29:02 13.4 C 6.74 g/m*3 13.4 C 0 km/h
598 30-04-2010 23:41:02 13.1 C 6.39 g/m*3 13.1 C 0 km/h
599 30-04-2010 23:53:02 13.1 C 6.28 g/m*3 13.1 C 0 km/h
600 01-05-2010 00:05:02 13.2 C 6.32 g/m*3 13.2 C 0 km/h
Sensor: Nr:Datum:Temp:Abs-Feuchte:Windchill:Wind:
Aussen-T/F 601 01-05-2010 00:17:02 13.3 C 6.47 g/m*3 13.3 C 0 km/h
602 01-05-2010 00:29:02 13.3 C 6.47 g/m*3 13.3 C 0 km/h
603 01-05-2010 00:41:03 13.4 C 6.86 g/m*3 13.4 C 0 km/h
604 01-05-2010 00:53:03 13.4 C 6.86 g/m*3 13.4 C 0 km/h
605 01-05-2010 01:05:03 13.4 C 6.86 g/m*3 13.4 C 0 km/h
606 01-05-2010 01:17:03 13.3 C 6.59 g/m*3 13.3 C 0 km/h
607 01-05-2010 01:29:03 13.2 C 6.77 g/m*3 13.2 C 0 km/h
608 01-05-2010 01:41:03 13.1 C 7.07 g/m*3 13.1 C 0 km/h
609 01-05-2010 01:53:03 13 C 7.03 g/m*3 13 C 0 km/h
610 01-05-2010 02:05:03 12.9 C 7.1 g/m*3 12.9 C 0 km/h
611 01-05-2010 02:17:03 12.8 C 7.06 g/m*3 12.8 C 0 km/h
612 01-05-2010 02:29:03 12.9 C 6.88 g/m*3 12.9 C 0 km/h
613 01-05-2010 02:41:03 12.9 C 6.65 g/m*3 12.9 C 0 km/h
614 01-05-2010 02:53:03 12.9 C 6.54 g/m*3 12.9 C 0 km/h
615 01-05-2010 03:05:03 12.8 C 6.83 g/m*3 12.8 C 0 km/h
616 01-05-2010 03:17:03 12.7 C 6.79 g/m*3 12.7 C 0 km/h
617 01-05-2010 03:29:03 12.6 C 6.53 g/m*3 12.6 C 0 km/h
618 01-05-2010 03:41:03 12.5 C 6.49 g/m*3 12.5 C 0 km/h
619 01-05-2010 03:53:03 12.5 C 6.6 g/m*3 12.5 C 0 km/h
620 01-05-2010 04:05:03 12.5 C 6.82 g/m*3 12.5 C 0 km/h
621 01-05-2010 04:17:03 12.5 C 7.26 g/m*3 12.5 C 0 km/h
622 01-05-2010 04:29:03 12.5 C 7.04 g/m*3 12.5 C 0 km/h
623 01-05-2010 04:41:03 12.4 C 7.21 g/m*3 12.4 C 0 km/h
624 01-05-2010 04:53:03 12.4 C 7.21 g/m*3 12.4 C 0 km/h
625 01-05-2010 05:05:04 12.4 C 7.21 g/m*3 12.4 C 0 km/h
Sensor: Nr:Datum:Temp:Abs-Feuchte:Windchill:Wind:
Aussen-T/F 626 01-05-2010 05:17:04 12.4 C 7.32 g/m*3 12.4 C 0 km/h
627 01-05-2010 05:29:04 12.4 C 7.43 g/m*3 12.4 C 0 km/h
628 01-05-2010 05:41:04 12.3 C 7.49 g/m*3 12.3 C 0 km/h
629 01-05-2010 05:53:04 11.8 C 7.79 g/m*3 11.8 C 0 km/h
630 01-05-2010 06:05:04 11.6 C 8.11 g/m*3 11.6 C 0 km/h
631 01-05-2010 06:17:04 11.5 C 8.16 g/m*3 11.5 C 0 km/h
632 01-05-2010 06:29:04 11.5 C 8.37 g/m*3 11.5 C 0 km/h
633 01-05-2010 06:41:04 11.5 C 8.47 g/m*3 11.5 C 0 km/h
634 01-05-2010 06:53:04 11.4 C 8.42 g/m*3 11.4 C 0 km/h
635 01-05-2010 07:05:04 11.4 C 8.42 g/m*3 11.4 C 0 km/h
636 01-05-2010 07:17:04 11.4 C 8.31 g/m*3 11.4 C 0 km/h
637 01-05-2010 07:29:04 11.6 C 8.52 g/m*3 11.6 C 0 km/h
638 01-05-2010 07:41:02 11.8 C 8.63 g/m*3 11.8 C 0 km/h
639 01-05-2010 07:53:01 12.1 C 8.69 g/m*3 12.1 C 0 km/h
640 01-05-2010 08:05:02 12.6 C 8.85 g/m*3 12.6 C 0 km/h
641 01-05-2010 08:17:01 12.7 C 8.24 g/m*3 12.7 C 0 km/h
642 01-05-2010 08:29:01 13 C 7.94 g/m*3 13 C 0 km/h
643 01-05-2010 08:41:01 13.4 C 8.14 g/m*3 13.4 C 0 km/h
644 01-05-2010 08:53:01 13.6 C 8.12 g/m*3 13.6 C 0 km/h
645 01-05-2010 09:05:02 13.9 C 8.15 g/m*3 13.9 C 0 km/h
646 01-05-2010 09:17:01 14.3 C 7.99 g/m*3 14.3 C 0 km/h
647 01-05-2010 09:29:01 14.3 C 7.86 g/m*3 14.3 C 0 km/h
648 01-05-2010 09:41:01 14.2 C 8.06 g/m*3 14.2 C 0 km/h
649 01-05-2010 09:53:01 14 C 7.96 g/m*3 14 C 0 km/h
650 01-05-2010 10:05:02 14.3 C 7.74 g/m*3 14.3 C 0 km/h
Sensor: Nr:Datum:Temp:Abs-Feuchte:Windchill:Wind:
Aussen-T/F 651 01-05-2010 10:17:01 14.3 C 7.49 g/m*3 14.3 C 0 km/h
652 01-05-2010 10:29:01 14.7 C 7.81 g/m*3 14.7 C 0 km/h
653 01-05-2010 10:41:02 14.7 C 7.43 g/m*3 14.7 C 0 km/h
654 01-05-2010 10:53:02 15.1 C 7.22 g/m*3 15.1 C 0 km/h
655 01-05-2010 11:05:02 15.8 C 7.4 g/m*3 15.8 C 0 km/h
656 01-05-2010 11:17:01 15.9 C 6.91 g/m*3 15.9 C 0 km/h
657 01-05-2010 11:29:01 16.5 C 6.46 g/m*3 16.5 C 0 km/h
658 01-05-2010 11:41:02 16.9 C 6.33 g/m*3 16.9 C 0 km/h
659 01-05-2010 11:53:02 17.2 C 5.71 g/m*3 17.2 C 0 km/h
660 01-05-2010 12:05:02 17.6 C 5.85 g/m*3 17.6 C 0 km/h
661 01-05-2010 12:17:02 17.7 C 5.88 g/m*3 17.7 C 0 km/h
662 01-05-2010 12:29:02 17.6 C 5.85 g/m*3 17.6 C 0 km/h
663 01-05-2010 12:41:02 16.9 C 5.32 g/m*3 16.9 C 0 km/h
664 01-05-2010 12:53:02 17.6 C 5.7 g/m*3 17.6 C 0 km/h
665 01-05-2010 13:05:02 18.9 C 5.67 g/m*3 18.9 C 0 km/h
666 01-05-2010 13:17:02 18.6 C 5.09 g/m*3 18.6 C 0 km/h
667 01-05-2010 13:29:02 18.9 C 5.18 g/m*3 18.9 C 0 km/h
668 01-05-2010 13:41:02 18.9 C 5.02 g/m*3 18.9 C 0 km/h
669 01-05-2010 13:53:01 20.7 C 4.68 g/m*3 20.7 C 0 km/h
670 01-05-2010 14:05:02 19.1 C 4.92 g/m*3 19.1 C 0 km/h
671 01-05-2010 14:17:01 19.9 C 4.98 g/m*3 19.9 C 0 km/h
672 01-05-2010 14:29:01 19.7 C 4.92 g/m*3 19.7 C 0 km/h
673 01-05-2010 14:41:02 20.3 C 4.75 g/m*3 20.3 C 0 km/h
674 01-05-2010 14:53:02 20.1 C 4.87 g/m*3 20.1 C 0 km/h
675 01-05-2010 15:05:03 19.7 C 4.75 g/m*3 19.7 C 0 km/h
Sensor: Nr:Datum:Temp:Abs-Feuchte:Windchill:Wind:
Aussen-T/F 676 01-05-2010 15:17:02 19.9 C 4.81 g/m*3 19.9 C 0 km/h
677 01-05-2010 15:29:02 18.9 C 4.86 g/m*3 18.9 C 0 km/h
678 01-05-2010 15:41:02 18.8 C 4.99 g/m*3 18.8 C 0 km/h
679 01-05-2010 15:53:02 18.1 C 5.1 g/m*3 18.1 C 0 km/h
680 01-05-2010 16:05:02 17.7 C 5.28 g/m*3 17.7 C 0 km/h
681 01-05-2010 16:17:01 17.5 C 5.37 g/m*3 17.5 C 0 km/h
682 01-05-2010 16:29:01 17.5 C 5.52 g/m*3 17.5 C 0 km/h
683 01-05-2010 16:41:02 17.5 C 5.67 g/m*3 17.5 C 0 km/h
684 01-05-2010 16:53:01 17.7 C 5.73 g/m*3 17.7 C 0 km/h
685 01-05-2010 17:05:02 17.7 C 5.73 g/m*3 17.7 C 0 km/h
686 01-05-2010 17:17:01 17.9 C 5.8 g/m*3 17.9 C 0 km/h
687 01-05-2010 17:29:01 17.9 C 5.65 g/m*3 17.9 C 0 km/h
688 01-05-2010 17:41:02 17.7 C 5.73 g/m*3 17.7 C 0 km/h
689 01-05-2010 17:53:01 17.2 C 5.71 g/m*3 17.2 C 0 km/h
690 01-05-2010 18:05:02 17.4 C 5.93 g/m*3 17.4 C 0 km/h
691 01-05-2010 18:17:02 17.5 C 5.96 g/m*3 17.5 C 0 km/h
692 01-05-2010 18:29:02 17.6 C 6.15 g/m*3 17.6 C 0 km/h
693 01-05-2010 18:41:01 17.4 C 5.93 g/m*3 17.4 C 0 km/h
694 01-05-2010 18:53:01 17.4 C 5.78 g/m*3 17.4 C 0 km/h
695 01-05-2010 19:05:01 17 C 5.64 g/m*3 17 C 0 km/h
696 01-05-2010 19:17:01 16.9 C 5.9 g/m*3 16.9 C 0 km/h
697 01-05-2010 19:29:01 16.8 C 6 g/m*3 16.8 C 0 km/h
698 01-05-2010 19:41:01 16.7 C 6.11 g/m*3 16.7 C 0 km/h
699 01-05-2010 19:53:02 16.4 C 6 g/m*3 16.4 C 0 km/h
700 01-05-2010 20:05:02 16.3 C 5.97 g/m*3 16.3 C 0 km/h
Sensor: Nr:Datum:Temp:Abs-Feuchte:Windchill:Wind:
Aussen-T/F 701 01-05-2010 20:17:02 16 C 5.99 g/m*3 16 C 0 km/h
702 01-05-2010 20:29:02 15.7 C 6.15 g/m*3 15.7 C 0 km/h
703 01-05-2010 20:41:02 15.6 C 6.25 g/m*3 15.6 C 0 km/h
704 01-05-2010 20:53:02 15.6 C 6.38 g/m*3 15.6 C 0 km/h
705 01-05-2010 21:05:01 15.5 C 6.34 g/m*3 15.5 C 0 km/h
706 01-05-2010 21:17:02 15.3 C 6.27 g/m*3 15.3 C 0 km/h
707 01-05-2010 21:29:02 15 C 6.41 g/m*3 15 C 0 km/h
708 01-05-2010 21:41:02 14.7 C 6.55 g/m*3 14.7 C 0 km/h
709 01-05-2010 21:53:02 14.4 C 6.55 g/m*3 14.4 C 0 km/h
710 01-05-2010 22:05:02 14.3 C 6.63 g/m*3 14.3 C 0 km/h
711 01-05-2010 22:17:02 14.3 C 5.77 g/m*3 14.3 C 0 km/h
712 01-05-2010 22:29:02 14.2 C 5.74 g/m*3 14.2 C 0 km/h
713 01-05-2010 22:41:01 14.2 C 5.98 g/m*3 14.2 C 0 km/h
714 01-05-2010 22:54:02 14.1 C 6.07 g/m*3 14.1 C 0 km/h
715 01-05-2010 23:06:03 14.2 C 6.23 g/m*3 14.2 C 0 km/h
716 01-05-2010 23:18:03 14.2 C 6.23 g/m*3 14.2 C 0 km/h
717 01-05-2010 23:30:03 14.2 C 6.35 g/m*3 14.2 C 0 km/h
718 01-05-2010 23:42:03 14 C 6.39 g/m*3 14 C 0 km/h
719 01-05-2010 23:54:03 13.9 C 6.47 g/m*3 13.9 C 0 km/h
720 02-05-2010 00:06:03 13.8 C 6.55 g/m*3 13.8 C 0 km/h
721 02-05-2010 00:18:03 13.3 C 6.93 g/m*3 13.3 C 0 km/h
722 02-05-2010 00:30:03 12.6 C 7.3 g/m*3 12.6 C 0 km/h
723 02-05-2010 00:42:03 12.6 C 7.41 g/m*3 12.6 C 0 km/h
724 02-05-2010 00:54:03 12.5 C 7.26 g/m*3 12.5 C 0 km/h
725 02-05-2010 01:06:03 12.5 C 7.26 g/m*3 12.5 C 0 km/h
Sensor: Nr:Datum:Temp:Abs-Feuchte:Windchill:Wind:
Aussen-T/F 726 02-05-2010 01:18:03 12.6 C 7.3 g/m*3 12.6 C 0 km/h
727 02-05-2010 01:30:03 12.6 C 7.19 g/m*3 12.6 C 0 km/h
728 02-05-2010 01:42:03 12.5 C 7.26 g/m*3 12.5 C 0 km/h
729 02-05-2010 01:54:03 12.5 C 7.26 g/m*3 12.5 C 0 km/h
730 02-05-2010 02:06:03 12.5 C 7.26 g/m*3 12.5 C 0 km/h
731 02-05-2010 02:18:03 12.4 C 7.21 g/m*3 12.4 C 0 km/h
732 02-05-2010 02:30:03 12.3 C 7.28 g/m*3 12.3 C 0 km/h
733 02-05-2010 02:42:03 12.2 C 7.23 g/m*3 12.2 C 0 km/h
734 02-05-2010 02:54:03 12.1 C 7.29 g/m*3 12.1 C 0 km/h
735 02-05-2010 03:06:03 12 C 7.25 g/m*3 12 C 0 km/h
736 02-05-2010 03:18:03 12 C 7.14 g/m*3 12 C 0 km/h
737 02-05-2010 03:30:04 11.9 C 7.31 g/m*3 11.9 C 0 km/h
738 02-05-2010 03:42:04 11.7 C 7.32 g/m*3 11.7 C 0 km/h
739 02-05-2010 03:54:04 11.6 C 7.17 g/m*3 11.6 C 0 km/h
740 02-05-2010 04:06:04 11.6 C 7.17 g/m*3 11.6 C 0 km/h
741 02-05-2010 04:18:04 11.6 C 7.17 g/m*3 11.6 C 0 km/h
742 02-05-2010 04:30:04 11.6 C 7.28 g/m*3 11.6 C 0 km/h
743 02-05-2010 04:42:04 11.7 C 7.43 g/m*3 11.7 C 0 km/h
744 02-05-2010 04:54:04 11.3 C 7.24 g/m*3 11.3 C 0 km/h
745 02-05-2010 05:06:04 11.1 C 7.05 g/m*3 11.1 C 0 km/h
746 02-05-2010 05:18:04 11.1 C 7.05 g/m*3 11.1 C 0 km/h
747 02-05-2010 05:30:04 11.1 C 7.15 g/m*3 11.1 C 0 km/h
748 02-05-2010 05:42:04 11 C 7.11 g/m*3 11 C 0 km/h
749 02-05-2010 05:54:04 11 C 7.11 g/m*3 11 C 0 km/h
750 02-05-2010 06:06:04 10.9 C 7.16 g/m*3 10.9 C 0 km/h
Sensor: Nr:Datum:Temp:Abs-Feuchte:Windchill:Wind:
Aussen-T/F 751 02-05-2010 06:18:04 11 C 7.11 g/m*3 11 C 0 km/h
752 02-05-2010 06:30:04 11 C 7.31 g/m*3 11 C 0 km/h
753 02-05-2010 06:42:04 10.9 C 7.26 g/m*3 10.9 C 0 km/h
754 02-05-2010 06:54:04 10.9 C 7.26 g/m*3 10.9 C 0 km/h
755 02-05-2010 07:06:04 11 C 7.21 g/m*3 11 C 0 km/h
756 02-05-2010 07:18:04 11.2 C 7.4 g/m*3 11.2 C 0 km/h
757 02-05-2010 07:30:04 11.4 C 7.49 g/m*3 11.4 C 0 km/h
758 02-05-2010 07:42:04 11.4 C 7.49 g/m*3 11.4 C 0 km/h
759 02-05-2010 07:54:02 11.4 C 7.49 g/m*3 11.4 C 0 km/h
760 02-05-2010 08:06:02 11.4 C 7.6 g/m*3 11.4 C 0 km/h
761 02-05-2010 08:18:02 11.6 C 7.8 g/m*3 11.6 C 0 km/h
762 02-05-2010 08:30:02 11.2 C 7.7 g/m*3 11.2 C 0 km/h
763 02-05-2010 08:42:02 11.2 C 7.8 g/m*3 11.2 C 0 km/h
764 02-05-2010 08:54:01 11.5 C 8.06 g/m*3 11.5 C 0 km/h
765 02-05-2010 09:06:02 11.8 C 8.21 g/m*3 11.8 C 0 km/h
766 02-05-2010 09:18:01 11.8 C 8 g/m*3 11.8 C 0 km/h
767 02-05-2010 09:30:01 12.1 C 8.04 g/m*3 12.1 C 0 km/h
768 02-05-2010 09:42:02 12.4 C 8.09 g/m*3 12.4 C 0 km/h
769 02-05-2010 09:54:01 12.9 C 8.11 g/m*3 12.9 C 0 km/h
770 02-05-2010 10:06:02 13.1 C 8.1 g/m*3 13.1 C 0 km/h
771 02-05-2010 10:18:01 13.5 C 8.07 g/m*3 13.5 C 0 km/h
772 02-05-2010 10:30:01 14.1 C 8.01 g/m*3 14.1 C 0 km/h
773 02-05-2010 10:42:02 14.9 C 8.03 g/m*3 14.9 C 0 km/h
774 02-05-2010 10:54:01 15.5 C 7.8 g/m*3 15.5 C 0 km/h
775 02-05-2010 11:06:02 16.2 C 7.58 g/m*3 16.2 C 0 km/h
Sensor: Nr:Datum:Temp:Abs-Feuchte:Windchill:Wind:
Aussen-T/F 776 02-05-2010 11:18:02 16.7 C 7.82 g/m*3 16.7 C 0 km/h
777 02-05-2010 11:30:02 17.4 C 7.26 g/m*3 17.4 C 0 km/h
778 02-05-2010 11:42:01 18.1 C 7.11 g/m*3 18.1 C 0 km/h
779 02-05-2010 11:54:02 17.9 C 7.02 g/m*3 17.9 C 0 km/h
780 02-05-2010 12:06:01 16.4 C 6.42 g/m*3 16.4 C 0 km/h
781 02-05-2010 12:18:02 13.5 C 7.37 g/m*3 13.5 C 0 km/h
782 02-05-2010 12:30:02 12.5 C 7.92 g/m*3 12.5 C 0 km/h
783 02-05-2010 12:42:01 11.4 C 7.7 g/m*3 11.4 C 0 km/h
784 02-05-2010 12:54:02 10.7 C 8.05 g/m*3 10.7 C 0 km/h
785 02-05-2010 13:06:02 10.8 C 8.3 g/m*3 10.8 C 0 km/h
786 02-05-2010 13:18:02 11.8 C 8.95 g/m*3 11.8 C 0 km/h
787 02-05-2010 13:30:02 11.6 C 8.63 g/m*3 11.6 C 0 km/h
788 02-05-2010 13:42:03 12.2 C 8.85 g/m*3 12.2 C 0 km/h
789 02-05-2010 13:54:02 13.1 C 8.9 g/m*3 13.1 C 0 km/h
790 02-05-2010 14:06:02 13.9 C 8.99 g/m*3 13.9 C 0 km/h
791 02-05-2010 14:18:02 14.5 C 8.95 g/m*3 14.5 C 0 km/h
792 02-05-2010 14:30:02 15.2 C 9.09 g/m*3 15.2 C 0 km/h
793 02-05-2010 14:42:02 15.3 C 8.88 g/m*3 15.3 C 0 km/h
794 02-05-2010 14:54:02 15.4 C 8.54 g/m*3 15.4 C 0 km/h
795 02-05-2010 15:06:02 14.9 C 8.03 g/m*3 14.9 C 0 km/h
796 02-05-2010 15:18:02 15.9 C 8.13 g/m*3 15.9 C 0 km/h
797 02-05-2010 15:30:02 17.7 C 7.39 g/m*3 17.7 C 0 km/h
798 02-05-2010 15:42:02 18.7 C 6.56 g/m*3 18.7 C 0 km/h
799 02-05-2010 15:54:02 18.6 C 6.05 g/m*3 18.6 C 0 km/h
800 02-05-2010 16:06:02 19.4 C 6.17 g/m*3 19.4 C 0 km/h
Sensor: Nr:Datum:Temp:Abs-Feuchte:Windchill:Wind:
Aussen-T/F 801 02-05-2010 16:18:02 18.8 C 5.96 g/m*3 18.8 C 0 km/h
802 02-05-2010 16:30:02 18 C 6.6 g/m*3 18 C 0 km/h
803 02-05-2010 16:42:02 17.3 C 7.37 g/m*3 17.3 C 0 km/h
804 02-05-2010 16:54:01 13.5 C 7.25 g/m*3 13.5 C 0 km/h
805 02-05-2010 17:06:02 12.3 C 8.25 g/m*3 12.3 C 0 km/h
806 02-05-2010 17:18:01 13.4 C 9.18 g/m*3 13.4 C 0 km/h
807 02-05-2010 17:30:01 15.2 C 8.83 g/m*3 15.2 C 0 km/h
808 02-05-2010 17:42:01 16.5 C 8.28 g/m*3 16.5 C 0 km/h
809 02-05-2010 17:54:01 17.2 C 8.05 g/m*3 17.2 C 0 km/h
810 02-05-2010 18:06:01 18.5 C 7.59 g/m*3 18.5 C 0 km/h
811 02-05-2010 18:18:02 18 C 6.91 g/m*3 18 C 0 km/h
812 02-05-2010 18:30:02 16.7 C 6.68 g/m*3 16.7 C 0 km/h
813 02-05-2010 18:42:01 16.3 C 6.94 g/m*3 16.3 C 0 km/h
814 02-05-2010 18:54:03 16.4 C 7.12 g/m*3 16.4 C 0 km/h
815 02-05-2010 19:06:02 17.5 C 6.71 g/m*3 17.5 C 0 km/h
816 02-05-2010 19:18:02 16.9 C 6.9 g/m*3 16.9 C 0 km/h
817 02-05-2010 19:30:02 18 C 6.91 g/m*3 18 C 0 km/h
818 02-05-2010 19:42:02 17.6 C 6.75 g/m*3 17.6 C 0 km/h
819 02-05-2010 19:54:02 17.3 C 6.48 g/m*3 17.3 C 0 km/h
820 02-05-2010 20:06:02 17.3 C 6.92 g/m*3 17.3 C 0 km/h
821 02-05-2010 20:18:02 17 C 7.23 g/m*3 17 C 0 km/h
822 02-05-2010 20:30:02 16.2 C 7.31 g/m*3 16.2 C 0 km/h
823 02-05-2010 20:42:02 15.1 C 7.35 g/m*3 15.1 C 0 km/h
824 02-05-2010 20:54:02 14.1 C 7.4 g/m*3 14.1 C 0 km/h
825 02-05-2010 21:06:02 13.4 C 7.56 g/m*3 13.4 C 0 km/h
Sensor: Nr:Datum:Temp:Abs-Feuchte:Windchill:Wind:
Aussen-T/F 826 02-05-2010 21:18:02 12.8 C 7.62 g/m*3 12.8 C 0 km/h
827 02-05-2010 21:30:03 12.5 C 7.7 g/m*3 12.5 C 0 km/h
828 02-05-2010 21:42:01 12.3 C 7.82 g/m*3 12.3 C 0 km/h
829 02-05-2010 21:54:03 12.1 C 7.72 g/m*3 12.1 C 0 km/h
830 02-05-2010 22:06:03 11.8 C 7.79 g/m*3 11.8 C 0 km/h
831 02-05-2010 22:19:04 11.6 C 7.8 g/m*3 11.6 C 0 km/h
832 02-05-2010 22:31:04 11.3 C 7.65 g/m*3 11.3 C 0 km/h
833 02-05-2010 22:43:04 11.2 C 7.7 g/m*3 11.2 C 0 km/h
834 02-05-2010 22:55:04 11 C 7.61 g/m*3 11 C 0 km/h
835 02-05-2010 23:07:04 10.8 C 7.61 g/m*3 10.8 C 0 km/h
836 02-05-2010 23:19:04 10.6 C 7.52 g/m*3 10.6 C 0 km/h
837 02-05-2010 23:31:04 10.2 C 7.33 g/m*3 10.2 C 0 km/h
838 02-05-2010 23:43:04 10.2 C 7.42 g/m*3 10.2 C 0 km/h
839 02-05-2010 23:55:04 10.2 C 7.42 g/m*3 10.2 C 0 km/h
840 03-05-2010 00:07:04 10.1 C 7.28 g/m*3 10.1 C 0 km/h
841 03-05-2010 00:19:04 10 C 7.33 g/m*3 10 C 0 km/h
842 03-05-2010 00:31:04 9.9 C 7.38 g/m*3 9.9 C 0 km/h
843 03-05-2010 00:43:04 9.5 C 7.19 g/m*3 9.5 C 0 km/h
844 03-05-2010 00:55:04 9.3 C 7.19 g/m*3 9.3 C 0 km/h
845 03-05-2010 01:07:04 9.2 C 7.14 g/m*3 9.2 C 0 km/h
846 03-05-2010 01:19:04 9.1 C 7.1 g/m*3 9.1 C 0 km/h
847 03-05-2010 01:31:04 9.1 C 7.1 g/m*3 9.1 C 0 km/h
848 03-05-2010 01:43:04 8.7 C 7.09 g/m*3 8.7 C 0 km/h
849 03-05-2010 01:55:04 8.7 C 7.09 g/m*3 8.7 C 0 km/h
850 03-05-2010 02:07:04 8.5 C 7 g/m*3 8.5 C 0 km/h
Sensor: Nr:Datum:Temp:Abs-Feuchte:Windchill:Wind:
Aussen-T/F 851 03-05-2010 02:19:05 8.1 C 6.82 g/m*3 8.1 C 0 km/h
852 03-05-2010 02:31:05 8 C 6.78 g/m*3 8 C 0 km/h
853 03-05-2010 02:43:05 8 C 6.78 g/m*3 8 C 0 km/h
854 03-05-2010 02:55:05 8 C 6.78 g/m*3 8 C 0 km/h
855 03-05-2010 03:07:05 8.2 C 7.03 g/m*3 8.2 C 0 km/h
856 03-05-2010 03:19:05 8.2 C 7.03 g/m*3 8.2 C 0 km/h
857 03-05-2010 03:31:05 8 C 6.94 g/m*3 8 C 0 km/h
858 03-05-2010 03:43:05 8 C 7.03 g/m*3 8 C 0 km/h
859 03-05-2010 03:55:05 8.1 C 7.07 g/m*3 8.1 C 0 km/h
860 03-05-2010 04:07:05 8.2 C 7.12 g/m*3 8.2 C 0 km/h
861 03-05-2010 04:19:05 8.3 C 7.16 g/m*3 8.3 C 0 km/h
862 03-05-2010 04:31:05 8.4 C 7.21 g/m*3 8.4 C 0 km/h
863 03-05-2010 04:43:05 8.6 C 7.22 g/m*3 8.6 C 0 km/h
864 03-05-2010 04:55:05 8.6 C 7.22 g/m*3 8.6 C 0 km/h
865 03-05-2010 05:07:05 8.6 C 7.13 g/m*3 8.6 C 0 km/h
866 03-05-2010 05:19:05 8.6 C 7.13 g/m*3 8.6 C 0 km/h
867 03-05-2010 05:31:05 8.6 C 7.13 g/m*3 8.6 C 0 km/h
868 03-05-2010 05:43:05 8.7 C 7.18 g/m*3 8.7 C 0 km/h
869 03-05-2010 05:55:05 8.5 C 7.09 g/m*3 8.5 C 0 km/h
870 03-05-2010 06:07:05 8.6 C 7.13 g/m*3 8.6 C 0 km/h
871 03-05-2010 06:19:05 8.7 C 7.18 g/m*3 8.7 C 0 km/h
872 03-05-2010 06:31:05 8.6 C 7.13 g/m*3 8.6 C 0 km/h
873 03-05-2010 06:43:05 8.6 C 7.13 g/m*3 8.6 C 0 km/h
874 03-05-2010 06:55:02 8.5 C 7.09 g/m*3 8.5 C 0 km/h
875 03-05-2010 07:07:03 8.2 C 6.95 g/m*3 8.2 C 0 km/h
Sensor: Nr:Datum:Temp:Abs-Feuchte:Windchill:Wind:
Aussen-T/F 876 03-05-2010 07:19:02 8.3 C 7 g/m*3 8.3 C 0 km/h
877 03-05-2010 07:31:02 8.2 C 7.03 g/m*3 8.2 C 0 km/h
878 03-05-2010 07:43:02 8.5 C 7.17 g/m*3 8.5 C 0 km/h
879 03-05-2010 07:55:01 8.8 C 7.4 g/m*3 8.8 C 0 km/h
880 03-05-2010 08:07:02 9.1 C 7.28 g/m*3 9.1 C 0 km/h
881 03-05-2010 08:19:02 9.6 C 7.24 g/m*3 9.6 C 0 km/h
882 03-05-2010 08:31:02 10 C 6.86 g/m*3 10 C 0 km/h
883 03-05-2010 08:43:02 9.9 C 6.72 g/m*3 9.9 C 0 km/h
884 03-05-2010 08:55:02 10 C 6.67 g/m*3 10 C 0 km/h
885 03-05-2010 09:07:02 10.1 C 6.62 g/m*3 10.1 C 0 km/h
886 03-05-2010 09:19:02 10.6 C 6.83 g/m*3 10.6 C 0 km/h
887 03-05-2010 09:31:02 10.5 C 6.69 g/m*3 10.5 C 0 km/h
888 03-05-2010 09:43:02 10.8 C 6.82 g/m*3 10.8 C 0 km/h
889 03-05-2010 09:55:01 10.8 C 6.72 g/m*3 10.8 C 0 km/h
890 03-05-2010 10:07:02 10.8 C 6.72 g/m*3 10.8 C 0 km/h
891 03-05-2010 10:19:01 11 C 6.71 g/m*3 11 C 0 km/h
892 03-05-2010 10:31:01 10.9 C 6.76 g/m*3 10.9 C 0 km/h
893 03-05-2010 10:43:01 10.8 C 6.72 g/m*3 10.8 C 0 km/h
894 03-05-2010 10:55:01 11.5 C 6.92 g/m*3 11.5 C 0 km/h
895 03-05-2010 11:07:02 12.1 C 6.65 g/m*3 12.1 C 0 km/h
896 03-05-2010 11:19:01 11.9 C 6.67 g/m*3 11.9 C 0 km/h
897 03-05-2010 11:31:01 12.1 C 6.65 g/m*3 12.1 C 0 km/h
898 03-05-2010 11:43:01 14.1 C 6.8 g/m*3 14.1 C 0 km/h
899 03-05-2010 11:55:01 14.5 C 6.72 g/m*3 14.5 C 0 km/h
900 03-05-2010 12:07:01 14.7 C 6.55 g/m*3 14.7 C 0 km/h
Sensor: Nr:Datum:Temp:Abs-Feuchte:Windchill:Wind:
Aussen-T/F 901 03-05-2010 12:19:02 15.7 C 6.42 g/m*3 15.7 C 0 km/h
902 03-05-2010 12:31:01 15.2 C 6.23 g/m*3 15.2 C 0 km/h
903 03-05-2010 12:43:01 14.5 C 6.09 g/m*3 14.5 C 0 km/h
904 03-05-2010 12:55:02 13.6 C 6.94 g/m*3 13.6 C 0 km/h
905 03-05-2010 13:07:01 14.2 C 6.84 g/m*3 14.2 C 0 km/h
906 03-05-2010 13:19:01 14.9 C 6.88 g/m*3 14.9 C 0 km/h
907 03-05-2010 13:31:01 15.7 C 6.42 g/m*3 15.7 C 0 km/h
908 03-05-2010 13:43:01 16.7 C 6.25 g/m*3 16.7 C 0 km/h
909 03-05-2010 13:55:02 11.3 C 5.71 g/m*3 11.3 C 0 km/h
910 03-05-2010 14:07:02 11.2 C 6.28 g/m*3 11.2 C 0 km/h
911 03-05-2010 14:19:02 10.1 C 6.43 g/m*3 10.1 C 0 km/h
912 03-05-2010 14:31:01 9.1 C 6.83 g/m*3 9.1 C 0 km/h
913 03-05-2010 14:43:01 9 C 7.23 g/m*3 9 C 0 km/h
914 03-05-2010 14:55:02 8.4 C 7.13 g/m*3 8.4 C 0 km/h
915 03-05-2010 15:07:01 8.8 C 7.49 g/m*3 8.8 C 0 km/h
916 03-05-2010 15:19:02 9 C 7.67 g/m*3 9 C 0 km/h
917 03-05-2010 15:31:02 9.6 C 8.06 g/m*3 9.6 C 0 km/h
918 03-05-2010 15:43:02 10.2 C 8.18 g/m*3 10.2 C 0 km/h
919 03-05-2010 15:55:02 11.1 C 8.56 g/m*3 11.1 C 0 km/h
920 03-05-2010 16:07:02 11.1 C 7.86 g/m*3 11.1 C 0 km/h
921 03-05-2010 16:19:02 11 C 7.51 g/m*3 11 C 0 km/h
922 03-05-2010 16:31:02 10.2 C 7.23 g/m*3 10.2 C 0 km/h
923 03-05-2010 16:43:02 10.1 C 7.28 g/m*3 10.1 C 0 km/h
924 03-05-2010 16:55:01 10.5 C 7.37 g/m*3 10.5 C 0 km/h
925 03-05-2010 17:07:02 10.1 C 6.9 g/m*3 10.1 C 0 km/h
Sensor: Nr:Datum:Temp:Abs-Feuchte:Windchill:Wind:
Aussen-T/F 926 03-05-2010 17:19:01 10.4 C 7.42 g/m*3 10.4 C 0 km/h
927 03-05-2010 17:31:02 10.7 C 7.46 g/m*3 10.7 C 0 km/h
928 03-05-2010 17:43:03 11.4 C 7.49 g/m*3 11.4 C 0 km/h
929 03-05-2010 17:55:02 11.5 C 7.02 g/m*3 11.5 C 0 km/h
930 03-05-2010 18:07:02 11.3 C 7.14 g/m*3 11.3 C 0 km/h
931 03-05-2010 18:19:01 10.7 C 6.58 g/m*3 10.7 C 0 km/h
932 03-05-2010 18:31:02 10.9 C 6.96 g/m*3 10.9 C 0 km/h
933 03-05-2010 18:43:02 11 C 7.01 g/m*3 11 C 0 km/h
934 03-05-2010 18:55:02 10.9 C 6.66 g/m*3 10.9 C 0 km/h
935 03-05-2010 19:07:02 10.8 C 6.62 g/m*3 10.8 C 0 km/h
936 03-05-2010 19:19:01 10.7 C 6.58 g/m*3 10.7 C 0 km/h
937 03-05-2010 19:31:02 10.4 C 6.65 g/m*3 10.4 C 0 km/h
938 03-05-2010 19:43:02 10.3 C 6.42 g/m*3 10.3 C 0 km/h
939 03-05-2010 19:55:02 10.3 C 6.42 g/m*3 10.3 C 0 km/h
940 03-05-2010 20:07:02 10.1 C 6.15 g/m*3 10.1 C 0 km/h
941 03-05-2010 20:19:02 10 C 6.01 g/m*3 10 C 0 km/h
942 03-05-2010 20:31:02 9.8 C 6.12 g/m*3 9.8 C 0 km/h
943 03-05-2010 20:43:02 9.5 C 5.92 g/m*3 9.5 C 0 km/h
944 03-05-2010 20:55:01 9.3 C 6.11 g/m*3 9.3 C 0 km/h
945 03-05-2010 21:07:02 9.2 C 6.07 g/m*3 9.2 C 0 km/h
946 03-05-2010 21:19:02 9.2 C 6.25 g/m*3 9.2 C 0 km/h
947 03-05-2010 21:31:02 9.2 C 6.25 g/m*3 9.2 C 0 km/h
948 03-05-2010 21:43:02 8.9 C 6.39 g/m*3 8.9 C 0 km/h
949 03-05-2010 21:55:02 8.9 C 6.31 g/m*3 8.9 C 0 km/h
950 03-05-2010 22:07:02 8.8 C 6.44 g/m*3 8.8 C 0 km/h
Sensor: Nr:Datum:Temp:Abs-Feuchte:Windchill:Wind:
Aussen-T/F 951 03-05-2010 22:20:05 8.7 C 6.49 g/m*3 8.7 C 0 km/h
952 03-05-2010 22:32:05 8.5 C 6.49 g/m*3 8.5 C 0 km/h
953 03-05-2010 22:44:05 8.5 C 6.57 g/m*3 8.5 C 0 km/h
954 03-05-2010 22:56:05 8.4 C 6.45 g/m*3 8.4 C 0 km/h
955 03-05-2010 23:08:05 8.4 C 6.45 g/m*3 8.4 C 0 km/h
956 03-05-2010 23:20:05 8.4 C 6.53 g/m*3 8.4 C 0 km/h
957 03-05-2010 23:32:05 8.4 C 6.53 g/m*3 8.4 C 0 km/h
958 03-05-2010 23:44:05 8.3 C 6.49 g/m*3 8.3 C 0 km/h
959 03-05-2010 23:56:05 8.3 C 6.49 g/m*3 8.3 C 0 km/h
960 04-05-2010 00:08:05 8 C 6.37 g/m*3 8 C 0 km/h
961 04-05-2010 00:20:05 7.5 C 6.24 g/m*3 7.5 C 0 km/h
962 04-05-2010 00:32:05 7.2 C 6.28 g/m*3 7.2 C 0 km/h
963 04-05-2010 00:44:05 7.4 C 6.44 g/m*3 7.4 C 0 km/h
964 04-05-2010 00:56:05 7.8 C 6.69 g/m*3 7.8 C 0 km/h
965 04-05-2010 01:08:05 8 C 6.53 g/m*3 8 C 0 km/h
966 04-05-2010 01:20:06 8.1 C 6.49 g/m*3 8.1 C 0 km/h
967 04-05-2010 01:32:06 8.2 C 6.45 g/m*3 8.2 C 0 km/h
968 04-05-2010 01:44:06 8.3 C 6.49 g/m*3 8.3 C 0 km/h
969 04-05-2010 01:56:06 8.4 C 6.53 g/m*3 8.4 C 0 km/h
970 04-05-2010 02:08:06 8.4 C 6.53 g/m*3 8.4 C 0 km/h
971 04-05-2010 02:20:06 8.4 C 6.53 g/m*3 8.4 C 0 km/h
972 04-05-2010 02:32:06 8.4 C 6.53 g/m*3 8.4 C 0 km/h
973 04-05-2010 02:44:06 8.3 C 6.49 g/m*3 8.3 C 0 km/h
974 04-05-2010 02:56:06 8.4 C 6.62 g/m*3 8.4 C 0 km/h
975 04-05-2010 03:08:06 8.4 C 6.62 g/m*3 8.4 C 0 km/h
Sensor: Nr:Datum:Temp:Abs-Feuchte:Windchill:Wind:
Aussen-T/F 976 04-05-2010 03:20:06 8.4 C 6.62 g/m*3 8.4 C 0 km/h
977 04-05-2010 03:32:06 8.3 C 6.57 g/m*3 8.3 C 0 km/h
978 04-05-2010 03:44:06 8.2 C 6.62 g/m*3 8.2 C 0 km/h
979 04-05-2010 03:56:06 8.1 C 6.66 g/m*3 8.1 C 0 km/h
980 04-05-2010 04:08:06 8 C 6.61 g/m*3 8 C 0 km/h
981 04-05-2010 04:20:06 7.9 C 6.74 g/m*3 7.9 C 0 km/h
982 04-05-2010 04:32:06 7.9 C 6.82 g/m*3 7.9 C 0 km/h
983 04-05-2010 04:44:06 7.9 C 6.82 g/m*3 7.9 C 0 km/h
984 04-05-2010 04:56:06 7.9 C 6.82 g/m*3 7.9 C 0 km/h
985 04-05-2010 05:08:06 8 C 6.78 g/m*3 8 C 0 km/h
986 04-05-2010 05:20:06 8.1 C 6.82 g/m*3 8.1 C 0 km/h
987 04-05-2010 05:32:07 8.2 C 6.87 g/m*3 8.2 C 0 km/h
988 04-05-2010 05:44:07 8.2 C 6.87 g/m*3 8.2 C 0 km/h
989 04-05-2010 05:56:07 8.2 C 6.87 g/m*3 8.2 C 0 km/h
990 04-05-2010 06:08:07 8.1 C 6.82 g/m*3 8.1 C 0 km/h
991 04-05-2010 06:20:07 8.2 C 6.87 g/m*3 8.2 C 0 km/h
992 04-05-2010 06:32:07 8.2 C 6.87 g/m*3 8.2 C 0 km/h
993 04-05-2010 06:44:07 8.3 C 6.91 g/m*3 8.3 C 0 km/h
994 04-05-2010 06:56:02 8.4 C 6.96 g/m*3 8.4 C 0 km/h
995 04-05-2010 07:08:01 8.5 C 7 g/m*3 8.5 C 0 km/h
996 04-05-2010 07:20:02 8.6 C 6.96 g/m*3 8.6 C 0 km/h
997 04-05-2010 07:32:01 8.7 C 7.01 g/m*3 8.7 C 0 km/h
998 04-05-2010 07:44:01 8.7 C 6.92 g/m*3 8.7 C 0 km/h
999 04-05-2010 07:56:02 8.8 C 6.79 g/m*3 8.8 C 0 km/h
1000 04-05-2010 08:08:01 9.2 C 6.61 g/m*3 9.2 C 0 km/h
Sensor: Nr:Datum:Temp:Abs-Feuchte:Windchill:Wind:
Aussen-T/F 1001 04-05-2010 08:20:01 9 C 6.44 g/m*3 9 C 0 km/h
1002 04-05-2010 08:32:02 9.1 C 6.48 g/m*3 9.1 C 0 km/h
1003 04-05-2010 08:44:03 8.9 C 6.31 g/m*3 8.9 C 0 km/h
1004 04-05-2010 08:56:02 8.9 C 6.31 g/m*3 8.9 C 0 km/h
1005 04-05-2010 09:08:02 9.2 C 6.34 g/m*3 9.2 C 0 km/h
1006 04-05-2010 09:20:01 9.1 C 6.21 g/m*3 9.1 C 0 km/h
1007 04-05-2010 09:32:02 9.3 C 6.29 g/m*3 9.3 C 0 km/h
1008 04-05-2010 09:44:02 9.3 C 6.2 g/m*3 9.3 C 0 km/h
1009 04-05-2010 09:56:02 9.5 C 6.19 g/m*3 9.5 C 0 km/h
1010 04-05-2010 10:08:02 9.6 C 6.14 g/m*3 9.6 C 0 km/h
1011 04-05-2010 10:20:01 9.8 C 5.85 g/m*3 9.8 C 0 km/h
1012 04-05-2010 10:32:02 9.8 C 5.85 g/m*3 9.8 C 0 km/h
1013 04-05-2010 10:44:02 9.9 C 5.7 g/m*3 9.9 C 0 km/h
1014 04-05-2010 10:56:01 10 C 5.54 g/m*3 10 C 0 km/h
1015 04-05-2010 11:08:02 10.2 C 5.52 g/m*3 10.2 C 0 km/h
1016 04-05-2010 11:20:02 10.5 C 5.24 g/m*3 10.5 C 0 km/h
1017 04-05-2010 11:32:02 10.7 C 5.21 g/m*3 10.7 C 0 km/h
1018 04-05-2010 11:44:02 11.1 C 5.04 g/m*3 11.1 C 0 km/h
1019 04-05-2010 11:56:02 11.3 C 5 g/m*3 11.3 C 0 km/h
1020 04-05-2010 12:08:02 10.8 C 4.94 g/m*3 10.8 C 0 km/h
1021 04-05-2010 12:20:02 10.5 C 4.85 g/m*3 10.5 C 0 km/h
1022 04-05-2010 12:32:01 10.6 C 4.78 g/m*3 10.6 C 0 km/h
1023 04-05-2010 12:44:01 11.6 C 4.89 g/m*3 11.6 C 0 km/h
1024 04-05-2010 12:56:02 12 C 4.69 g/m*3 12 C 0 km/h
1025 04-05-2010 13:08:01 12.2 C 4.64 g/m*3 12.2 C 0 km/h
Sensor: Nr:Datum:Temp:Abs-Feuchte:Windchill:Wind:
Aussen-T/F 1026 04-05-2010 13:20:02 11.7 C 4.71 g/m*3 11.7 C 0 km/h
1027 04-05-2010 13:32:01 11.8 C 4.53 g/m*3 11.8 C 0 km/h
1028 04-05-2010 13:44:01 12 C 4.48 g/m*3 12 C 0 km/h
1029 04-05-2010 13:56:02 12.2 C 4.53 g/m*3 12.2 C 0 km/h
1030 04-05-2010 14:08:02 12.1 C 4.5 g/m*3 12.1 C 0 km/h
1031 04-05-2010 14:20:02 12.5 C 4.84 g/m*3 12.5 C 0 km/h
1032 04-05-2010 14:32:02 13.1 C 4.56 g/m*3 13.1 C 0 km/h
1033 04-05-2010 14:44:02 13.4 C 4.65 g/m*3 13.4 C 0 km/h
1034 04-05-2010 14:56:02 13.5 C 4.44 g/m*3 13.5 C 0 km/h
1035 04-05-2010 15:08:02 13.5 C 4.56 g/m*3 13.5 C 0 km/h
1036 04-05-2010 15:20:02 13.8 C 4.41 g/m*3 13.8 C 0 km/h
1037 04-05-2010 15:32:02 13.5 C 4.44 g/m*3 13.5 C 0 km/h
1038 04-05-2010 15:44:02 13.5 C 4.56 g/m*3 13.5 C 0 km/h
1039 04-05-2010 15:56:02 12.9 C 4.51 g/m*3 12.9 C 0 km/h
1040 04-05-2010 16:08:02 12.5 C 4.51 g/m*3 12.5 C 0 km/h
1041 04-05-2010 16:20:02 12.8 C 4.59 g/m*3 12.8 C 0 km/h
1042 04-05-2010 16:32:02 12.5 C 4.4 g/m*3 12.5 C 0 km/h
1043 04-05-2010 16:44:02 12.5 C 4.4 g/m*3 12.5 C 0 km/h
1044 04-05-2010 16:56:01 12 C 4.26 g/m*3 12 C 0 km/h
1045 04-05-2010 17:08:02 12 C 4.26 g/m*3 12 C 0 km/h
1046 04-05-2010 17:20:01 11.4 C 4.31 g/m*3 11.4 C 0 km/h
1047 04-05-2010 17:32:02 11.4 C 4.41 g/m*3 11.4 C 0 km/h
1048 04-05-2010 17:44:02 11.5 C 4.34 g/m*3 11.5 C 0 km/h
1049 04-05-2010 17:56:02 11.4 C 4.31 g/m*3 11.4 C 0 km/h
1050 04-05-2010 18:08:02 11.5 C 4.23 g/m*3 11.5 C 0 km/h
Sensor: Nr:Datum:Temp:Abs-Feuchte:Windchill:Wind:
Aussen-T/F 1051 04-05-2010 18:20:02 11.4 C 4.21 g/m*3 11.4 C 0 km/h
1052 04-05-2010 18:32:02 11.2 C 4.16 g/m*3 11.2 C 0 km/h
1053 04-05-2010 18:44:02 11.1 C 4.13 g/m*3 11.1 C 0 km/h
1054 04-05-2010 18:56:02 11 C 4.3 g/m*3 11 C 0 km/h
1055 04-05-2010 19:08:02 11 C 4.3 g/m*3 11 C 0 km/h
1056 04-05-2010 19:20:02 12 C 4.16 g/m*3 12 C 0 km/h
1057 04-05-2010 19:32:02 11.4 C 4 g/m*3 11.4 C 0 km/h
1058 04-05-2010 19:44:02 11 C 4 g/m*3 11 C 0 km/h
1059 04-05-2010 19:56:01 11 C 4.2 g/m*3 11 C 0 km/h
1060 04-05-2010 20:08:02 10.7 C 4.22 g/m*3 10.7 C 0 km/h
1061 04-05-2010 20:20:01 10.6 C 4.49 g/m*3 10.6 C 0 km/h
1062 04-05-2010 20:32:01 10.1 C 4.35 g/m*3 10.1 C 0 km/h
1063 04-05-2010 20:44:01 9.8 C 4.36 g/m*3 9.8 C 0 km/h
1064 04-05-2010 20:56:01 9.4 C 4.34 g/m*3 9.4 C 0 km/h
1065 04-05-2010 21:08:02 9.5 C 4.28 g/m*3 9.5 C 0 km/h
1066 04-05-2010 21:20:01 9.6 C 4.31 g/m*3 9.6 C 0 km/h
1067 04-05-2010 21:32:01 9.7 C 4.61 g/m*3 9.7 C 0 km/h
1068 04-05-2010 21:44:01 9.5 C 4.64 g/m*3 9.5 C 0 km/h
1069 04-05-2010 21:56:01 8.8 C 4.61 g/m*3 8.8 C 0 km/h
1070 04-05-2010 22:09:04 8.2 C 4.35 g/m*3 8.2 C 0 km/h
1071 04-05-2010 22:21:04 8.1 C 4.33 g/m*3 8.1 C 0 km/h
1072 04-05-2010 22:33:05 7.8 C 4.24 g/m*3 7.8 C 0 km/h
1073 04-05-2010 22:45:05 7.7 C 4.14 g/m*3 7.7 C 0 km/h
1074 04-05-2010 22:57:05 7.5 C 4.16 g/m*3 7.5 C 0 km/h
1075 04-05-2010 23:09:05 7.4 C 4.14 g/m*3 7.4 C 0 km/h
Sensor: Nr:Datum:Temp:Abs-Feuchte:Windchill:Wind:
Aussen-T/F 1076 04-05-2010 23:21:05 7.4 C 4.14 g/m*3 7.4 C 0 km/h
1077 04-05-2010 23:33:05 7.3 C 4.03 g/m*3 7.3 C 0 km/h
1078 04-05-2010 23:45:05 7.3 C 4.03 g/m*3 7.3 C 0 km/h
1079 04-05-2010 23:57:05 7 C 3.95 g/m*3 7 C 0 km/h
1080 05-05-2010 00:09:05 6.8 C 4.05 g/m*3 6.8 C 0 km/h
1081 05-05-2010 00:21:05 6.7 C 4.18 g/m*3 6.7 C 0 km/h
1082 05-05-2010 00:33:05 6.3 C 4.22 g/m*3 6.3 C 0 km/h
1083 05-05-2010 00:45:05 6 C 4.21 g/m*3 6 C 0 km/h
1084 05-05-2010 00:57:05 5.8 C 4.37 g/m*3 5.8 C 0 km/h
1085 05-05-2010 01:09:05 5.5 C 4.35 g/m*3 5.5 C 0 km/h
1086 05-05-2010 01:21:05 5.3 C 4.44 g/m*3 5.3 C 0 km/h
1087 05-05-2010 01:33:05 5.4 C 4.4 g/m*3 5.4 C 0 km/h
1088 05-05-2010 01:45:05 5.6 C 4.31 g/m*3 5.6 C 0 km/h
1089 05-05-2010 01:57:05 5.6 C 4.24 g/m*3 5.6 C 0 km/h
1090 05-05-2010 02:09:05 5.7 C 4.13 g/m*3 5.7 C 0 km/h
1091 05-05-2010 02:21:05 5.7 C 4.13 g/m*3 5.7 C 0 km/h
1092 05-05-2010 02:33:05 5.6 C 4.17 g/m*3 5.6 C 0 km/h
1093 05-05-2010 02:45:06 5.5 C 4.21 g/m*3 5.5 C 0 km/h
1094 05-05-2010 02:57:06 5.2 C 4.2 g/m*3 5.2 C 0 km/h
1095 05-05-2010 03:09:06 5.1 C 4.24 g/m*3 5.1 C 0 km/h
1096 05-05-2010 03:21:06 4.8 C 4.22 g/m*3 4.8 C 0 km/h
1097 05-05-2010 03:33:06 4.7 C 4.13 g/m*3 4.7 C 0 km/h
1098 05-05-2010 03:45:06 4.6 C 4.1 g/m*3 4.6 C 0 km/h
1099 05-05-2010 03:57:06 4.5 C 4.01 g/m*3 4.5 C 0 km/h
1100 05-05-2010 04:09:06 4.3 C 3.96 g/m*3 4.3 C 0 km/h
Sensor: Nr:Datum:Temp:Abs-Feuchte:Windchill:Wind:
Aussen-T/F 1101 05-05-2010 04:21:06 4 C 4.01 g/m*3 4 C 0 km/h
1102 05-05-2010 04:33:06 3.8 C 4.08 g/m*3 3.8 C 0 km/h
1103 05-05-2010 04:45:06 3.7 C 4.11 g/m*3 3.7 C 0 km/h
1104 05-05-2010 04:57:06 3.7 C 4.05 g/m*3 3.7 C 0 km/h
1105 05-05-2010 05:09:06 3.6 C 4.02 g/m*3 3.6 C 0 km/h
1106 05-05-2010 05:21:06 3.6 C 3.96 g/m*3 3.6 C 0 km/h
1107 05-05-2010 05:33:06 3.6 C 3.9 g/m*3 3.6 C 0 km/h
1108 05-05-2010 05:45:06 3.4 C 3.79 g/m*3 3.4 C 0 km/h
1109 05-05-2010 05:57:06 3.2 C 3.86 g/m*3 3.2 C 0 km/h
1110 05-05-2010 06:09:06 3 C 3.86 g/m*3 3 C 0 km/h
1111 05-05-2010 06:21:06 2.8 C 3.99 g/m*3 2.8 C 0 km/h
1112 05-05-2010 06:33:03 2.6 C 3.99 g/m*3 2.6 C 0 km/h
1113 05-05-2010 06:45:03 2.5 C 4.02 g/m*3 2.5 C 0 km/h
1114 05-05-2010 06:57:03 2.5 C 4.08 g/m*3 2.5 C 0 km/h
1115 05-05-2010 07:09:02 2.5 C 4.14 g/m*3 2.5 C 0 km/h
1116 05-05-2010 07:21:03 2.7 C 4.25 g/m*3 2.7 C 0 km/h
1117 05-05-2010 07:33:02 2.8 C 4.28 g/m*3 2.8 C 0 km/h
1118 05-05-2010 07:45:02 3 C 4.28 g/m*3 3 C 0 km/h
1119 05-05-2010 07:57:02 3.4 C 4.4 g/m*3 3.4 C 0 km/h
1120 05-05-2010 08:09:02 3.8 C 4.45 g/m*3 3.8 C 0 km/h
1121 05-05-2010 08:21:02 4.4 C 4.31 g/m*3 4.4 C 0 km/h
1122 05-05-2010 08:33:02 4.6 C 4.17 g/m*3 4.6 C 0 km/h
1123 05-05-2010 08:45:02 4.9 C 4.12 g/m*3 4.9 C 0 km/h
1124 05-05-2010 08:57:02 5.3 C 4.02 g/m*3 5.3 C 0 km/h
1125 05-05-2010 09:09:01 6 C 3.99 g/m*3 6 C 0 km/h
Sensor: Nr:Datum:Temp:Abs-Feuchte:Windchill:Wind:
Aussen-T/F 1126 05-05-2010 09:21:02 6.6 C 3.85 g/m*3 6.6 C 0 km/h
1127 05-05-2010 09:33:02 7.2 C 3.92 g/m*3 7.2 C 0 km/h
1128 05-05-2010 09:45:02 7.5 C 3.76 g/m*3 7.5 C 0 km/h
1129 05-05-2010 09:57:02 7.9 C 3.7 g/m*3 7.9 C 0 km/h
1130 05-05-2010 10:09:02 8.1 C 3.58 g/m*3 8.1 C 0 km/h
1131 05-05-2010 10:21:02 8.6 C 3.52 g/m*3 8.6 C 0 km/h
1132 05-05-2010 10:33:02 9.5 C 3.37 g/m*3 9.5 C 0 km/h
1133 05-05-2010 10:45:01 9.6 C 3.11 g/m*3 9.6 C 0 km/h
1134 05-05-2010 10:57:01 10 C 2.91 g/m*3 10 C 0 km/h
1135 05-05-2010 11:09:02 10.4 C 2.89 g/m*3 10.4 C 0 km/h
1136 05-05-2010 11:21:01 10.7 C 2.75 g/m*3 10.7 C 0 km/h
1137 05-05-2010 11:33:02 11.2 C 3.04 g/m*3 11.2 C 0 km/h
1138 05-05-2010 11:45:02 11.9 C 2.65 g/m*3 11.9 C 0 km/h
1139 05-05-2010 11:57:02 12.5 C 2.42 g/m*3 12.5 C 0 km/h
1140 05-05-2010 12:09:02 12.7 C 2.23 g/m*3 12.7 C 0 km/h
1141 05-05-2010 12:21:01 12.7 C 2.23 g/m*3 12.7 C 0 km/h
1142 05-05-2010 12:33:02 13.4 C 2.32 g/m*3 13.4 C 0 km/h
1143 05-05-2010 12:45:02 14.6 C 2.5 g/m*3 14.6 C 0 km/h
1144 05-05-2010 12:57:02 15.2 C 2.6 g/m*3 15.2 C 0 km/h
1145 05-05-2010 13:09:02 15.9 C 2.71 g/m*3 15.9 C 0 km/h
1146 05-05-2010 13:21:01 16.6 C 2.83 g/m*3 16.6 C 0 km/h
1147 05-05-2010 13:33:02 17.2 C 2.93 g/m*3 17.2 C 0 km/h
1148 05-05-2010 13:45:01 16.6 C 2.83 g/m*3 16.6 C 0 km/h
1149 05-05-2010 13:57:01 16.4 C 2.79 g/m*3 16.4 C 0 km/h
1150 05-05-2010 14:09:02 16.7 C 2.84 g/m*3 16.7 C 0 km/h
Sensor: Nr:Datum:Temp:Abs-Feuchte:Windchill:Wind:
Aussen-T/F 1151 05-05-2010 14:21:02 16.7 C 2.84 g/m*3 16.7 C 0 km/h
1152 05-05-2010 14:33:01 17 C 2.89 g/m*3 17 C 0 km/h
1153 05-05-2010 14:45:01 17.4 C 2.96 g/m*3 17.4 C 0 km/h
1154 05-05-2010 14:57:01 17.5 C 2.98 g/m*3 17.5 C 0 km/h
1155 05-05-2010 15:09:02 18.3 C 3.13 g/m*3 18.3 C 0 km/h
1156 05-05-2010 15:21:02 18.2 C 3.11 g/m*3 18.2 C 0 km/h
1157 05-05-2010 15:33:01 17.8 C 3.04 g/m*3 17.8 C 0 km/h
1158 05-05-2010 15:45:02 18 C 3.07 g/m*3 18 C 0 km/h
1159 05-05-2010 15:57:02 18.2 C 3.11 g/m*3 18.2 C 0 km/h
1160 05-05-2010 16:09:01 18.3 C 3.13 g/m*3 18.3 C 0 km/h
1161 05-05-2010 16:21:01 18.1 C 3.09 g/m*3 18.1 C 0 km/h
1162 05-05-2010 16:33:01 17.7 C 3.02 g/m*3 17.7 C 0 km/h
1163 05-05-2010 16:45:02 17.5 C 2.98 g/m*3 17.5 C 0 km/h
1164 05-05-2010 16:57:02 17.2 C 2.93 g/m*3 17.2 C 0 km/h
1165 05-05-2010 17:09:02 16.7 C 2.84 g/m*3 16.7 C 0 km/h
1166 05-05-2010 17:21:02 16.2 C 2.76 g/m*3 16.2 C 0 km/h
1167 05-05-2010 17:33:02 15.6 C 2.66 g/m*3 15.6 C 0 km/h
1168 05-05-2010 17:45:02 15.1 C 2.58 g/m*3 15.1 C 0 km/h
1169 05-05-2010 17:57:02 14.8 C 2.53 g/m*3 14.8 C 0 km/h
1170 05-05-2010 18:09:01 14.5 C 2.49 g/m*3 14.5 C 0 km/h
1171 05-05-2010 18:21:01 14.4 C 2.47 g/m*3 14.4 C 0 km/h
1172 05-05-2010 18:33:02 14.2 C 2.44 g/m*3 14.2 C 0 km/h
1173 05-05-2010 18:45:02 14.1 C 2.43 g/m*3 14.1 C 0 km/h
1174 05-05-2010 18:57:02 13.8 C 2.38 g/m*3 13.8 C 0 km/h
1175 05-05-2010 19:09:02 13.7 C 2.37 g/m*3 13.7 C 0 km/h
Sensor: Nr:Datum:Temp:Abs-Feuchte:Windchill:Wind:
Aussen-T/F 1176 05-05-2010 19:21:01 13.6 C 2.35 g/m*3 13.6 C 0 km/h
1177 05-05-2010 19:33:02 13.5 C 2.34 g/m*3 13.5 C 0 km/h
1178 05-05-2010 19:45:02 13.3 C 2.43 g/m*3 13.3 C 0 km/h
1179 05-05-2010 19:57:02 13.1 C 2.28 g/m*3 13.1 C 0 km/h
1180 05-05-2010 20:09:02 13 C 2.49 g/m*3 13 C 0 km/h
1181 05-05-2010 20:21:02 12.9 C 2.82 g/m*3 12.9 C 0 km/h
1182 05-05-2010 20:33:02 12.8 C 2.91 g/m*3 12.8 C 0 km/h
1183 05-05-2010 20:45:02 12.7 C 2.89 g/m*3 12.7 C 0 km/h
1184 05-05-2010 20:57:02 12.6 C 2.88 g/m*3 12.6 C 0 km/h
1185 05-05-2010 21:09:02 12.5 C 2.86 g/m*3 12.5 C 0 km/h
1186 05-05-2010 21:21:02 12.4 C 2.84 g/m*3 12.4 C 0 km/h
1187 05-05-2010 21:33:02 12.3 C 2.82 g/m*3 12.3 C 0 km/h
1188 05-05-2010 21:45:02 12.3 C 2.93 g/m*3 12.3 C 0 km/h
1189 05-05-2010 21:57:02 12.2 C 2.91 g/m*3 12.2 C 0 km/h
1190 05-05-2010 22:09:03 12.1 C 3 g/m*3 12.1 C 0 km/h
1191 05-05-2010 22:21:02 12 C 3.09 g/m*3 12 C 0 km/h
1192 05-05-2010 22:34:02 11.9 C 3.39 g/m*3 11.9 C 0 km/h
1193 05-05-2010 22:46:02 11.7 C 3.35 g/m*3 11.7 C 0 km/h
1194 05-05-2010 22:58:02 11.7 C 3.35 g/m*3 11.7 C 0 km/h
1195 05-05-2010 23:10:02 11.6 C 3.22 g/m*3 11.6 C 0 km/h
1196 05-05-2010 23:22:02 11.5 C 3.2 g/m*3 11.5 C 0 km/h
1197 05-05-2010 23:34:02 11.6 C 3.33 g/m*3 11.6 C 0 km/h
1198 05-05-2010 23:46:02 11.4 C 3.39 g/m*3 11.4 C 0 km/h
1199 05-05-2010 23:58:02 11.4 C 3.39 g/m*3 11.4 C 0 km/h
1200 06-05-2010 00:10:02 11.3 C 3.47 g/m*3 11.3 C 0 km/h
Sensor: Nr:Datum:Temp:Abs-Feuchte:Windchill:Wind:
Aussen-T/F 1201 06-05-2010 00:22:02 11.2 C 3.55 g/m*3 11.2 C 0 km/h
1202 06-05-2010 00:34:02 11.2 C 3.55 g/m*3 11.2 C 0 km/h
1203 06-05-2010 00:46:02 10.7 C 4.03 g/m*3 10.7 C 0 km/h
1204 06-05-2010 00:58:02 9.8 C 4.45 g/m*3 9.8 C 0 km/h
1205 06-05-2010 01:10:02 8.7 C 5.1 g/m*3 8.7 C 0 km/h
1206 06-05-2010 01:22:02 7.9 C 5.5 g/m*3 7.9 C 0 km/h
1207 06-05-2010 01:34:02 7.3 C 5.93 g/m*3 7.3 C 0 km/h
1208 06-05-2010 01:46:02 7.1 C 6.01 g/m*3 7.1 C 0 km/h
1209 06-05-2010 01:58:03 7 C 6.04 g/m*3 7 C 0 km/h
1210 06-05-2010 02:10:03 6.9 C 6.31 g/m*3 6.9 C 0 km/h
1211 06-05-2010 02:22:03 6.8 C 6.42 g/m*3 6.8 C 0 km/h
1212 06-05-2010 02:34:03 6.7 C 6.53 g/m*3 6.7 C 0 km/h
1213 06-05-2010 02:46:03 6.5 C 6.52 g/m*3 6.5 C 0 km/h
1214 06-05-2010 02:58:03 6.8 C 6.73 g/m*3 6.8 C 0 km/h
1215 06-05-2010 03:10:03 6.8 C 6.81 g/m*3 6.8 C 0 km/h
1216 06-05-2010 03:22:03 6.7 C 6.84 g/m*3 6.7 C 0 km/h
1217 06-05-2010 03:34:03 6.5 C 6.82 g/m*3 6.5 C 0 km/h
1218 06-05-2010 03:46:03 6.9 C 7.01 g/m*3 6.9 C 0 km/h
1219 06-05-2010 03:58:03 6.8 C 7.04 g/m*3 6.8 C 0 km/h
1220 06-05-2010 04:10:03 6.9 C 7.08 g/m*3 6.9 C 0 km/h
1221 06-05-2010 04:22:03 6.9 C 7.08 g/m*3 6.9 C 0 km/h
1222 06-05-2010 04:34:03 6.9 C 7.08 g/m*3 6.9 C 0 km/h
1223 06-05-2010 04:46:03 6.9 C 7.08 g/m*3 6.9 C 0 km/h
1224 06-05-2010 04:58:03 6.8 C 7.04 g/m*3 6.8 C 0 km/h
1225 06-05-2010 05:10:03 6.6 C 7.02 g/m*3 6.6 C 0 km/h
Sensor: Nr:Datum:Temp:Abs-Feuchte:Windchill:Wind:
Aussen-T/F 1226 06-05-2010 05:22:03 6.5 C 6.97 g/m*3 6.5 C 0 km/h
1227 06-05-2010 05:34:03 6.6 C 7.02 g/m*3 6.6 C 0 km/h
1228 06-05-2010 05:46:03 6.8 C 7.11 g/m*3 6.8 C 0 km/h
1229 06-05-2010 05:58:04 6.8 C 7.11 g/m*3 6.8 C 0 km/h
1230 06-05-2010 06:10:04 6.5 C 6.97 g/m*3 6.5 C 0 km/h
1231 06-05-2010 06:22:04 6.5 C 6.97 g/m*3 6.5 C 0 km/h
1232 06-05-2010 06:34:04 6.5 C 6.97 g/m*3 6.5 C 0 km/h
1233 06-05-2010 06:46:04 6.6 C 7.02 g/m*3 6.6 C 0 km/h
1234 06-05-2010 06:58:04 6.5 C 7.05 g/m*3 6.5 C 0 km/h
1235 06-05-2010 07:10:01 6.4 C 7 g/m*3 6.4 C 0 km/h
1236 06-05-2010 07:22:02 6.4 C 7 g/m*3 6.4 C 0 km/h
1237 06-05-2010 07:34:01 6.3 C 6.96 g/m*3 6.3 C 0 km/h
1238 06-05-2010 07:46:03 6.5 C 7.05 g/m*3 6.5 C 0 km/h
1239 06-05-2010 07:58:03 6.3 C 6.96 g/m*3 6.3 C 0 km/h
1240 06-05-2010 08:10:02 6.1 C 6.87 g/m*3 6.1 C 0 km/h
1241 06-05-2010 08:22:02 6.2 C 6.91 g/m*3 6.2 C 0 km/h
1242 06-05-2010 08:34:03 6.2 C 6.91 g/m*3 6.2 C 0 km/h
1243 06-05-2010 08:46:02 6.4 C 7 g/m*3 6.4 C 0 km/h
1244 06-05-2010 08:58:02 6.2 C 6.91 g/m*3 6.2 C 0 km/h
1245 06-05-2010 09:10:02 6.2 C 6.84 g/m*3 6.2 C 0 km/h
1246 06-05-2010 09:22:01 6.4 C 7 g/m*3 6.4 C 0 km/h
1247 06-05-2010 09:34:02 6.6 C 7.1 g/m*3 6.6 C 0 km/h
1248 06-05-2010 09:46:02 6.8 C 7.19 g/m*3 6.8 C 0 km/h
1249 06-05-2010 09:58:02 6.8 C 7.19 g/m*3 6.8 C 0 km/h
1250 06-05-2010 10:10:02 6.8 C 7.19 g/m*3 6.8 C 0 km/h
Sensor: Nr:Datum:Temp:Abs-Feuchte:Windchill:Wind:
Aussen-T/F 1251 06-05-2010 10:22:02 6.9 C 7.24 g/m*3 6.9 C 0 km/h
1252 06-05-2010 10:34:02 6.8 C 7.11 g/m*3 6.8 C 0 km/h
1253 06-05-2010 10:46:02 6.8 C 7.11 g/m*3 6.8 C 0 km/h
1254 06-05-2010 10:58:02 6.9 C 7.16 g/m*3 6.9 C 0 km/h
1255 06-05-2010 11:10:02 7 C 7.21 g/m*3 7 C 0 km/h
1256 06-05-2010 11:22:02 7 C 7.13 g/m*3 7 C 0 km/h
1257 06-05-2010 11:34:02 7 C 7.13 g/m*3 7 C 0 km/h
1258 06-05-2010 11:46:01 7.1 C 7.18 g/m*3 7.1 C 0 km/h
1259 06-05-2010 11:58:01 7.1 C 7.18 g/m*3 7.1 C 0 km/h
1260 06-05-2010 12:10:01 7.2 C 7.22 g/m*3 7.2 C 0 km/h
1261 06-05-2010 12:22:02 6.9 C 7.08 g/m*3 6.9 C 0 km/h
1262 06-05-2010 12:34:02 6.9 C 7.01 g/m*3 6.9 C 0 km/h
1263 06-05-2010 12:46:01 7.1 C 7.1 g/m*3 7.1 C 0 km/h
1264 06-05-2010 12:58:01 7.2 C 7.06 g/m*3 7.2 C 0 km/h
1265 06-05-2010 13:10:02 7.5 C 7.2 g/m*3 7.5 C 0 km/h
1266 06-05-2010 13:22:01 7.7 C 7.3 g/m*3 7.7 C 0 km/h
1267 06-05-2010 13:34:02 7.4 C 7.16 g/m*3 7.4 C 0 km/h
1268 06-05-2010 13:46:02 7.3 C 7.19 g/m*3 7.3 C 0 km/h
1269 06-05-2010 13:58:02 7.2 C 7.14 g/m*3 7.2 C 0 km/h
1270 06-05-2010 14:10:03 7.3 C 7.27 g/m*3 7.3 C 0 km/h
1271 06-05-2010 14:22:02 7.4 C 7.32 g/m*3 7.4 C 0 km/h
1272 06-05-2010 14:34:03 7.3 C 7.27 g/m*3 7.3 C 0 km/h
1273 06-05-2010 14:46:02 7.4 C 7.32 g/m*3 7.4 C 0 km/h
1274 06-05-2010 14:58:02 7.6 C 7.49 g/m*3 7.6 C 0 km/h
1275 06-05-2010 15:10:02 7.5 C 7.44 g/m*3 7.5 C 0 km/h
Sensor: Nr:Datum:Temp:Abs-Feuchte:Windchill:Wind:
Aussen-T/F 1276 06-05-2010 15:22:02 7.1 C 7.18 g/m*3 7.1 C 0 km/h
1277 06-05-2010 15:34:03 7.1 C 7.25 g/m*3 7.1 C 0 km/h
1278 06-05-2010 15:46:01 6.9 C 7.16 g/m*3 6.9 C 0 km/h
1279 06-05-2010 15:58:01 6.9 C 7.24 g/m*3 6.9 C 0 km/h
1280 06-05-2010 16:10:02 6.7 C 7.14 g/m*3 6.7 C 0 km/h
1281 06-05-2010 16:22:02 6.5 C 6.97 g/m*3 6.5 C 0 km/h
1282 06-05-2010 16:34:02 6.5 C 6.97 g/m*3 6.5 C 0 km/h
1283 06-05-2010 16:46:03 6.5 C 6.97 g/m*3 6.5 C 0 km/h
1284 06-05-2010 16:58:03 6.5 C 6.97 g/m*3 6.5 C 0 km/h
1285 06-05-2010 17:10:02 6.5 C 6.9 g/m*3 6.5 C 0 km/h
1286 06-05-2010 17:22:03 6.6 C 6.95 g/m*3 6.6 C 0 km/h
1287 06-05-2010 17:34:02 6.4 C 6.85 g/m*3 6.4 C 0 km/h
1288 06-05-2010 17:46:03 6.5 C 6.9 g/m*3 6.5 C 0 km/h
1289 06-05-2010 17:58:03 6.3 C 6.81 g/m*3 6.3 C 0 km/h
1290 06-05-2010 18:10:02 6 C 6.6 g/m*3 6 C 0 km/h
1291 06-05-2010 18:22:02 5.9 C 6.56 g/m*3 5.9 C 0 km/h
1292 06-05-2010 18:34:02 5.8 C 6.52 g/m*3 5.8 C 0 km/h
1293 06-05-2010 18:46:02 5.9 C 6.63 g/m*3 5.9 C 0 km/h
1294 06-05-2010 18:58:02 5.9 C 6.63 g/m*3 5.9 C 0 km/h
1295 06-05-2010 19:10:02 6 C 6.6 g/m*3 6 C 0 km/h
1296 06-05-2010 19:22:02 5.9 C 6.63 g/m*3 5.9 C 0 km/h
1297 06-05-2010 19:34:02 5.9 C 6.63 g/m*3 5.9 C 0 km/h
1298 06-05-2010 19:46:02 5.7 C 6.55 g/m*3 5.7 C 0 km/h
1299 06-05-2010 19:58:02 5.6 C 6.57 g/m*3 5.6 C 0 km/h
1300 06-05-2010 20:10:01 5.6 C 6.57 g/m*3 5.6 C 0 km/h
Sensor: Nr:Datum:Temp:Abs-Feuchte:Windchill:Wind:
Aussen-T/F 1301 06-05-2010 20:22:02 5.5 C 6.53 g/m*3 5.5 C 0 km/h
1302 06-05-2010 20:34:02 5.6 C 6.65 g/m*3 5.6 C 0 km/h
1303 06-05-2010 20:46:02 5.4 C 6.56 g/m*3 5.4 C 0 km/h
1304 06-05-2010 20:58:02 5.4 C 6.56 g/m*3 5.4 C 0 km/h
1305 06-05-2010 21:10:01 5.4 C 6.56 g/m*3 5.4 C 0 km/h
1306 06-05-2010 21:22:02 5.4 C 6.56 g/m*3 5.4 C 0 km/h
1307 06-05-2010 21:34:01 5.3 C 6.52 g/m*3 5.3 C 0 km/h
1308 06-05-2010 21:46:03 5.4 C 6.56 g/m*3 5.4 C 0 km/h
1309 06-05-2010 21:58:03 5.4 C 6.56 g/m*3 5.4 C 0 km/h
1310 06-05-2010 22:10:02 5.4 C 6.63 g/m*3 5.4 C 0 km/h
1311 06-05-2010 22:22:02 5.4 C 6.63 g/m*3 5.4 C 0 km/h
1312 06-05-2010 22:34:02 5.4 C 6.63 g/m*3 5.4 C 0 km/h
1313 06-05-2010 22:47:02 5.4 C 6.63 g/m*3 5.4 C 0 km/h
1314 06-05-2010 22:59:02 5.4 C 6.63 g/m*3 5.4 C 0 km/h
1315 06-05-2010 23:11:02 5.4 C 6.63 g/m*3 5.4 C 0 km/h
1316 06-05-2010 23:23:02 5.4 C 6.63 g/m*3 5.4 C 0 km/h
1317 06-05-2010 23:35:02 5.4 C 6.63 g/m*3 5.4 C 0 km/h
1318 06-05-2010 23:47:02 5.3 C 6.58 g/m*3 5.3 C 0 km/h
1319 06-05-2010 23:59:02 5.3 C 6.58 g/m*3 5.3 C 0 km/h
1320 07-05-2010 00:11:02 5.4 C 6.63 g/m*3 5.4 C 0 km/h
1321 07-05-2010 00:23:02 5.4 C 6.63 g/m*3 5.4 C 0 km/h
1322 07-05-2010 00:35:02 5.4 C 6.63 g/m*3 5.4 C 0 km/h
1323 07-05-2010 00:47:02 5.4 C 6.63 g/m*3 5.4 C 0 km/h
1324 07-05-2010 00:59:02 5.4 C 6.63 g/m*3 5.4 C 0 km/h
1325 07-05-2010 01:11:03 5.4 C 6.63 g/m*3 5.4 C 0 km/h
Sensor: Nr:Datum:Temp:Abs-Feuchte:Windchill:Wind:
Aussen-T/F 1326 07-05-2010 01:23:03 5.4 C 6.63 g/m*3 5.4 C 0 km/h
1327 07-05-2010 01:35:03 5.4 C 6.63 g/m*3 5.4 C 0 km/h
1328 07-05-2010 01:47:03 5.4 C 6.63 g/m*3 5.4 C 0 km/h
1329 07-05-2010 01:59:03 5.4 C 6.63 g/m*3 5.4 C 0 km/h
1330 07-05-2010 02:11:03 5.4 C 6.63 g/m*3 5.4 C 0 km/h
1331 07-05-2010 02:23:03 5.4 C 6.63 g/m*3 5.4 C 0 km/h
1332 07-05-2010 02:35:03 5.4 C 6.63 g/m*3 5.4 C 0 km/h
1333 07-05-2010 02:47:03 5.4 C 6.63 g/m*3 5.4 C 0 km/h
1334 07-05-2010 02:59:03 5.4 C 6.63 g/m*3 5.4 C 0 km/h
1335 07-05-2010 03:11:03 5.4 C 6.63 g/m*3 5.4 C 0 km/h
1336 07-05-2010 03:23:03 5.4 C 6.63 g/m*3 5.4 C 0 km/h
1337 07-05-2010 03:35:03 5.3 C 6.58 g/m*3 5.3 C 0 km/h
1338 07-05-2010 03:47:03 5.3 C 6.58 g/m*3 5.3 C 0 km/h
1339 07-05-2010 03:59:03 5.2 C 6.54 g/m*3 5.2 C 0 km/h
1340 07-05-2010 04:11:03 5.2 C 6.54 g/m*3 5.2 C 0 km/h
1341 07-05-2010 04:23:03 5.2 C 6.54 g/m*3 5.2 C 0 km/h
1342 07-05-2010 04:35:03 5.2 C 6.54 g/m*3 5.2 C 0 km/h
1343 07-05-2010 04:47:03 5.2 C 6.54 g/m*3 5.2 C 0 km/h
1344 07-05-2010 04:59:03 5.1 C 6.5 g/m*3 5.1 C 0 km/h
1345 07-05-2010 05:11:04 5 C 6.46 g/m*3 5 C 0 km/h
1346 07-05-2010 05:23:04 5 C 6.46 g/m*3 5 C 0 km/h
1347 07-05-2010 05:35:04 4.9 C 6.41 g/m*3 4.9 C 0 km/h
1348 07-05-2010 05:47:04 4.8 C 6.37 g/m*3 4.8 C 0 km/h
1349 07-05-2010 05:59:04 4.7 C 6.33 g/m*3 4.7 C 0 km/h
1350 07-05-2010 06:11:04 4.7 C 6.33 g/m*3 4.7 C 0 km/h
Sensor: Nr:Datum:Temp:Abs-Feuchte:Windchill:Wind:
Aussen-T/F 1351 07-05-2010 06:23:04 4.6 C 6.29 g/m*3 4.6 C 0 km/h
1352 07-05-2010 06:35:04 4.5 C 6.24 g/m*3 4.5 C 0 km/h
1353 07-05-2010 06:47:04 4.6 C 6.29 g/m*3 4.6 C 0 km/h
1354 07-05-2010 06:59:04 4.6 C 6.29 g/m*3 4.6 C 0 km/h
1355 07-05-2010 07:11:04 4.6 C 6.29 g/m*3 4.6 C 0 km/h
1356 07-05-2010 07:23:04 4.7 C 6.33 g/m*3 4.7 C 0 km/h
1357 07-05-2010 07:35:04 4.6 C 6.29 g/m*3 4.6 C 0 km/h
1358 07-05-2010 07:47:04 4.7 C 6.33 g/m*3 4.7 C 0 km/h
1359 07-05-2010 07:59:04 4.8 C 6.37 g/m*3 4.8 C 0 km/h
1360 07-05-2010 08:11:04 4.9 C 6.41 g/m*3 4.9 C 0 km/h
1361 07-05-2010 08:23:04 4.8 C 6.37 g/m*3 4.8 C 0 km/h
1362 07-05-2010 08:35:02 5 C 6.46 g/m*3 5 C 0 km/h
1363 07-05-2010 08:47:02 4.8 C 6.3 g/m*3 4.8 C 0 km/h
1364 07-05-2010 08:59:02 4.6 C 6.22 g/m*3 4.6 C 0 km/h
1365 07-05-2010 09:11:02 4.9 C 6.28 g/m*3 4.9 C 0 km/h
1366 07-05-2010 09:23:03 4.8 C 6.24 g/m*3 4.8 C 0 km/h
1367 07-05-2010 09:35:02 4.7 C 6.13 g/m*3 4.7 C 0 km/h
1368 07-05-2010 09:47:02 5 C 6.12 g/m*3 5 C 0 km/h
1369 07-05-2010 09:59:02 4.9 C 6.08 g/m*3 4.9 C 0 km/h
1370 07-05-2010 10:11:02 5 C 6.05 g/m*3 5 C 0 km/h
1371 07-05-2010 10:23:02 5.3 C 6.17 g/m*3 5.3 C 0 km/h
1372 07-05-2010 10:35:02 6 C 6.39 g/m*3 6 C 0 km/h
1373 07-05-2010 10:47:02 5.6 C 6.15 g/m*3 5.6 C 0 km/h
1374 07-05-2010 10:59:02 5.7 C 6.12 g/m*3 5.7 C 0 km/h
1375 07-05-2010 11:11:01 6.8 C 6.58 g/m*3 6.8 C 0 km/h
Sensor: Nr:Datum:Temp:Abs-Feuchte:Windchill:Wind:
Aussen-T/F 1376 07-05-2010 11:23:02 7 C 6.66 g/m*3 7 C 0 km/h
1377 07-05-2010 11:35:02 7.1 C 6.71 g/m*3 7.1 C 0 km/h
1378 07-05-2010 11:47:02 7.1 C 6.71 g/m*3 7.1 C 0 km/h
1379 07-05-2010 11:59:02 7.1 C 6.63 g/m*3 7.1 C 0 km/h
1380 07-05-2010 12:11:03 7.1 C 6.4 g/m*3 7.1 C 0 km/h
1381 07-05-2010 12:23:02 7 C 6.28 g/m*3 7 C 0 km/h
1382 07-05-2010 12:35:02 7.1 C 6.4 g/m*3 7.1 C 0 km/h
1383 07-05-2010 12:47:01 7.3 C 6.48 g/m*3 7.3 C 0 km/h
1384 07-05-2010 12:59:01 7.2 C 6.2 g/m*3 7.2 C 0 km/h
1385 07-05-2010 13:11:02 7.3 C 6.4 g/m*3 7.3 C 0 km/h
1386 07-05-2010 13:23:01 7.8 C 6.61 g/m*3 7.8 C 0 km/h
1387 07-05-2010 13:35:02 8.3 C 6.66 g/m*3 8.3 C 0 km/h
1388 07-05-2010 13:47:01 7.9 C 6.49 g/m*3 7.9 C 0 km/h
1389 07-05-2010 13:59:01 7.7 C 6.41 g/m*3 7.7 C 0 km/h
1390 07-05-2010 14:11:02 8.6 C 6.87 g/m*3 8.6 C 0 km/h
1391 07-05-2010 14:23:01 8.4 C 6.79 g/m*3 8.4 C 0 km/h
1392 07-05-2010 14:35:02 8.5 C 6.92 g/m*3 8.5 C 0 km/h
1393 07-05-2010 14:47:01 8.3 C 6.83 g/m*3 8.3 C 0 km/h
1394 07-05-2010 14:59:01 8.3 C 6.66 g/m*3 8.3 C 0 km/h
1395 07-05-2010 15:11:02 8.4 C 6.87 g/m*3 8.4 C 0 km/h
1396 07-05-2010 15:23:02 7.8 C 6.61 g/m*3 7.8 C 0 km/h
1397 07-05-2010 15:35:02 7.7 C 6.57 g/m*3 7.7 C 0 km/h
1398 07-05-2010 15:47:02 8.5 C 7 g/m*3 8.5 C 0 km/h
1399 07-05-2010 15:59:02 8.6 C 7.05 g/m*3 8.6 C 0 km/h
1400 07-05-2010 16:11:01 9.3 C 7.19 g/m*3 9.3 C 0 km/h
Sensor: Nr:Datum:Temp:Abs-Feuchte:Windchill:Wind:
Aussen-T/F 1401 07-05-2010 16:23:01 9.2 C 6.97 g/m*3 9.2 C 0 km/h
1402 07-05-2010 16:35:01 9 C 6.61 g/m*3 9 C 0 km/h
1403 07-05-2010 16:47:01 9.2 C 6.97 g/m*3 9.2 C 0 km/h
1404 07-05-2010 16:59:01 9.1 C 6.92 g/m*3 9.1 C 0 km/h
1405 07-05-2010 17:11:02 8.9 C 6.92 g/m*3 8.9 C 0 km/h
1406 07-05-2010 17:23:01 9.2 C 6.97 g/m*3 9.2 C 0 km/h
1407 07-05-2010 17:35:02 9.4 C 7.05 g/m*3 9.4 C 0 km/h
1408 07-05-2010 17:47:01 9.8 C 7.24 g/m*3 9.8 C 0 km/h
1409 07-05-2010 17:59:01 9.8 C 7.24 g/m*3 9.8 C 0 km/h
1410 07-05-2010 18:11:02 9.8 C 7.24 g/m*3 9.8 C 0 km/h
1411 07-05-2010 18:23:02 9.4 C 6.96 g/m*3 9.4 C 0 km/h
1412 07-05-2010 18:35:02 9 C 6.88 g/m*3 9 C 0 km/h
1413 07-05-2010 18:47:02 9 C 7.05 g/m*3 9 C 0 km/h
1414 07-05-2010 18:59:02 8.5 C 7 g/m*3 8.5 C 0 km/h
1415 07-05-2010 19:11:02 8.2 C 7.03 g/m*3 8.2 C 0 km/h
1416 07-05-2010 19:23:02 8.1 C 6.99 g/m*3 8.1 C 0 km/h
1417 07-05-2010 19:35:02 7.9 C 7.06 g/m*3 7.9 C 0 km/h
1418 07-05-2010 19:47:02 7.6 C 7.09 g/m*3 7.6 C 0 km/h
1419 07-05-2010 19:59:02 7.7 C 7.14 g/m*3 7.7 C 0 km/h
1420 07-05-2010 20:11:02 7.3 C 7.03 g/m*3 7.3 C 0 km/h
1421 07-05-2010 20:23:01 7.3 C 7.03 g/m*3 7.3 C 0 km/h
1422 07-05-2010 20:35:02 7.2 C 7.06 g/m*3 7.2 C 0 km/h
1423 07-05-2010 20:47:02 7.1 C 7.1 g/m*3 7.1 C 0 km/h
1424 07-05-2010 20:59:02 6.9 C 7.08 g/m*3 6.9 C 0 km/h
1425 07-05-2010 21:11:02 6.7 C 6.99 g/m*3 6.7 C 0 km/h
Sensor: Nr:Datum:Temp:Abs-Feuchte:Windchill:Wind:
Aussen-T/F 1426 07-05-2010 21:23:02 6.8 C 7.04 g/m*3 6.8 C 0 km/h
1427 07-05-2010 21:35:02 6.8 C 7.11 g/m*3 6.8 C 0 km/h
1428 07-05-2010 21:47:02 6.7 C 7.07 g/m*3 6.7 C 0 km/h
1429 07-05-2010 21:59:02 6.4 C 6.93 g/m*3 6.4 C 0 km/h
1430 07-05-2010 22:11:02 6.1 C 6.79 g/m*3 6.1 C 0 km/h
1431 07-05-2010 22:23:02 5.9 C 6.71 g/m*3 5.9 C 0 km/h
1432 07-05-2010 22:35:02 5.7 C 6.62 g/m*3 5.7 C 0 km/h
1433 07-05-2010 22:47:02 5.6 C 6.57 g/m*3 5.6 C 0 km/h
1434 07-05-2010 22:59:02 5.7 C 6.69 g/m*3 5.7 C 0 km/h
1435 07-05-2010 23:11:01 5.9 C 6.78 g/m*3 5.9 C 0 km/h
1436 07-05-2010 23:23:02 5.9 C 6.78 g/m*3 5.9 C 0 km/h
1437 07-05-2010 23:35:02 5.9 C 6.85 g/m*3 5.9 C 0 km/h
1438 07-05-2010 23:47:02 6 C 6.82 g/m*3 6 C 0 km/h
1439 07-05-2010 23:59:03 6.1 C 6.87 g/m*3 6.1 C 0 km/h
1440 08-05-2010 00:11:01 6.2 C 6.91 g/m*3 6.2 C 0 km/h
1441 08-05-2010 00:23:02 6.2 C 6.91 g/m*3 6.2 C 0 km/h
1442 08-05-2010 00:35:01 6 C 6.82 g/m*3 6 C 0 km/h
1443 08-05-2010 00:47:02 5.6 C 6.65 g/m*3 5.6 C 0 km/h
1444 08-05-2010 00:59:02 5.5 C 6.6 g/m*3 5.5 C 0 km/h
1445 08-05-2010 01:11:02 5.4 C 6.56 g/m*3 5.4 C 0 km/h
1446 08-05-2010 01:23:02 5.1 C 6.43 g/m*3 5.1 C 0 km/h
1447 08-05-2010 01:35:02 4.9 C 6.35 g/m*3 4.9 C 0 km/h
1448 08-05-2010 01:47:02 4.7 C 6.26 g/m*3 4.7 C 0 km/h
1449 08-05-2010 01:59:02 4.7 C 6.33 g/m*3 4.7 C 0 km/h
1450 08-05-2010 02:11:01 4.5 C 6.18 g/m*3 4.5 C 0 km/h
Sensor: Nr:Datum:Temp:Abs-Feuchte:Windchill:Wind:
Aussen-T/F 1451 08-05-2010 02:23:02 4.5 C 6.24 g/m*3 4.5 C 0 km/h
1452 08-05-2010 02:35:02 4.6 C 6.29 g/m*3 4.6 C 0 km/h
1453 08-05-2010 02:48:03 4.4 C 6.2 g/m*3 4.4 C 0 km/h
1454 08-05-2010 03:00:03 4.5 C 6.24 g/m*3 4.5 C 0 km/h
1455 08-05-2010 03:12:03 4.6 C 6.29 g/m*3 4.6 C 0 km/h
1456 08-05-2010 03:24:03 4.7 C 6.33 g/m*3 4.7 C 0 km/h
1457 08-05-2010 03:36:02 4.6 C 6.29 g/m*3 4.6 C 0 km/h
1458 08-05-2010 03:48:02 4.6 C 6.29 g/m*3 4.6 C 0 km/h
1459 08-05-2010 04:00:02 4.7 C 6.33 g/m*3 4.7 C 0 km/h
1460 08-05-2010 04:12:02 4.6 C 6.29 g/m*3 4.6 C 0 km/h
1461 08-05-2010 04:24:02 4.4 C 6.2 g/m*3 4.4 C 0 km/h
1462 08-05-2010 04:36:02 4 C 6.04 g/m*3 4 C 0 km/h
1463 08-05-2010 04:48:02 4 C 6.04 g/m*3 4 C 0 km/h
1464 08-05-2010 05:00:02 4.1 C 6.08 g/m*3 4.1 C 0 km/h
1465 08-05-2010 05:12:01 4.2 C 6.12 g/m*3 4.2 C 0 km/h
1466 08-05-2010 05:24:02 4.4 C 6.2 g/m*3 4.4 C 0 km/h
1467 08-05-2010 05:36:02 4.5 C 6.24 g/m*3 4.5 C 0 km/h
1468 08-05-2010 05:48:02 4.5 C 6.24 g/m*3 4.5 C 0 km/h
1469 08-05-2010 06:00:02 4.5 C 6.24 g/m*3 4.5 C 0 km/h
1470 08-05-2010 06:12:03 4.6 C 6.29 g/m*3 4.6 C 0 km/h
1471 08-05-2010 06:24:02 4.6 C 6.29 g/m*3 4.6 C 0 km/h
1472 08-05-2010 06:36:02 4.8 C 6.37 g/m*3 4.8 C 0 km/h
1473 08-05-2010 06:48:01 4.8 C 6.37 g/m*3 4.8 C 0 km/h
1474 08-05-2010 07:00:01 4.8 C 6.37 g/m*3 4.8 C 0 km/h
1475 08-05-2010 07:12:02 5 C 6.46 g/m*3 5 C 0 km/h
Sensor: Nr:Datum:Temp:Abs-Feuchte:Windchill:Wind:
Aussen-T/F 1476 08-05-2010 07:24:01 5.2 C 6.54 g/m*3 5.2 C 0 km/h
1477 08-05-2010 07:36:01 5.5 C 6.67 g/m*3 5.5 C 0 km/h
1478 08-05-2010 07:48:01 5.6 C 6.72 g/m*3 5.6 C 0 km/h
1479 08-05-2010 08:00:01 5.9 C 6.78 g/m*3 5.9 C 0 km/h
1480 08-05-2010 08:12:02 6 C 6.68 g/m*3 6 C 0 km/h
1481 08-05-2010 08:24:01 5.8 C 6.52 g/m*3 5.8 C 0 km/h
1482 08-05-2010 08:36:01 6.2 C 6.55 g/m*3 6.2 C 0 km/h
1483 08-05-2010 08:48:01 6.5 C 6.6 g/m*3 6.5 C 0 km/h
1484 08-05-2010 09:00:01 7.3 C 6.87 g/m*3 7.3 C 0 km/h
1485 08-05-2010 09:12:02 8 C 7.03 g/m*3 8 C 0 km/h
1486 08-05-2010 09:24:01 8.1 C 6.82 g/m*3 8.1 C 0 km/h
1487 08-05-2010 09:36:01 8.7 C 7.01 g/m*3 8.7 C 0 km/h
1488 08-05-2010 09:48:01 9.2 C 7.05 g/m*3 9.2 C 0 km/h
1489 08-05-2010 10:00:01 9.1 C 6.74 g/m*3 9.1 C 0 km/h
1490 08-05-2010 10:12:02 9.1 C 6.57 g/m*3 9.1 C 0 km/h
1491 08-05-2010 10:24:01 9.6 C 6.87 g/m*3 9.6 C 0 km/h
1492 08-05-2010 10:36:01 10.1 C 6.9 g/m*3 10.1 C 0 km/h
1493 08-05-2010 10:48:01 10.4 C 7.04 g/m*3 10.4 C 0 km/h
1494 08-05-2010 11:00:01 11.2 C 7.3 g/m*3 11.2 C 0 km/h
1495 08-05-2010 11:12:02 12.1 C 7.18 g/m*3 12.1 C 0 km/h
1496 08-05-2010 11:24:01 12.8 C 7.06 g/m*3 12.8 C 0 km/h
1497 08-05-2010 11:36:01 14.1 C 6.31 g/m*3 14.1 C 0 km/h
1498 08-05-2010 11:48:01 15.1 C 5.55 g/m*3 15.1 C 0 km/h
1499 08-05-2010 12:00:01 14.8 C 5.32 g/m*3 14.8 C 0 km/h
1500 08-05-2010 12:12:01 14.5 C 4.97 g/m*3 14.5 C 0 km/h
Sensor: Nr:Datum:Temp:Abs-Feuchte:Windchill:Wind:
Aussen-T/F 1501 08-05-2010 12:24:02 15.6 C 5.19 g/m*3 15.6 C 0 km/h
1502 08-05-2010 12:36:01 15 C 4.74 g/m*3 15 C 0 km/h
1503 08-05-2010 12:48:03 16.3 C 5.13 g/m*3 16.3 C 0 km/h
1504 08-05-2010 13:00:03 16.5 C 5.2 g/m*3 16.5 C 0 km/h
1505 08-05-2010 13:12:02 16 C 5.31 g/m*3 16 C 0 km/h
1506 08-05-2010 13:24:02 15.8 C 5.25 g/m*3 15.8 C 0 km/h
1507 08-05-2010 13:36:02 17.5 C 5.37 g/m*3 17.5 C 0 km/h
1508 08-05-2010 13:48:02 18.4 C 4.88 g/m*3 18.4 C 0 km/h
1509 08-05-2010 14:00:02 16.4 C 4.19 g/m*3 16.4 C 0 km/h
1510 08-05-2010 14:12:02 15.5 C 4.1 g/m*3 15.5 C 0 km/h
1511 08-05-2010 14:24:02 15 C 4.36 g/m*3 15 C 0 km/h
1512 08-05-2010 14:36:01 15.6 C 4.39 g/m*3 15.6 C 0 km/h
1513 08-05-2010 14:48:02 15.6 C 4.12 g/m*3 15.6 C 0 km/h
1514 08-05-2010 15:00:02 16 C 4.22 g/m*3 16 C 0 km/h
1515 08-05-2010 15:12:01 16.1 C 4.25 g/m*3 16.1 C 0 km/h
1516 08-05-2010 15:24:02 16 C 4.36 g/m*3 16 C 0 km/h
1517 08-05-2010 15:36:02 16 C 4.36 g/m*3 16 C 0 km/h
1518 08-05-2010 15:48:02 15.5 C 4.63 g/m*3 15.5 C 0 km/h
1519 08-05-2010 16:00:02 16.4 C 4.61 g/m*3 16.4 C 0 km/h
1520 08-05-2010 16:12:03 16.6 C 4.38 g/m*3 16.6 C 0 km/h
1521 08-05-2010 16:24:02 16.4 C 4.47 g/m*3 16.4 C 0 km/h
1522 08-05-2010 16:36:02 17.5 C 4.32 g/m*3 17.5 C 0 km/h
1523 08-05-2010 16:48:01 17.6 C 4.2 g/m*3 17.6 C 0 km/h
1524 08-05-2010 17:00:01 17.4 C 4.15 g/m*3 17.4 C 0 km/h
1525 08-05-2010 17:12:02 17.5 C 4.17 g/m*3 17.5 C 0 km/h
Sensor: Nr:Datum:Temp:Abs-Feuchte:Windchill:Wind:
Aussen-T/F 1526 08-05-2010 17:24:01 18.5 C 4.27 g/m*3 18.5 C 0 km/h
1527 08-05-2010 17:36:02 17.9 C 4.12 g/m*3 17.9 C 0 km/h
1528 08-05-2010 17:48:01 18.7 C 4.16 g/m*3 18.7 C 0 km/h
1529 08-05-2010 18:00:01 19.2 C 4.12 g/m*3 19.2 C 0 km/h
1530 08-05-2010 18:12:02 19.9 C 3.95 g/m*3 19.9 C 0 km/h
1531 08-05-2010 18:24:01 19.4 C 4 g/m*3 19.4 C 0 km/h
1532 08-05-2010 18:36:02 19.5 C 4.2 g/m*3 19.5 C 0 km/h
1533 08-05-2010 18:48:01 19.8 C 4.27 g/m*3 19.8 C 0 km/h
1534 08-05-2010 19:00:01 19.1 C 4.1 g/m*3 19.1 C 0 km/h
1535 08-05-2010 19:12:02 18.8 C 4.03 g/m*3 18.8 C 0 km/h
1536 08-05-2010 19:24:02 18.4 C 4.25 g/m*3 18.4 C 0 km/h
1537 08-05-2010 19:36:02 17.5 C 4.47 g/m*3 17.5 C 0 km/h
1538 08-05-2010 19:48:01 17.6 C 4.65 g/m*3 17.6 C 0 km/h
1539 08-05-2010 20:00:01 17.3 C 5.16 g/m*3 17.3 C 0 km/h
1540 08-05-2010 20:12:02 16.5 C 6.04 g/m*3 16.5 C 0 km/h
1541 08-05-2010 20:24:02 15.7 C 6.42 g/m*3 15.7 C 0 km/h
1542 08-05-2010 20:36:02 15.1 C 6.06 g/m*3 15.1 C 0 km/h
1543 08-05-2010 20:48:01 14.3 C 6.02 g/m*3 14.3 C 0 km/h
1544 08-05-2010 21:00:01 13.8 C 5.96 g/m*3 13.8 C 0 km/h
1545 08-05-2010 21:12:02 13.5 C 6.08 g/m*3 13.5 C 0 km/h
1546 08-05-2010 21:24:02 13.5 C 6.43 g/m*3 13.5 C 0 km/h
1547 08-05-2010 21:36:02 13.5 C 6.08 g/m*3 13.5 C 0 km/h
1548 08-05-2010 21:48:02 12.9 C 5.97 g/m*3 12.9 C 0 km/h
1549 08-05-2010 22:00:02 12.4 C 5.9 g/m*3 12.4 C 0 km/h
1550 08-05-2010 22:12:02 11.9 C 6.04 g/m*3 11.9 C 0 km/h
Sensor: Nr:Datum:Temp:Abs-Feuchte:Windchill:Wind:
Aussen-T/F 1551 08-05-2010 22:24:02 11.7 C 5.86 g/m*3 11.7 C 0 km/h
1552 08-05-2010 22:36:01 11.8 C 6.21 g/m*3 11.8 C 0 km/h
1553 08-05-2010 22:48:02 12 C 6.39 g/m*3 12 C 0 km/h
1554 08-05-2010 23:00:02 11.8 C 6.21 g/m*3 11.8 C 0 km/h
1555 08-05-2010 23:12:01 11.6 C 6.34 g/m*3 11.6 C 0 km/h
1556 08-05-2010 23:24:02 11 C 6.21 g/m*3 11 C 0 km/h
1557 08-05-2010 23:36:01 10.6 C 6.25 g/m*3 10.6 C 0 km/h
1558 08-05-2010 23:48:02 10.3 C 6.22 g/m*3 10.3 C 0 km/h
1559 09-05-2010 00:00:02 10.2 C 6.38 g/m*3 10.2 C 0 km/h
1560 09-05-2010 00:12:02 10 C 6.39 g/m*3 10 C 0 km/h
1561 09-05-2010 00:24:03 9.8 C 6.49 g/m*3 9.8 C 0 km/h
1562 09-05-2010 00:36:02 9.6 C 6.41 g/m*3 9.6 C 0 km/h
1563 09-05-2010 00:48:02 9.4 C 6.42 g/m*3 9.4 C 0 km/h
1564 09-05-2010 01:00:02 9.1 C 6.39 g/m*3 9.1 C 0 km/h
1565 09-05-2010 01:12:02 9 C 6.52 g/m*3 9 C 0 km/h
1566 09-05-2010 01:24:03 8.7 C 6.49 g/m*3 8.7 C 0 km/h
1567 09-05-2010 01:36:02 8.6 C 6.44 g/m*3 8.6 C 0 km/h
1568 09-05-2010 01:48:03 8.7 C 6.57 g/m*3 8.7 C 0 km/h
1569 09-05-2010 02:00:03 8.8 C 6.7 g/m*3 8.8 C 0 km/h
1570 09-05-2010 02:12:02 8.7 C 6.66 g/m*3 8.7 C 0 km/h
1571 09-05-2010 02:24:02 8.7 C 6.66 g/m*3 8.7 C 0 km/h
1572 09-05-2010 02:36:02 8.4 C 6.53 g/m*3 8.4 C 0 km/h
1573 09-05-2010 02:49:04 8.5 C 6.57 g/m*3 8.5 C 0 km/h
1574 09-05-2010 03:01:04 8.5 C 6.66 g/m*3 8.5 C 0 km/h
1575 09-05-2010 03:13:03 8.3 C 6.57 g/m*3 8.3 C 0 km/h
Sensor: Nr:Datum:Temp:Abs-Feuchte:Windchill:Wind:
Aussen-T/F 1576 09-05-2010 03:25:03 8.5 C 6.66 g/m*3 8.5 C 0 km/h
1577 09-05-2010 03:37:01 8.5 C 6.66 g/m*3 8.5 C 0 km/h
1578 09-05-2010 03:49:01 8.5 C 6.66 g/m*3 8.5 C 0 km/h
1579 09-05-2010 04:01:01 8.6 C 6.7 g/m*3 8.6 C 0 km/h
1580 09-05-2010 04:13:01 8.6 C 6.7 g/m*3 8.6 C 0 km/h
1581 09-05-2010 04:25:02 8.5 C 6.66 g/m*3 8.5 C 0 km/h
1582 09-05-2010 04:37:01 8.5 C 6.66 g/m*3 8.5 C 0 km/h
1583 09-05-2010 04:49:03 8.3 C 6.57 g/m*3 8.3 C 0 km/h
1584 09-05-2010 05:01:02 8 C 6.45 g/m*3 8 C 0 km/h
1585 09-05-2010 05:13:02 7.8 C 6.53 g/m*3 7.8 C 0 km/h
1586 09-05-2010 05:25:02 7.6 C 6.53 g/m*3 7.6 C 0 km/h
1587 09-05-2010 05:37:02 7.4 C 6.52 g/m*3 7.4 C 0 km/h
1588 09-05-2010 05:49:02 7.4 C 6.52 g/m*3 7.4 C 0 km/h
1589 09-05-2010 06:01:02 7.6 C 6.69 g/m*3 7.6 C 0 km/h
1590 09-05-2010 06:13:02 7.9 C 6.82 g/m*3 7.9 C 0 km/h
1591 09-05-2010 06:25:02 8 C 6.7 g/m*3 8 C 0 km/h
1592 09-05-2010 06:37:02 8.1 C 6.74 g/m*3 8.1 C 0 km/h
1593 09-05-2010 06:49:02 8.3 C 6.83 g/m*3 8.3 C 0 km/h
1594 09-05-2010 07:01:02 8.5 C 6.92 g/m*3 8.5 C 0 km/h
1595 09-05-2010 07:13:02 8.6 C 6.87 g/m*3 8.6 C 0 km/h
1596 09-05-2010 07:25:01 8.7 C 6.83 g/m*3 8.7 C 0 km/h
1597 09-05-2010 07:37:02 9.1 C 6.92 g/m*3 9.1 C 0 km/h
1598 09-05-2010 07:49:02 9.1 C 6.83 g/m*3 9.1 C 0 km/h
1599 09-05-2010 08:01:02 9.6 C 6.96 g/m*3 9.6 C 0 km/h
1600 09-05-2010 08:13:02 9.6 C 6.96 g/m*3 9.6 C 0 km/h
Sensor: Nr:Datum:Temp:Abs-Feuchte:Windchill:Wind:
Aussen-T/F 1601 09-05-2010 08:25:02 9.6 C 6.87 g/m*3 9.6 C 0 km/h
1602 09-05-2010 08:37:02 10 C 7.05 g/m*3 10 C 0 km/h
1603 09-05-2010 08:49:02 10.4 C 7.04 g/m*3 10.4 C 0 km/h
1604 09-05-2010 09:01:02 10.8 C 7.02 g/m*3 10.8 C 0 km/h
1605 09-05-2010 09:13:02 10.9 C 7.16 g/m*3 10.9 C 0 km/h
1606 09-05-2010 09:25:02 11.1 C 6.95 g/m*3 11.1 C 0 km/h
1607 09-05-2010 09:37:03 11.7 C 7.11 g/m*3 11.7 C 0 km/h
1608 09-05-2010 09:49:02 12 C 6.93 g/m*3 12 C 0 km/h
1609 09-05-2010 10:01:01 12.4 C 6.99 g/m*3 12.4 C 0 km/h
1610 09-05-2010 10:13:01 12.7 C 7.12 g/m*3 12.7 C 0 km/h
1611 09-05-2010 10:25:01 12.2 C 7.23 g/m*3 12.2 C 0 km/h
1612 09-05-2010 10:37:02 12.2 C 7.55 g/m*3 12.2 C 0 km/h
1613 09-05-2010 10:49:02 12 C 7.35 g/m*3 12 C 0 km/h
1614 09-05-2010 11:01:01 12.2 C 7.55 g/m*3 12.2 C 0 km/h
1615 09-05-2010 11:13:01 12.4 C 7.54 g/m*3 12.4 C 0 km/h
1616 09-05-2010 11:25:02 12.3 C 7.38 g/m*3 12.3 C 0 km/h
1617 09-05-2010 11:37:01 12.3 C 7.28 g/m*3 12.3 C 0 km/h
1618 09-05-2010 11:49:02 12.2 C 7.23 g/m*3 12.2 C 0 km/h
1619 09-05-2010 12:01:02 12.3 C 7.28 g/m*3 12.3 C 0 km/h
1620 09-05-2010 12:13:02 13 C 7.37 g/m*3 13 C 0 km/h
1621 09-05-2010 12:25:02 13.4 C 7.21 g/m*3 13.4 C 0 km/h
1622 09-05-2010 12:37:02 14 C 7.24 g/m*3 14 C 0 km/h
1623 09-05-2010 12:49:02 14.4 C 7.17 g/m*3 14.4 C 0 km/h
1624 09-05-2010 13:01:01 15 C 6.92 g/m*3 15 C 0 km/h
1625 09-05-2010 13:13:01 16.2 C 7.03 g/m*3 16.2 C 0 km/h
Sensor: Nr:Datum:Temp:Abs-Feuchte:Windchill:Wind:
Aussen-T/F 1626 09-05-2010 13:25:01 17.2 C 6.59 g/m*3 17.2 C 0 km/h
1627 09-05-2010 13:37:02 18.5 C 6.33 g/m*3 18.5 C 0 km/h
1628 09-05-2010 13:49:02 18.2 C 6.22 g/m*3 18.2 C 0 km/h
1629 09-05-2010 14:01:02 17.9 C 6.11 g/m*3 17.9 C 0 km/h
1630 09-05-2010 14:13:02 17.5 C 6.11 g/m*3 17.5 C 0 km/h
1631 09-05-2010 14:25:02 16.7 C 6.11 g/m*3 16.7 C 0 km/h
1632 09-05-2010 14:37:01 16.7 C 6.11 g/m*3 16.7 C 0 km/h
1633 09-05-2010 14:49:02 17 C 6.22 g/m*3 17 C 0 km/h
1634 09-05-2010 15:01:01 17 C 6.22 g/m*3 17 C 0 km/h
1635 09-05-2010 15:13:01 17.3 C 6.33 g/m*3 17.3 C 0 km/h
1636 09-05-2010 15:25:02 17.6 C 6.3 g/m*3 17.6 C 0 km/h
1637 09-05-2010 15:37:01 17.8 C 6.37 g/m*3 17.8 C 0 km/h
1638 09-05-2010 15:49:03 17.9 C 6.26 g/m*3 17.9 C 0 km/h
1639 09-05-2010 16:01:02 18 C 6.3 g/m*3 18 C 0 km/h
1640 09-05-2010 16:13:02 18.7 C 6.4 g/m*3 18.7 C 0 km/h
1641 09-05-2010 16:25:02 19.1 C 6.23 g/m*3 19.1 C 0 km/h
1642 09-05-2010 16:37:02 18.7 C 6.08 g/m*3 18.7 C 0 km/h
1643 09-05-2010 16:49:02 18 C 5.68 g/m*3 18 C 0 km/h
1644 09-05-2010 17:01:02 17.8 C 5.77 g/m*3 17.8 C 0 km/h
1645 09-05-2010 17:13:02 19.6 C 5.74 g/m*3 19.6 C 0 km/h
1646 09-05-2010 17:25:02 19.5 C 5.03 g/m*3 19.5 C 0 km/h
1647 09-05-2010 17:37:02 19.1 C 5.41 g/m*3 19.1 C 0 km/h
1648 09-05-2010 17:49:02 19.4 C 5.17 g/m*3 19.4 C 0 km/h
1649 09-05-2010 18:01:02 19.5 C 5.71 g/m*3 19.5 C 0 km/h
1650 09-05-2010 18:13:02 18.9 C 5.67 g/m*3 18.9 C 0 km/h
Sensor: Nr:Datum:Temp:Abs-Feuchte:Windchill:Wind:
Aussen-T/F 1651 09-05-2010 18:25:03 18.7 C 5.76 g/m*3 18.7 C 0 km/h
1652 09-05-2010 18:37:02 18.3 C 5.79 g/m*3 18.3 C 0 km/h
1653 09-05-2010 18:49:03 18.1 C 6.03 g/m*3 18.1 C 0 km/h
1654 09-05-2010 19:01:02 17.6 C 6.6 g/m*3 17.6 C 0 km/h
1655 09-05-2010 19:13:03 17 C 6.8 g/m*3 17 C 0 km/h
1656 09-05-2010 19:25:02 17 C 6.95 g/m*3 17 C 0 km/h
1657 09-05-2010 19:37:02 16.6 C 6.92 g/m*3 16.6 C 0 km/h
1658 09-05-2010 19:49:01 16.2 C 6.9 g/m*3 16.2 C 0 km/h
1659 09-05-2010 20:01:02 15.8 C 7 g/m*3 15.8 C 0 km/h
1660 09-05-2010 20:13:02 15.2 C 6.88 g/m*3 15.2 C 0 km/h
1661 09-05-2010 20:25:01 14.8 C 6.84 g/m*3 14.8 C 0 km/h
1662 09-05-2010 20:37:01 14.3 C 6.88 g/m*3 14.3 C 0 km/h
1663 09-05-2010 20:49:01 14 C 6.75 g/m*3 14 C 0 km/h
1664 09-05-2010 21:01:02 13.4 C 6.97 g/m*3 13.4 C 0 km/h
1665 09-05-2010 21:13:02 12.8 C 7.06 g/m*3 12.8 C 0 km/h
1666 09-05-2010 21:25:02 12.5 C 7.15 g/m*3 12.5 C 0 km/h
1667 09-05-2010 21:37:02 12.1 C 7.08 g/m*3 12.1 C 0 km/h
1668 09-05-2010 21:49:02 11.7 C 7.11 g/m*3 11.7 C 0 km/h
1669 09-05-2010 22:01:03 11.5 C 7.13 g/m*3 11.5 C 0 km/h
1670 09-05-2010 22:13:03 11.3 C 7.14 g/m*3 11.3 C 0 km/h
1671 09-05-2010 22:25:02 11.1 C 7.05 g/m*3 11.1 C 0 km/h
1672 09-05-2010 22:38:04 10.9 C 6.96 g/m*3 10.9 C 0 km/h
1673 09-05-2010 22:50:04 10.8 C 7.02 g/m*3 10.8 C 0 km/h
1674 09-05-2010 23:02:04 10.8 C 7.12 g/m*3 10.8 C 0 km/h
1675 09-05-2010 23:14:04 10.9 C 7.06 g/m*3 10.9 C 0 km/h
Sensor: Nr:Datum:Temp:Abs-Feuchte:Windchill:Wind:
Aussen-T/F 1676 09-05-2010 23:26:05 10.7 C 7.07 g/m*3 10.7 C 0 km/h
1677 09-05-2010 23:38:05 10.8 C 7.22 g/m*3 10.8 C 0 km/h
1678 09-05-2010 23:50:05 10.5 C 7.08 g/m*3 10.5 C 0 km/h
1679 10-05-2010 00:02:05 10.4 C 7.13 g/m*3 10.4 C 0 km/h
1680 10-05-2010 00:14:05 10.5 C 7.18 g/m*3 10.5 C 0 km/h
1681 10-05-2010 00:26:05 10.3 C 7.09 g/m*3 10.3 C 0 km/h
1682 10-05-2010 00:38:05 10.1 C 7.09 g/m*3 10.1 C 0 km/h
1683 10-05-2010 00:50:05 9.8 C 7.24 g/m*3 9.8 C 0 km/h
1684 10-05-2010 01:02:05 9.8 C 7.24 g/m*3 9.8 C 0 km/h
1685 10-05-2010 01:14:05 9.8 C 7.33 g/m*3 9.8 C 0 km/h
1686 10-05-2010 01:26:05 9.9 C 7.38 g/m*3 9.9 C 0 km/h
1687 10-05-2010 01:38:05 10 C 7.24 g/m*3 10 C 0 km/h
1688 10-05-2010 01:50:05 9.8 C 7.24 g/m*3 9.8 C 0 km/h
1689 10-05-2010 02:02:05 9.7 C 7.19 g/m*3 9.7 C 0 km/h
1690 10-05-2010 02:14:05 9.5 C 7.19 g/m*3 9.5 C 0 km/h
1691 10-05-2010 02:26:05 9.4 C 7.24 g/m*3 9.4 C 0 km/h
1692 10-05-2010 02:38:05 9.4 C 7.24 g/m*3 9.4 C 0 km/h
1693 10-05-2010 02:50:05 9.4 C 7.33 g/m*3 9.4 C 0 km/h
1694 10-05-2010 03:02:05 9.2 C 7.23 g/m*3 9.2 C 0 km/h
1695 10-05-2010 03:14:05 9 C 7.14 g/m*3 9 C 0 km/h
1696 10-05-2010 03:26:05 8.8 C 7.14 g/m*3 8.8 C 0 km/h
1697 10-05-2010 03:38:05 8.7 C 7.18 g/m*3 8.7 C 0 km/h
1698 10-05-2010 03:50:06 8.7 C 7.26 g/m*3 8.7 C 0 km/h
1699 10-05-2010 04:02:06 8.6 C 7.22 g/m*3 8.6 C 0 km/h
1700 10-05-2010 04:14:06 8.6 C 7.22 g/m*3 8.6 C 0 km/h
Sensor: Nr:Datum:Temp:Abs-Feuchte:Windchill:Wind:
Aussen-T/F 1701 10-05-2010 04:26:06 8.6 C 7.3 g/m*3 8.6 C 0 km/h
1702 10-05-2010 04:38:06 8.6 C 7.3 g/m*3 8.6 C 0 km/h
1703 10-05-2010 04:50:06 8.7 C 7.26 g/m*3 8.7 C 0 km/h
1704 10-05-2010 05:02:06 8.6 C 7.22 g/m*3 8.6 C 0 km/h
1705 10-05-2010 05:14:06 8.6 C 7.22 g/m*3 8.6 C 0 km/h
1706 10-05-2010 05:26:06 8.6 C 7.3 g/m*3 8.6 C 0 km/h
1707 10-05-2010 05:38:06 8.7 C 7.35 g/m*3 8.7 C 0 km/h
1708 10-05-2010 05:50:06 8.8 C 7.31 g/m*3 8.8 C 0 km/h
1709 10-05-2010 06:02:06 8.7 C 7.26 g/m*3 8.7 C 0 km/h
1710 10-05-2010 06:14:06 8.7 C 7.26 g/m*3 8.7 C 0 km/h
1711 10-05-2010 06:26:06 8.8 C 7.31 g/m*3 8.8 C 0 km/h
1712 10-05-2010 06:38:04 8.9 C 7.36 g/m*3 8.9 C 0 km/h
1713 10-05-2010 06:50:02 9 C 7.32 g/m*3 9 C 0 km/h
1714 10-05-2010 07:02:02 9.1 C 7.36 g/m*3 9.1 C 0 km/h
1715 10-05-2010 07:14:02 9.4 C 7.51 g/m*3 9.4 C 0 km/h
1716 10-05-2010 07:26:01 9.6 C 7.6 g/m*3 9.6 C 0 km/h
1717 10-05-2010 07:38:02 9.8 C 7.7 g/m*3 9.8 C 0 km/h
1718 10-05-2010 07:50:02 10.2 C 7.71 g/m*3 10.2 C 0 km/h
1719 10-05-2010 08:02:02 10.5 C 7.76 g/m*3 10.5 C 0 km/h
1720 10-05-2010 08:14:02 10.6 C 7.71 g/m*3 10.6 C 0 km/h
1721 10-05-2010 08:26:02 10.7 C 7.66 g/m*3 10.7 C 0 km/h
1722 10-05-2010 08:38:02 10.7 C 7.46 g/m*3 10.7 C 0 km/h
1723 10-05-2010 08:50:02 10.7 C 7.37 g/m*3 10.7 C 0 km/h
1724 10-05-2010 09:02:02 10.8 C 7.41 g/m*3 10.8 C 0 km/h
1725 10-05-2010 09:14:03 10.8 C 7.22 g/m*3 10.8 C 0 km/h
Sensor: Nr:Datum:Temp:Abs-Feuchte:Windchill:Wind:
Aussen-T/F 1726 10-05-2010 09:26:02 10.7 C 7.27 g/m*3 10.7 C 0 km/h
1727 10-05-2010 09:38:02 11 C 7.21 g/m*3 11 C 0 km/h
1728 10-05-2010 09:50:02 11.1 C 7.25 g/m*3 11.1 C 0 km/h
1729 10-05-2010 10:02:02 11.1 C 7.15 g/m*3 11.1 C 0 km/h
1730 10-05-2010 10:14:02 11.4 C 7.08 g/m*3 11.4 C 0 km/h
1731 10-05-2010 10:26:03 11.2 C 7.1 g/m*3 11.2 C 0 km/h
1732 10-05-2010 10:38:02 11.6 C 7.17 g/m*3 11.6 C 0 km/h
1733 10-05-2010 10:50:02 11.4 C 6.98 g/m*3 11.4 C 0 km/h
1734 10-05-2010 11:02:02 11.5 C 7.13 g/m*3 11.5 C 0 km/h
1735 10-05-2010 11:14:02 11.5 C 7.02 g/m*3 11.5 C 0 km/h
1736 10-05-2010 11:26:02 11.5 C 7.02 g/m*3 11.5 C 0 km/h
1737 10-05-2010 11:38:02 11.3 C 7.04 g/m*3 11.3 C 0 km/h
1738 10-05-2010 11:50:02 11.7 C 7.22 g/m*3 11.7 C 0 km/h
1739 10-05-2010 12:02:03 11.7 C 7.11 g/m*3 11.7 C 0 km/h
1740 10-05-2010 12:14:03 11.6 C 6.96 g/m*3 11.6 C 0 km/h
1741 10-05-2010 12:26:02 12.7 C 7.01 g/m*3 12.7 C 0 km/h
1742 10-05-2010 12:38:03 12.9 C 6.76 g/m*3 12.9 C 0 km/h
1743 10-05-2010 12:50:02 14.1 C 6.8 g/m*3 14.1 C 0 km/h
1744 10-05-2010 13:02:02 13.5 C 6.43 g/m*3 13.5 C 0 km/h
1745 10-05-2010 13:14:02 13.5 C 6.43 g/m*3 13.5 C 0 km/h
1746 10-05-2010 13:26:01 14.7 C 6.17 g/m*3 14.7 C 0 km/h
1747 10-05-2010 13:38:02 15.3 C 6.4 g/m*3 15.3 C 0 km/h
1748 10-05-2010 13:50:02 15.4 C 6.18 g/m*3 15.4 C 0 km/h
1749 10-05-2010 14:02:02 15.3 C 6.01 g/m*3 15.3 C 0 km/h
1750 10-05-2010 14:14:02 15.5 C 6.08 g/m*3 15.5 C 0 km/h
Sensor: Nr:Datum:Temp:Abs-Feuchte:Windchill:Wind:
Aussen-T/F 1751 10-05-2010 14:26:02 14.8 C 5.95 g/m*3 14.8 C 0 km/h
1752 10-05-2010 14:38:02 14.7 C 5.92 g/m*3 14.7 C 0 km/h
1753 10-05-2010 14:50:02 14.7 C 5.92 g/m*3 14.7 C 0 km/h
1754 10-05-2010 15:02:02 15 C 5.77 g/m*3 15 C 0 km/h
1755 10-05-2010 15:14:02 15.4 C 5.78 g/m*3 15.4 C 0 km/h
1756 10-05-2010 15:26:02 15.1 C 5.93 g/m*3 15.1 C 0 km/h
1757 10-05-2010 15:38:02 15.3 C 5.62 g/m*3 15.3 C 0 km/h
1758 10-05-2010 15:50:02 14.7 C 5.79 g/m*3 14.7 C 0 km/h
1759 10-05-2010 16:02:02 15.2 C 5.84 g/m*3 15.2 C 0 km/h
1760 10-05-2010 16:14:02 15.8 C 5.79 g/m*3 15.8 C 0 km/h
1761 10-05-2010 16:26:02 15.7 C 5.49 g/m*3 15.7 C 0 km/h
1762 10-05-2010 16:38:02 16.2 C 5.52 g/m*3 16.2 C 0 km/h
1763 10-05-2010 16:50:02 16.3 C 5.13 g/m*3 16.3 C 0 km/h
1764 10-05-2010 17:02:02 15.5 C 5.42 g/m*3 15.5 C 0 km/h
1765 10-05-2010 17:14:02 15.6 C 5.45 g/m*3 15.6 C 0 km/h
1766 10-05-2010 17:26:02 16 C 5.31 g/m*3 16 C 0 km/h
1767 10-05-2010 17:38:02 16 C 5.31 g/m*3 16 C 0 km/h
1768 10-05-2010 17:50:01 15.8 C 5.38 g/m*3 15.8 C 0 km/h
1769 10-05-2010 18:02:02 16.4 C 5.02 g/m*3 16.4 C 0 km/h
1770 10-05-2010 18:14:02 17.3 C 5.01 g/m*3 17.3 C 0 km/h
1771 10-05-2010 18:26:02 17.6 C 5.1 g/m*3 17.6 C 0 km/h
1772 10-05-2010 18:38:01 17.1 C 4.66 g/m*3 17.1 C 0 km/h
1773 10-05-2010 18:50:02 15.8 C 4.71 g/m*3 15.8 C 0 km/h
1774 10-05-2010 19:02:01 15.4 C 4.73 g/m*3 15.4 C 0 km/h
1775 10-05-2010 19:14:01 15.6 C 4.92 g/m*3 15.6 C 0 km/h
Sensor: Nr:Datum:Temp:Abs-Feuchte:Windchill:Wind:
Aussen-T/F 1776 10-05-2010 19:26:02 14.9 C 4.97 g/m*3 14.9 C 0 km/h
1777 10-05-2010 19:38:01 14.7 C 5.04 g/m*3 14.7 C 0 km/h
1778 10-05-2010 19:50:02 14.5 C 5.1 g/m*3 14.5 C 0 km/h
1779 10-05-2010 20:02:01 14.5 C 4.97 g/m*3 14.5 C 0 km/h
1780 10-05-2010 20:14:01 14.5 C 4.97 g/m*3 14.5 C 0 km/h
1781 10-05-2010 20:26:02 14.3 C 5.04 g/m*3 14.3 C 0 km/h
1782 10-05-2010 20:38:01 13.7 C 5.09 g/m*3 13.7 C 0 km/h
1783 10-05-2010 20:50:02 13.1 C 5.14 g/m*3 13.1 C 0 km/h
1784 10-05-2010 21:02:02 12.8 C 5.38 g/m*3 12.8 C 0 km/h
1785 10-05-2010 21:14:02 12.3 C 5.43 g/m*3 12.3 C 0 km/h
1786 10-05-2010 21:26:02 11.9 C 5.51 g/m*3 11.9 C 0 km/h
1787 10-05-2010 21:38:02 11.6 C 5.4 g/m*3 11.6 C 0 km/h
1788 10-05-2010 21:50:02 11.5 C 5.58 g/m*3 11.5 C 0 km/h
1789 10-05-2010 22:02:02 11.5 C 5.68 g/m*3 11.5 C 0 km/h
1790 10-05-2010 22:14:02 11.5 C 5.58 g/m*3 11.5 C 0 km/h
1791 10-05-2010 22:27:04 11.2 C 5.57 g/m*3 11.2 C 0 km/h
1792 10-05-2010 22:39:04 11.1 C 5.54 g/m*3 11.1 C 0 km/h
1793 10-05-2010 22:51:04 11.8 C 5.79 g/m*3 11.8 C 0 km/h
1794 10-05-2010 23:03:04 11.6 C 5.92 g/m*3 11.6 C 0 km/h
1795 10-05-2010 23:15:05 11.2 C 5.68 g/m*3 11.2 C 0 km/h
1796 10-05-2010 23:27:05 11.3 C 5.81 g/m*3 11.3 C 0 km/h
1797 10-05-2010 23:39:05 11.4 C 5.85 g/m*3 11.4 C 0 km/h
1798 10-05-2010 23:51:05 11.2 C 5.78 g/m*3 11.2 C 0 km/h
1799 11-05-2010 00:03:05 11 C 5.71 g/m*3 11 C 0 km/h
1800 11-05-2010 00:15:05 11.1 C 5.74 g/m*3 11.1 C 0 km/h
Sensor: Nr:Datum:Temp:Abs-Feuchte:Windchill:Wind:
Aussen-T/F 1801 11-05-2010 00:27:05 10.7 C 5.7 g/m*3 10.7 C 0 km/h
1802 11-05-2010 00:39:05 10.8 C 5.83 g/m*3 10.8 C 0 km/h
1803 11-05-2010 00:51:05 10.8 C 5.83 g/m*3 10.8 C 0 km/h
1804 11-05-2010 01:03:05 10.4 C 5.88 g/m*3 10.4 C 0 km/h
1805 11-05-2010 01:15:05 10.5 C 5.82 g/m*3 10.5 C 0 km/h
1806 11-05-2010 01:27:05 10.5 C 5.92 g/m*3 10.5 C 0 km/h
1807 11-05-2010 01:39:05 10.4 C 5.98 g/m*3 10.4 C 0 km/h
1808 11-05-2010 01:51:05 10.3 C 6.03 g/m*3 10.3 C 0 km/h
1809 11-05-2010 02:03:05 10.1 C 5.96 g/m*3 10.1 C 0 km/h
1810 11-05-2010 02:15:05 10 C 6.01 g/m*3 10 C 0 km/h
1811 11-05-2010 02:27:05 10.1 C 6.05 g/m*3 10.1 C 0 km/h
1812 11-05-2010 02:39:05 10.1 C 6.05 g/m*3 10.1 C 0 km/h
1813 11-05-2010 02:51:05 10.2 C 6.09 g/m*3 10.2 C 0 km/h
1814 11-05-2010 03:03:05 10 C 6.11 g/m*3 10 C 0 km/h
1815 11-05-2010 03:15:05 9.7 C 5.99 g/m*3 9.7 C 0 km/h
1816 11-05-2010 03:27:05 9.9 C 6.07 g/m*3 9.9 C 0 km/h
1817 11-05-2010 03:39:06 9.7 C 6.27 g/m*3 9.7 C 0 km/h
1818 11-05-2010 03:51:06 9.6 C 6.32 g/m*3 9.6 C 0 km/h
1819 11-05-2010 04:03:06 9.7 C 6.45 g/m*3 9.7 C 0 km/h
1820 11-05-2010 04:15:06 9.5 C 6.1 g/m*3 9.5 C 0 km/h
1821 11-05-2010 04:27:06 9.4 C 6.06 g/m*3 9.4 C 0 km/h
1822 11-05-2010 04:39:06 9.3 C 6.02 g/m*3 9.3 C 0 km/h
1823 11-05-2010 04:51:06 9.4 C 6.15 g/m*3 9.4 C 0 km/h
1824 11-05-2010 05:03:06 9.4 C 6.15 g/m*3 9.4 C 0 km/h
1825 11-05-2010 05:15:06 9.3 C 6.11 g/m*3 9.3 C 0 km/h
Sensor: Nr:Datum:Temp:Abs-Feuchte:Windchill:Wind:
Aussen-T/F 1826 11-05-2010 05:27:06 9.5 C 6.19 g/m*3 9.5 C 0 km/h
1827 11-05-2010 05:39:06 9.4 C 6.15 g/m*3 9.4 C 0 km/h
1828 11-05-2010 05:51:06 9.3 C 6.2 g/m*3 9.3 C 0 km/h
1829 11-05-2010 06:03:06 9.4 C 6.24 g/m*3 9.4 C 0 km/h
1830 11-05-2010 06:15:06 9.3 C 6.11 g/m*3 9.3 C 0 km/h
1831 11-05-2010 06:27:06 9.3 C 6.2 g/m*3 9.3 C 0 km/h
1832 11-05-2010 06:39:06 9.1 C 6.12 g/m*3 9.1 C 0 km/h
1833 11-05-2010 06:51:02 9.1 C 6.12 g/m*3 9.1 C 0 km/h
1834 11-05-2010 07:03:01 9.3 C 6.29 g/m*3 9.3 C 0 km/h
1835 11-05-2010 07:15:02 9.5 C 6.37 g/m*3 9.5 C 0 km/h
1836 11-05-2010 07:27:02 9.6 C 6.32 g/m*3 9.6 C 0 km/h
1837 11-05-2010 07:39:02 9.7 C 6.27 g/m*3 9.7 C 0 km/h
1838 11-05-2010 07:51:01 9.9 C 6.35 g/m*3 9.9 C 0 km/h
1839 11-05-2010 08:03:02 10.1 C 6.24 g/m*3 10.1 C 0 km/h
1840 11-05-2010 08:15:01 10.5 C 6.3 g/m*3 10.5 C 0 km/h
1841 11-05-2010 08:27:01 10.7 C 6.19 g/m*3 10.7 C 0 km/h
1842 11-05-2010 08:39:01 11.2 C 6.28 g/m*3 11.2 C 0 km/h
1843 11-05-2010 08:51:01 12 C 6.29 g/m*3 12 C 0 km/h
1844 11-05-2010 09:03:02 11.7 C 6.07 g/m*3 11.7 C 0 km/h
1845 11-05-2010 09:15:01 11.7 C 6.07 g/m*3 11.7 C 0 km/h
1846 11-05-2010 09:27:01 11.9 C 6.14 g/m*3 11.9 C 0 km/h
1847 11-05-2010 09:39:02 12.8 C 6.05 g/m*3 12.8 C 0 km/h
1848 11-05-2010 09:51:01 12.7 C 5.79 g/m*3 12.7 C 0 km/h
1849 11-05-2010 10:03:02 12.8 C 6.16 g/m*3 12.8 C 0 km/h
1850 11-05-2010 10:15:02 13 C 6.01 g/m*3 13 C 0 km/h
Sensor: Nr:Datum:Temp:Abs-Feuchte:Windchill:Wind:
Aussen-T/F 1851 11-05-2010 10:27:02 13 C 5.9 g/m*3 13 C 0 km/h
1852 11-05-2010 10:39:01 12.3 C 5.97 g/m*3 12.3 C 0 km/h
1853 11-05-2010 10:51:01 11.8 C 6.21 g/m*3 11.8 C 0 km/h
1854 11-05-2010 11:03:01 12 C 6.07 g/m*3 12 C 0 km/h
1855 11-05-2010 11:15:02 12 C 6.07 g/m*3 12 C 0 km/h
1856 11-05-2010 11:27:02 12 C 6.18 g/m*3 12 C 0 km/h
1857 11-05-2010 11:39:02 12.5 C 6.38 g/m*3 12.5 C 0 km/h
1858 11-05-2010 11:51:02 14.1 C 6.19 g/m*3 14.1 C 0 km/h
1859 11-05-2010 12:03:02 14.1 C 5.95 g/m*3 14.1 C 0 km/h
1860 11-05-2010 12:15:02 13.7 C 6.28 g/m*3 13.7 C 0 km/h
1861 11-05-2010 12:27:02 14.8 C 6.33 g/m*3 14.8 C 0 km/h
1862 11-05-2010 12:39:01 14.1 C 5.95 g/m*3 14.1 C 0 km/h
1863 11-05-2010 12:51:02 14.3 C 6.27 g/m*3 14.3 C 0 km/h
1864 11-05-2010 13:03:01 13.4 C 6.16 g/m*3 13.4 C 0 km/h
1865 11-05-2010 13:15:01 13.7 C 6.39 g/m*3 13.7 C 0 km/h
1866 11-05-2010 13:27:01 14.2 C 6.23 g/m*3 14.2 C 0 km/h
1867 11-05-2010 13:39:01 14.1 C 6.19 g/m*3 14.1 C 0 km/h
1868 11-05-2010 13:51:02 13.3 C 6.35 g/m*3 13.3 C 0 km/h
1869 11-05-2010 14:03:01 14.1 C 6.43 g/m*3 14.1 C 0 km/h
1870 11-05-2010 14:15:01 14 C 6.27 g/m*3 14 C 0 km/h
1871 11-05-2010 14:27:01 14.1 C 6.43 g/m*3 14.1 C 0 km/h
1872 11-05-2010 14:39:02 14 C 6.39 g/m*3 14 C 0 km/h
1873 11-05-2010 14:51:02 14 C 6.51 g/m*3 14 C 0 km/h
1874 11-05-2010 15:03:02 14.4 C 6.55 g/m*3 14.4 C 0 km/h
1875 11-05-2010 15:15:02 14.1 C 6.31 g/m*3 14.1 C 0 km/h
Sensor: Nr:Datum:Temp:Abs-Feuchte:Windchill:Wind:
Aussen-T/F 1876 11-05-2010 15:27:02 14.7 C 6.55 g/m*3 14.7 C 0 km/h
1877 11-05-2010 15:39:02 14.5 C 6.34 g/m*3 14.5 C 0 km/h
1878 11-05-2010 15:51:02 14.3 C 6.39 g/m*3 14.3 C 0 km/h
1879 11-05-2010 16:03:03 14.3 C 6.51 g/m*3 14.3 C 0 km/h
1880 11-05-2010 16:15:02 14.8 C 6.71 g/m*3 14.8 C 0 km/h
1881 11-05-2010 16:27:02 15.6 C 6.65 g/m*3 15.6 C 0 km/h
1882 11-05-2010 16:39:03 15.9 C 6.5 g/m*3 15.9 C 0 km/h
1883 11-05-2010 16:51:01 15.6 C 6.52 g/m*3 15.6 C 0 km/h
1884 11-05-2010 17:03:02 14.9 C 6.75 g/m*3 14.9 C 0 km/h
1885 11-05-2010 17:15:01 15.1 C 6.58 g/m*3 15.1 C 0 km/h
1886 11-05-2010 17:27:01 14.7 C 6.8 g/m*3 14.7 C 0 km/h
1887 11-05-2010 17:39:02 14.8 C 6.71 g/m*3 14.8 C 0 km/h
1888 11-05-2010 17:51:01 14.7 C 6.8 g/m*3 14.7 C 0 km/h
1889 11-05-2010 18:03:02 14.5 C 6.96 g/m*3 14.5 C 0 km/h
1890 11-05-2010 18:15:02 13.9 C 7.07 g/m*3 13.9 C 0 km/h
1891 11-05-2010 18:27:02 12.5 C 7.48 g/m*3 12.5 C 0 km/h
1892 11-05-2010 18:39:02 11.9 C 8.05 g/m*3 11.9 C 0 km/h
1893 11-05-2010 18:51:01 11.6 C 8.21 g/m*3 11.6 C 0 km/h
1894 11-05-2010 19:03:02 11.3 C 8.16 g/m*3 11.3 C 0 km/h
1895 11-05-2010 19:15:02 11.1 C 8.36 g/m*3 11.1 C 0 km/h
1896 11-05-2010 19:27:02 10.9 C 8.36 g/m*3 10.9 C 0 km/h
1897 11-05-2010 19:39:02 10.8 C 8.3 g/m*3 10.8 C 0 km/h
1898 11-05-2010 19:51:01 10.6 C 8.39 g/m*3 10.6 C 0 km/h
1899 11-05-2010 20:03:02 10.5 C 8.44 g/m*3 10.5 C 0 km/h
1900 11-05-2010 20:15:02 10.2 C 8.37 g/m*3 10.2 C 0 km/h
Sensor: Nr:Datum:Temp:Abs-Feuchte:Windchill:Wind:
Aussen-T/F 1901 11-05-2010 20:27:02 10.1 C 8.42 g/m*3 10.1 C 0 km/h
1902 11-05-2010 20:39:02 10 C 8.46 g/m*3 10 C 0 km/h
1903 11-05-2010 20:51:02 9.8 C 8.54 g/m*3 9.8 C 0 km/h
1904 11-05-2010 21:03:01 9.8 C 8.54 g/m*3 9.8 C 0 km/h
1905 11-05-2010 21:15:02 9.9 C 8.59 g/m*3 9.9 C 0 km/h
1906 11-05-2010 21:27:03 10 C 8.64 g/m*3 10 C 0 km/h
1907 11-05-2010 21:39:01 9.8 C 8.63 g/m*3 9.8 C 0 km/h
1908 11-05-2010 21:51:02 9.8 C 8.63 g/m*3 9.8 C 0 km/h
1909 11-05-2010 22:03:02 9.7 C 8.57 g/m*3 9.7 C 0 km/h
1910 11-05-2010 22:15:01 9.6 C 8.52 g/m*3 9.6 C 0 km/h
1911 11-05-2010 22:27:01 9.8 C 8.72 g/m*3 9.8 C 0 km/h
1912 11-05-2010 22:40:03 9.6 C 8.61 g/m*3 9.6 C 0 km/h
1913 11-05-2010 22:52:03 9.7 C 8.67 g/m*3 9.7 C 0 km/h
1914 11-05-2010 23:04:03 9.8 C 8.72 g/m*3 9.8 C 0 km/h
1915 11-05-2010 23:16:03 9.8 C 8.72 g/m*3 9.8 C 0 km/h
1916 11-05-2010 23:28:03 9.8 C 8.72 g/m*3 9.8 C 0 km/h
1917 11-05-2010 23:40:03 9.9 C 8.78 g/m*3 9.9 C 0 km/h
1918 11-05-2010 23:52:03 9.7 C 8.67 g/m*3 9.7 C 0 km/h
1919 12-05-2010 00:04:03 9.7 C 8.67 g/m*3 9.7 C 0 km/h
1920 12-05-2010 00:16:03 9.6 C 8.61 g/m*3 9.6 C 0 km/h
1921 12-05-2010 00:28:03 9.1 C 8.34 g/m*3 9.1 C 0 km/h
1922 12-05-2010 00:40:03 9.1 C 8.34 g/m*3 9.1 C 0 km/h
1923 12-05-2010 00:52:03 9.1 C 8.34 g/m*3 9.1 C 0 km/h
1924 12-05-2010 01:04:03 9.1 C 8.34 g/m*3 9.1 C 0 km/h
1925 12-05-2010 01:16:03 8.8 C 8.27 g/m*3 8.8 C 0 km/h
Sensor: Nr:Datum:Temp:Abs-Feuchte:Windchill:Wind:
Aussen-T/F 1926 12-05-2010 01:28:04 8.5 C 8.03 g/m*3 8.5 C 0 km/h
1927 12-05-2010 01:40:04 8.4 C 7.97 g/m*3 8.4 C 0 km/h
1928 12-05-2010 01:52:04 7.8 C 7.75 g/m*3 7.8 C 0 km/h
1929 12-05-2010 02:04:04 7.5 C 7.52 g/m*3 7.5 C 0 km/h
1930 12-05-2010 02:16:04 7.8 C 7.75 g/m*3 7.8 C 0 km/h
1931 12-05-2010 02:28:04 7.9 C 7.8 g/m*3 7.9 C 0 km/h
1932 12-05-2010 02:40:04 7.9 C 7.8 g/m*3 7.9 C 0 km/h
1933 12-05-2010 02:52:04 7.5 C 7.6 g/m*3 7.5 C 0 km/h
1934 12-05-2010 03:04:04 7.3 C 7.43 g/m*3 7.3 C 0 km/h
1935 12-05-2010 03:16:04 7.2 C 7.38 g/m*3 7.2 C 0 km/h
1936 12-05-2010 03:28:04 7.1 C 7.33 g/m*3 7.1 C 0 km/h
1937 12-05-2010 03:40:04 7 C 7.28 g/m*3 7 C 0 km/h
1938 12-05-2010 03:52:04 7 C 7.21 g/m*3 7 C 0 km/h
1939 12-05-2010 04:04:04 6.9 C 7.16 g/m*3 6.9 C 0 km/h
1940 12-05-2010 04:16:04 6.9 C 7.08 g/m*3 6.9 C 0 km/h
1941 12-05-2010 04:28:04 6.9 C 7.01 g/m*3 6.9 C 0 km/h
1942 12-05-2010 04:40:04 6.9 C 6.93 g/m*3 6.9 C 0 km/h
1943 12-05-2010 04:52:04 6.8 C 6.81 g/m*3 6.8 C 0 km/h
1944 12-05-2010 05:04:04 6.8 C 6.73 g/m*3 6.8 C 0 km/h
1945 12-05-2010 05:16:04 6.8 C 6.65 g/m*3 6.8 C 0 km/h
1946 12-05-2010 05:28:04 6.8 C 6.65 g/m*3 6.8 C 0 km/h
1947 12-05-2010 05:40:05 6.8 C 6.65 g/m*3 6.8 C 0 km/h
1948 12-05-2010 05:52:05 6.8 C 6.65 g/m*3 6.8 C 0 km/h
1949 12-05-2010 06:04:05 6.7 C 6.61 g/m*3 6.7 C 0 km/h
1950 12-05-2010 06:16:05 6.8 C 6.58 g/m*3 6.8 C 0 km/h
Sensor: Nr:Datum:Temp:Abs-Feuchte:Windchill:Wind:
Aussen-T/F 1951 12-05-2010 06:28:05 6.8 C 6.5 g/m*3 6.8 C 0 km/h
1952 12-05-2010 06:40:05 6.8 C 6.58 g/m*3 6.8 C 0 km/h
1953 12-05-2010 06:52:05 6.8 C 6.58 g/m*3 6.8 C 0 km/h
1954 12-05-2010 07:04:03 6.9 C 6.54 g/m*3 6.9 C 0 km/h
1955 12-05-2010 07:16:03 7 C 6.59 g/m*3 7 C 0 km/h
1956 12-05-2010 07:28:03 7.1 C 6.71 g/m*3 7.1 C 0 km/h
1957 12-05-2010 07:40:03 7.2 C 6.67 g/m*3 7.2 C 0 km/h
1958 12-05-2010 07:52:02 7.2 C 6.59 g/m*3 7.2 C 0 km/h
1959 12-05-2010 08:04:02 7.3 C 6.56 g/m*3 7.3 C 0 km/h
1960 12-05-2010 08:16:02 7.6 C 6.69 g/m*3 7.6 C 0 km/h
1961 12-05-2010 08:28:02 7.7 C 6.57 g/m*3 7.7 C 0 km/h
1962 12-05-2010 08:40:02 7.8 C 6.45 g/m*3 7.8 C 0 km/h
1963 12-05-2010 08:52:01 7.8 C 6.45 g/m*3 7.8 C 0 km/h
1964 12-05-2010 09:04:02 8 C 6.37 g/m*3 8 C 0 km/h
1965 12-05-2010 09:16:01 8.3 C 6.41 g/m*3 8.3 C 0 km/h
1966 12-05-2010 09:28:01 8.4 C 6.19 g/m*3 8.4 C 0 km/h
1967 12-05-2010 09:40:01 8.3 C 6.07 g/m*3 8.3 C 0 km/h
1968 12-05-2010 09:52:01 8.4 C 6.11 g/m*3 8.4 C 0 km/h
1969 12-05-2010 10:04:02 8.4 C 6.02 g/m*3 8.4 C 0 km/h
1970 12-05-2010 10:16:01 8.6 C 6.1 g/m*3 8.6 C 0 km/h
1971 12-05-2010 10:28:01 8.6 C 6.02 g/m*3 8.6 C 0 km/h
1972 12-05-2010 10:40:01 8.7 C 5.97 g/m*3 8.7 C 0 km/h
1973 12-05-2010 10:52:01 8.7 C 5.79 g/m*3 8.7 C 0 km/h
1974 12-05-2010 11:04:01 8.7 C 5.79 g/m*3 8.7 C 0 km/h
1975 12-05-2010 11:16:02 8.9 C 5.87 g/m*3 8.9 C 0 km/h
Sensor: Nr:Datum:Temp:Abs-Feuchte:Windchill:Wind:
Aussen-T/F 1976 12-05-2010 11:28:02 8.9 C 5.61 g/m*3 8.9 C 0 km/h
1977 12-05-2010 11:40:01 9.3 C 5.57 g/m*3 9.3 C 0 km/h
1978 12-05-2010 11:52:01 10.1 C 5.67 g/m*3 10.1 C 0 km/h
1979 12-05-2010 12:04:01 10 C 5.54 g/m*3 10 C 0 km/h
1980 12-05-2010 12:16:02 9.7 C 5.35 g/m*3 9.7 C 0 km/h
1981 12-05-2010 12:28:02 9.9 C 5.51 g/m*3 9.9 C 0 km/h
1982 12-05-2010 12:40:01 10.5 C 5.33 g/m*3 10.5 C 0 km/h
1983 12-05-2010 12:52:03 10.2 C 5.42 g/m*3 10.2 C 0 km/h
1984 12-05-2010 13:04:02 10.5 C 5.43 g/m*3 10.5 C 0 km/h
1985 12-05-2010 13:16:02 11.1 C 5.34 g/m*3 11.1 C 0 km/h
1986 12-05-2010 13:28:02 10.7 C 5.3 g/m*3 10.7 C 0 km/h
1987 12-05-2010 13:40:02 10.4 C 5.2 g/m*3 10.4 C 0 km/h
1988 12-05-2010 13:52:02 10.7 C 5.21 g/m*3 10.7 C 0 km/h
1989 12-05-2010 14:04:02 10.2 C 5.23 g/m*3 10.2 C 0 km/h
1990 12-05-2010 14:16:02 10.2 C 5.23 g/m*3 10.2 C 0 km/h
1991 12-05-2010 14:28:02 10.6 C 5.17 g/m*3 10.6 C 0 km/h
1992 12-05-2010 14:40:01 10.9 C 5.17 g/m*3 10.9 C 0 km/h
1993 12-05-2010 14:52:02 10.7 C 4.81 g/m*3 10.7 C 0 km/h
1994 12-05-2010 15:04:01 11.1 C 5.14 g/m*3 11.1 C 0 km/h
1995 12-05-2010 15:16:02 10.8 C 4.94 g/m*3 10.8 C 0 km/h
1996 12-05-2010 15:28:02 10.8 C 4.84 g/m*3 10.8 C 0 km/h
1997 12-05-2010 15:40:02 10.8 C 5.04 g/m*3 10.8 C 0 km/h
1998 12-05-2010 15:52:02 10.7 C 5.11 g/m*3 10.7 C 0 km/h
1999 12-05-2010 16:04:02 10.8 C 5.24 g/m*3 10.8 C 0 km/h
2000 12-05-2010 16:16:02 10.9 C 5.17 g/m*3 10.9 C 0 km/h
Sensor: Nr:Datum:Temp:Abs-Feuchte:Windchill:Wind:
Aussen-T/F 2001 12-05-2010 16:28:02 10.7 C 5.3 g/m*3 10.7 C 0 km/h
2002 12-05-2010 16:40:02 10.3 C 5.17 g/m*3 10.3 C 0 km/h
2003 12-05-2010 16:52:01 9.9 C 5.32 g/m*3 9.9 C 0 km/h
2004 12-05-2010 17:04:02 9.6 C 5.22 g/m*3 9.6 C 0 km/h
2005 12-05-2010 17:16:01 9.7 C 5.35 g/m*3 9.7 C 0 km/h
2006 12-05-2010 17:28:01 9.9 C 5.32 g/m*3 9.9 C 0 km/h
2007 12-05-2010 17:40:02 9.9 C 5.32 g/m*3 9.9 C 0 km/h
2008 12-05-2010 17:52:02 9.6 C 5.22 g/m*3 9.6 C 0 km/h
2009 12-05-2010 18:04:02 9.6 C 5.4 g/m*3 9.6 C 0 km/h
2010 12-05-2010 18:16:01 9.3 C 5.39 g/m*3 9.3 C 0 km/h
2011 12-05-2010 18:28:01 9.1 C 5.41 g/m*3 9.1 C 0 km/h
2012 12-05-2010 18:40:02 9.1 C 5.5 g/m*3 9.1 C 0 km/h
2013 12-05-2010 18:52:02 9 C 5.55 g/m*3 9 C 0 km/h
2014 12-05-2010 19:04:02 9 C 5.64 g/m*3 9 C 0 km/h
2015 12-05-2010 19:16:01 8.8 C 5.66 g/m*3 8.8 C 0 km/h
2016 12-05-2010 19:28:01 9 C 5.73 g/m*3 9 C 0 km/h
2017 12-05-2010 19:40:02 9 C 5.73 g/m*3 9 C 0 km/h
2018 12-05-2010 19:52:02 8.7 C 5.71 g/m*3 8.7 C 0 km/h
2019 12-05-2010 20:04:02 8.6 C 5.76 g/m*3 8.6 C 0 km/h
2020 12-05-2010 20:16:02 8.6 C 5.84 g/m*3 8.6 C 0 km/h
2021 12-05-2010 20:28:02 8.6 C 5.84 g/m*3 8.6 C 0 km/h
2022 12-05-2010 20:40:02 8.5 C 5.81 g/m*3 8.5 C 0 km/h
2023 12-05-2010 20:52:02 8.5 C 5.98 g/m*3 8.5 C 0 km/h
2024 12-05-2010 21:04:02 8.5 C 5.89 g/m*3 8.5 C 0 km/h
2025 12-05-2010 21:16:02 8.4 C 5.94 g/m*3 8.4 C 0 km/h
Sensor: Nr:Datum:Temp:Abs-Feuchte:Windchill:Wind:
Aussen-T/F 2026 12-05-2010 21:28:02 8.5 C 6.06 g/m*3 8.5 C 0 km/h
2027 12-05-2010 21:40:01 8.5 C 6.06 g/m*3 8.5 C 0 km/h
2028 12-05-2010 21:52:02 8.3 C 6.07 g/m*3 8.3 C 0 km/h
2029 12-05-2010 22:04:01 8 C 6.2 g/m*3 8 C 0 km/h
2030 12-05-2010 22:17:03 8 C 6.37 g/m*3 8 C 0 km/h
2031 12-05-2010 22:29:03 7.6 C 6.36 g/m*3 7.6 C 0 km/h
2032 12-05-2010 22:41:03 7.5 C 6.48 g/m*3 7.5 C 0 km/h
2033 12-05-2010 22:53:03 7.7 C 6.65 g/m*3 7.7 C 0 km/h
2034 12-05-2010 23:05:03 7.8 C 6.69 g/m*3 7.8 C 0 km/h
2035 12-05-2010 23:17:03 7.8 C 6.69 g/m*3 7.8 C 0 km/h
2036 12-05-2010 23:29:03 7.8 C 6.69 g/m*3 7.8 C 0 km/h
2037 12-05-2010 23:41:04 7.9 C 6.74 g/m*3 7.9 C 0 km/h
2038 12-05-2010 23:53:04 7.7 C 6.57 g/m*3 7.7 C 0 km/h
2039 13-05-2010 00:05:04 7.7 C 6.57 g/m*3 7.7 C 0 km/h
2040 13-05-2010 00:17:04 7.6 C 6.53 g/m*3 7.6 C 0 km/h
2041 13-05-2010 00:29:04 7.5 C 6.4 g/m*3 7.5 C 0 km/h
2042 13-05-2010 00:41:04 7.6 C 6.44 g/m*3 7.6 C 0 km/h
2043 13-05-2010 00:53:04 7.5 C 6.4 g/m*3 7.5 C 0 km/h
2044 13-05-2010 01:05:04 7.4 C 6.36 g/m*3 7.4 C 0 km/h
2045 13-05-2010 01:17:04 7.3 C 6.48 g/m*3 7.3 C 0 km/h
2046 13-05-2010 01:29:04 7.3 C 6.48 g/m*3 7.3 C 0 km/h
2047 13-05-2010 01:41:04 7.3 C 6.56 g/m*3 7.3 C 0 km/h
2048 13-05-2010 01:53:04 7.4 C 6.68 g/m*3 7.4 C 0 km/h
2049 13-05-2010 02:05:04 7.5 C 6.72 g/m*3 7.5 C 0 km/h
2050 13-05-2010 02:17:04 7.4 C 6.6 g/m*3 7.4 C 0 km/h
Sensor: Nr:Datum:Temp:Abs-Feuchte:Windchill:Wind:
Aussen-T/F 2051 13-05-2010 02:29:04 7.4 C 6.52 g/m*3 7.4 C 0 km/h
2052 13-05-2010 02:41:04 7.4 C 6.52 g/m*3 7.4 C 0 km/h
2053 13-05-2010 02:53:04 7.4 C 6.52 g/m*3 7.4 C 0 km/h
2054 13-05-2010 03:05:04 7.4 C 6.52 g/m*3 7.4 C 0 km/h
2055 13-05-2010 03:17:04 7.4 C 6.52 g/m*3 7.4 C 0 km/h
2056 13-05-2010 03:29:04 7.3 C 6.48 g/m*3 7.3 C 0 km/h
2057 13-05-2010 03:41:05 7.3 C 6.56 g/m*3 7.3 C 0 km/h
2058 13-05-2010 03:53:05 7.1 C 6.47 g/m*3 7.1 C 0 km/h
2059 13-05-2010 04:05:05 6.9 C 6.54 g/m*3 6.9 C 0 km/h
2060 13-05-2010 04:17:05 7 C 6.51 g/m*3 7 C 0 km/h
2061 13-05-2010 04:29:05 7.1 C 6.63 g/m*3 7.1 C 0 km/h
2062 13-05-2010 04:41:05 7.1 C 6.63 g/m*3 7.1 C 0 km/h
2063 13-05-2010 04:53:05 6.9 C 6.62 g/m*3 6.9 C 0 km/h
2064 13-05-2010 05:05:05 6.9 C 6.7 g/m*3 6.9 C 0 km/h
2065 13-05-2010 05:17:05 6.8 C 6.65 g/m*3 6.8 C 0 km/h
2066 13-05-2010 05:29:05 6.8 C 6.65 g/m*3 6.8 C 0 km/h
2067 13-05-2010 05:41:05 6.7 C 6.61 g/m*3 6.7 C 0 km/h
2068 13-05-2010 05:53:05 6.6 C 6.64 g/m*3 6.6 C 0 km/h
2069 13-05-2010 06:05:05 6.6 C 6.64 g/m*3 6.6 C 0 km/h
2070 13-05-2010 06:17:05 6.7 C 6.69 g/m*3 6.7 C 0 km/h
2071 13-05-2010 06:29:05 6.7 C 6.69 g/m*3 6.7 C 0 km/h
2072 13-05-2010 06:41:05 6.6 C 6.64 g/m*3 6.6 C 0 km/h
2073 13-05-2010 06:53:05 6.6 C 6.64 g/m*3 6.6 C 0 km/h
2074 13-05-2010 07:05:05 6.7 C 6.76 g/m*3 6.7 C 0 km/h
2075 13-05-2010 07:17:05 6.7 C 6.76 g/m*3 6.7 C 0 km/h
Sensor: Nr:Datum:Temp:Abs-Feuchte:Windchill:Wind:
Aussen-T/F 2076 13-05-2010 07:29:05 6.9 C 6.77 g/m*3 6.9 C 0 km/h
2077 13-05-2010 07:41:05 6.9 C 6.7 g/m*3 6.9 C 0 km/h
2078 13-05-2010 07:53:01 6.8 C 6.5 g/m*3 6.8 C 0 km/h
2079 13-05-2010 08:05:01 6.8 C 6.42 g/m*3 6.8 C 0 km/h
2080 13-05-2010 08:17:02 6.8 C 6.35 g/m*3 6.8 C 0 km/h
2081 13-05-2010 08:29:02 6.9 C 6.31 g/m*3 6.9 C 0 km/h
2082 13-05-2010 08:41:01 7 C 6.12 g/m*3 7 C 0 km/h
2083 13-05-2010 08:53:02 7.2 C 6.12 g/m*3 7.2 C 0 km/h
2084 13-05-2010 09:05:01 7.5 C 6.24 g/m*3 7.5 C 0 km/h
2085 13-05-2010 09:17:01 7.8 C 6.2 g/m*3 7.8 C 0 km/h
2086 13-05-2010 09:29:01 7.9 C 6 g/m*3 7.9 C 0 km/h
2087 13-05-2010 09:41:01 8.2 C 5.86 g/m*3 8.2 C 0 km/h
2088 13-05-2010 09:53:02 8.3 C 5.65 g/m*3 8.3 C 0 km/h
2089 13-05-2010 10:05:01 8.9 C 5.69 g/m*3 8.9 C 0 km/h
2090 13-05-2010 10:17:02 9.1 C 5.41 g/m*3 9.1 C 0 km/h
2091 13-05-2010 10:29:02 9.7 C 5.62 g/m*3 9.7 C 0 km/h
2092 13-05-2010 10:41:02 9.7 C 5.16 g/m*3 9.7 C 0 km/h
2093 13-05-2010 10:53:01 9.9 C 5.23 g/m*3 9.9 C 0 km/h
2094 13-05-2010 11:05:02 10.2 C 5.23 g/m*3 10.2 C 0 km/h
2095 13-05-2010 11:17:01 10 C 4.98 g/m*3 10 C 0 km/h
2096 13-05-2010 11:29:01 10.1 C 4.92 g/m*3 10.1 C 0 km/h
2097 13-05-2010 11:41:02 9.5 C 5.01 g/m*3 9.5 C 0 km/h
2098 13-05-2010 11:53:02 9.7 C 5.16 g/m*3 9.7 C 0 km/h
2099 13-05-2010 12:05:02 9.7 C 4.89 g/m*3 9.7 C 0 km/h
2100 13-05-2010 12:17:01 9.5 C 4.92 g/m*3 9.5 C 0 km/h
Sensor: Nr:Datum:Temp:Abs-Feuchte:Windchill:Wind:
Aussen-T/F 2101 13-05-2010 12:29:01 10.2 C 4.95 g/m*3 10.2 C 0 km/h
2102 13-05-2010 12:41:02 10.1 C 4.63 g/m*3 10.1 C 0 km/h
2103 13-05-2010 12:53:02 10.8 C 4.84 g/m*3 10.8 C 0 km/h
2104 13-05-2010 13:05:02 11 C 4.8 g/m*3 11 C 0 km/h
2105 13-05-2010 13:17:01 10.1 C 4.92 g/m*3 10.1 C 0 km/h
2106 13-05-2010 13:29:01 9.3 C 4.94 g/m*3 9.3 C 0 km/h
2107 13-05-2010 13:41:02 8.9 C 5.08 g/m*3 8.9 C 0 km/h
2108 13-05-2010 13:53:02 9.4 C 5.16 g/m*3 9.4 C 0 km/h
2109 13-05-2010 14:05:02 10 C 5.17 g/m*3 10 C 0 km/h
2110 13-05-2010 14:17:02 10.5 C 5.14 g/m*3 10.5 C 0 km/h
2111 13-05-2010 14:29:02 10.9 C 5.07 g/m*3 10.9 C 0 km/h
2112 13-05-2010 14:41:02 10.6 C 4.78 g/m*3 10.6 C 0 km/h
2113 13-05-2010 14:53:01 11 C 4.9 g/m*3 11 C 0 km/h
2114 13-05-2010 15:05:02 11 C 4.8 g/m*3 11 C 0 km/h
2115 13-05-2010 15:17:02 10.5 C 4.85 g/m*3 10.5 C 0 km/h
2116 13-05-2010 15:29:02 10 C 4.79 g/m*3 10 C 0 km/h
2117 13-05-2010 15:41:02 9.8 C 5.1 g/m*3 9.8 C 0 km/h
2118 13-05-2010 15:53:02 9.2 C 5.36 g/m*3 9.2 C 0 km/h
2119 13-05-2010 16:05:01 8.7 C 5.53 g/m*3 8.7 C 0 km/h
2120 13-05-2010 16:17:02 8.5 C 5.81 g/m*3 8.5 C 0 km/h
2121 13-05-2010 16:29:02 8.6 C 6.02 g/m*3 8.6 C 0 km/h
2122 13-05-2010 16:41:01 8.6 C 6.19 g/m*3 8.6 C 0 km/h
2123 13-05-2010 16:53:02 8.9 C 6.57 g/m*3 8.9 C 0 km/h
2124 13-05-2010 17:05:01 8.4 C 6.19 g/m*3 8.4 C 0 km/h
2125 13-05-2010 17:17:02 8.2 C 6.28 g/m*3 8.2 C 0 km/h
Sensor: Nr:Datum:Temp:Abs-Feuchte:Windchill:Wind:
Aussen-T/F 2126 13-05-2010 17:29:03 8.2 C 6.36 g/m*3 8.2 C 0 km/h
2127 13-05-2010 17:41:01 8.2 C 6.53 g/m*3 8.2 C 0 km/h
2128 13-05-2010 17:53:02 8.1 C 6.49 g/m*3 8.1 C 0 km/h
2129 13-05-2010 18:05:02 8.3 C 6.66 g/m*3 8.3 C 0 km/h
2130 13-05-2010 18:17:02 9 C 7.05 g/m*3 9 C 0 km/h
2131 13-05-2010 18:29:02 8.9 C 7.1 g/m*3 8.9 C 0 km/h
2132 13-05-2010 18:41:02 8.7 C 7.01 g/m*3 8.7 C 0 km/h
2133 13-05-2010 18:53:02 7.9 C 6.74 g/m*3 7.9 C 0 km/h
2134 13-05-2010 19:05:02 7.7 C 6.81 g/m*3 7.7 C 0 km/h
2135 13-05-2010 19:17:01 7.5 C 6.8 g/m*3 7.5 C 0 km/h
2136 13-05-2010 19:29:01 7.3 C 6.72 g/m*3 7.3 C 0 km/h
2137 13-05-2010 19:41:02 7.3 C 6.79 g/m*3 7.3 C 0 km/h
2138 13-05-2010 19:53:02 7.2 C 6.75 g/m*3 7.2 C 0 km/h
2139 13-05-2010 20:05:02 7.3 C 6.87 g/m*3 7.3 C 0 km/h
2140 13-05-2010 20:17:02 7.4 C 6.92 g/m*3 7.4 C 0 km/h
2141 13-05-2010 20:29:02 7.4 C 7 g/m*3 7.4 C 0 km/h
2142 13-05-2010 20:41:02 7.5 C 7.04 g/m*3 7.5 C 0 km/h
2143 13-05-2010 20:53:01 7.6 C 7.09 g/m*3 7.6 C 0 km/h
2144 13-05-2010 21:05:02 7.5 C 7.12 g/m*3 7.5 C 0 km/h
2145 13-05-2010 21:17:01 7.5 C 7.12 g/m*3 7.5 C 0 km/h
2146 13-05-2010 21:29:01 7.4 C 7.08 g/m*3 7.4 C 0 km/h
2147 13-05-2010 21:41:01 7.4 C 7.08 g/m*3 7.4 C 0 km/h
2148 13-05-2010 21:53:01 7.4 C 7.16 g/m*3 7.4 C 0 km/h
2149 13-05-2010 22:05:02 7.4 C 7.16 g/m*3 7.4 C 0 km/h
2150 13-05-2010 22:17:01 7.4 C 7.16 g/m*3 7.4 C 0 km/h
Sensor: Nr:Datum:Temp:Abs-Feuchte:Windchill:Wind:
Aussen-T/F 2151 13-05-2010 22:29:01 7.3 C 7.11 g/m*3 7.3 C 0 km/h
2152 13-05-2010 22:41:02 7.2 C 7.06 g/m*3 7.2 C 0 km/h
2153 13-05-2010 22:54:02 7.2 C 7.06 g/m*3 7.2 C 0 km/h
2154 13-05-2010 23:06:02 7.2 C 7.06 g/m*3 7.2 C 0 km/h
2155 13-05-2010 23:18:03 7.3 C 7.11 g/m*3 7.3 C 0 km/h
2156 13-05-2010 23:30:03 7.3 C 7.19 g/m*3 7.3 C 0 km/h
2157 13-05-2010 23:42:03 7.2 C 7.14 g/m*3 7.2 C 0 km/h
2158 13-05-2010 23:54:03 7.2 C 7.14 g/m*3 7.2 C 0 km/h
2159 14-05-2010 00:06:03 7 C 7.05 g/m*3 7 C 0 km/h
2160 14-05-2010 00:18:03 6.9 C 7.16 g/m*3 6.9 C 0 km/h
2161 14-05-2010 00:30:03 6.9 C 7.16 g/m*3 6.9 C 0 km/h
2162 14-05-2010 00:42:03 7 C 7.21 g/m*3 7 C 0 km/h
2163 14-05-2010 00:54:03 7 C 7.21 g/m*3 7 C 0 km/h
2164 14-05-2010 01:06:03 6.9 C 7.24 g/m*3 6.9 C 0 km/h
2165 14-05-2010 01:18:03 7 C 7.21 g/m*3 7 C 0 km/h
2166 14-05-2010 01:30:03 7.1 C 7.25 g/m*3 7.1 C 0 km/h
2167 14-05-2010 01:42:03 7.1 C 7.25 g/m*3 7.1 C 0 km/h
2168 14-05-2010 01:54:03 7.1 C 7.25 g/m*3 7.1 C 0 km/h
2169 14-05-2010 02:06:03 7.1 C 7.25 g/m*3 7.1 C 0 km/h
2170 14-05-2010 02:18:03 7 C 7.21 g/m*3 7 C 0 km/h
2171 14-05-2010 02:30:03 6.9 C 7.24 g/m*3 6.9 C 0 km/h
2172 14-05-2010 02:42:03 7 C 7.21 g/m*3 7 C 0 km/h
2173 14-05-2010 02:54:03 7 C 7.28 g/m*3 7 C 0 km/h
2174 14-05-2010 03:06:03 7 C 7.28 g/m*3 7 C 0 km/h
2175 14-05-2010 03:18:03 6.9 C 7.24 g/m*3 6.9 C 0 km/h
Sensor: Nr:Datum:Temp:Abs-Feuchte:Windchill:Wind:
Aussen-T/F 2176 14-05-2010 03:30:04 7 C 7.28 g/m*3 7 C 0 km/h
2177 14-05-2010 03:42:04 7 C 7.28 g/m*3 7 C 0 km/h
2178 14-05-2010 03:54:04 7 C 7.28 g/m*3 7 C 0 km/h
2179 14-05-2010 04:06:04 7 C 7.28 g/m*3 7 C 0 km/h
2180 14-05-2010 04:18:04 7 C 7.28 g/m*3 7 C 0 km/h
2181 14-05-2010 04:30:04 6.9 C 7.24 g/m*3 6.9 C 0 km/h
2182 14-05-2010 04:42:04 6.9 C 7.24 g/m*3 6.9 C 0 km/h
2183 14-05-2010 04:54:04 6.9 C 7.24 g/m*3 6.9 C 0 km/h
2184 14-05-2010 05:06:04 6.8 C 7.19 g/m*3 6.8 C 0 km/h
2185 14-05-2010 05:18:04 6.9 C 7.24 g/m*3 6.9 C 0 km/h
2186 14-05-2010 05:30:04 6.8 C 7.27 g/m*3 6.8 C 0 km/h
2187 14-05-2010 05:42:04 6.9 C 7.31 g/m*3 6.9 C 0 km/h
2188 14-05-2010 05:54:04 7 C 7.28 g/m*3 7 C 0 km/h
2189 14-05-2010 06:06:04 7.1 C 7.33 g/m*3 7.1 C 0 km/h
2190 14-05-2010 06:18:04 7.1 C 7.33 g/m*3 7.1 C 0 km/h
2191 14-05-2010 06:30:04 7 C 7.28 g/m*3 7 C 0 km/h
2192 14-05-2010 06:42:04 7.1 C 7.33 g/m*3 7.1 C 0 km/h
2193 14-05-2010 06:54:04 7.2 C 7.38 g/m*3 7.2 C 0 km/h
2194 14-05-2010 07:06:02 7.2 C 7.3 g/m*3 7.2 C 0 km/h
2195 14-05-2010 07:18:02 7.3 C 7.35 g/m*3 7.3 C 0 km/h
2196 14-05-2010 07:30:02 7.5 C 7.44 g/m*3 7.5 C 0 km/h
2197 14-05-2010 07:42:02 7.5 C 7.44 g/m*3 7.5 C 0 km/h
2198 14-05-2010 07:54:01 7.5 C 7.36 g/m*3 7.5 C 0 km/h
2199 14-05-2010 08:06:02 7.7 C 7.38 g/m*3 7.7 C 0 km/h
2200 14-05-2010 08:18:01 7.9 C 7.47 g/m*3 7.9 C 0 km/h
Sensor: Nr:Datum:Temp:Abs-Feuchte:Windchill:Wind:
Aussen-T/F 2201 14-05-2010 08:30:01 8.1 C 7.41 g/m*3 8.1 C 0 km/h
2202 14-05-2010 08:42:02 7.9 C 7.31 g/m*3 7.9 C 0 km/h
2203 14-05-2010 08:54:02 8 C 7.19 g/m*3 8 C 0 km/h
2204 14-05-2010 09:06:02 8 C 7.19 g/m*3 8 C 0 km/h
2205 14-05-2010 09:18:01 7.9 C 7.15 g/m*3 7.9 C 0 km/h
2206 14-05-2010 09:30:01 8 C 7.03 g/m*3 8 C 0 km/h
2207 14-05-2010 09:42:02 8.6 C 7.39 g/m*3 8.6 C 0 km/h
2208 14-05-2010 09:54:02 8.4 C 7.13 g/m*3 8.4 C 0 km/h
2209 14-05-2010 10:06:02 8.7 C 7.18 g/m*3 8.7 C 0 km/h
2210 14-05-2010 10:18:02 9.4 C 7.33 g/m*3 9.4 C 0 km/h
2211 14-05-2010 10:30:02 9.5 C 7.01 g/m*3 9.5 C 0 km/h
2212 14-05-2010 10:42:02 10 C 7.24 g/m*3 10 C 0 km/h
2213 14-05-2010 10:54:01 10.3 C 7.18 g/m*3 10.3 C 0 km/h
2214 14-05-2010 11:06:02 11 C 7.31 g/m*3 11 C 0 km/h
2215 14-05-2010 11:18:02 10.5 C 6.6 g/m*3 10.5 C 0 km/h
2216 14-05-2010 11:30:02 10.1 C 6.34 g/m*3 10.1 C 0 km/h
2217 14-05-2010 11:42:02 10.4 C 6.75 g/m*3 10.4 C 0 km/h
2218 14-05-2010 11:54:02 9.9 C 6.82 g/m*3 9.9 C 0 km/h
2219 14-05-2010 12:06:01 9.1 C 6.39 g/m*3 9.1 C 0 km/h
2220 14-05-2010 12:18:02 9 C 6.44 g/m*3 9 C 0 km/h
2221 14-05-2010 12:30:02 9.3 C 7.1 g/m*3 9.3 C 0 km/h
2222 14-05-2010 12:42:01 9.3 C 7.28 g/m*3 9.3 C 0 km/h
2223 14-05-2010 12:54:02 9.1 C 7.28 g/m*3 9.1 C 0 km/h
2224 14-05-2010 13:06:01 9.3 C 7.46 g/m*3 9.3 C 0 km/h
2225 14-05-2010 13:18:01 9.5 C 7.65 g/m*3 9.5 C 0 km/h
Sensor: Nr:Datum:Temp:Abs-Feuchte:Windchill:Wind:
Aussen-T/F 2226 14-05-2010 13:30:01 9.6 C 7.69 g/m*3 9.6 C 0 km/h
2227 14-05-2010 13:42:02 9.7 C 7.74 g/m*3 9.7 C 0 km/h
2228 14-05-2010 13:54:02 9.2 C 7.41 g/m*3 9.2 C 0 km/h
2229 14-05-2010 14:06:01 9 C 7.41 g/m*3 9 C 0 km/h
2230 14-05-2010 14:18:02 9.2 C 7.59 g/m*3 9.2 C 0 km/h
2231 14-05-2010 14:30:02 9.5 C 7.74 g/m*3 9.5 C 0 km/h
2232 14-05-2010 14:42:02 9.7 C 7.84 g/m*3 9.7 C 0 km/h
2233 14-05-2010 14:54:02 10.5 C 8.15 g/m*3 10.5 C 0 km/h
2234 14-05-2010 15:06:02 11.2 C 8.21 g/m*3 11.2 C 0 km/h
2235 14-05-2010 15:18:01 11.7 C 7.95 g/m*3 11.7 C 0 km/h
2236 14-05-2010 15:30:01 12 C 7.67 g/m*3 12 C 0 km/h
2237 14-05-2010 15:42:02 12.2 C 7.23 g/m*3 12.2 C 0 km/h
2238 14-05-2010 15:54:02 12.2 C 6.91 g/m*3 12.2 C 0 km/h
2239 14-05-2010 16:06:02 12.6 C 6.97 g/m*3 12.6 C 0 km/h
2240 14-05-2010 16:18:01 12.8 C 7.06 g/m*3 12.8 C 0 km/h
2241 14-05-2010 16:30:01 13.3 C 6.93 g/m*3 13.3 C 0 km/h
2242 14-05-2010 16:42:02 13.4 C 6.63 g/m*3 13.4 C 0 km/h
2243 14-05-2010 16:54:02 12.8 C 6.27 g/m*3 12.8 C 0 km/h
2244 14-05-2010 17:06:02 12.2 C 6.37 g/m*3 12.2 C 0 km/h
2245 14-05-2010 17:18:02 11.9 C 6.25 g/m*3 11.9 C 0 km/h
2246 14-05-2010 17:30:02 11.4 C 6.77 g/m*3 11.4 C 0 km/h
2247 14-05-2010 17:42:02 11 C 6.81 g/m*3 11 C 0 km/h
2248 14-05-2010 17:54:02 11.2 C 6.79 g/m*3 11.2 C 0 km/h
2249 14-05-2010 18:06:02 11.5 C 6.71 g/m*3 11.5 C 0 km/h
2250 14-05-2010 18:18:03 11.8 C 6.74 g/m*3 11.8 C 0 km/h
Sensor: Nr:Datum:Temp:Abs-Feuchte:Windchill:Wind:
Aussen-T/F 2251 14-05-2010 18:30:03 12 C 6.82 g/m*3 12 C 0 km/h
2252 14-05-2010 18:42:02 11.5 C 6.71 g/m*3 11.5 C 0 km/h
2253 14-05-2010 18:54:02 11 C 6.81 g/m*3 11 C 0 km/h
2254 14-05-2010 19:06:02 10.5 C 6.89 g/m*3 10.5 C 0 km/h
2255 14-05-2010 19:18:03 10.3 C 6.99 g/m*3 10.3 C 0 km/h
2256 14-05-2010 19:30:03 10.4 C 7.13 g/m*3 10.4 C 0 km/h
2257 14-05-2010 19:42:02 10.5 C 6.98 g/m*3 10.5 C 0 km/h
2258 14-05-2010 19:54:02 10.6 C 7.03 g/m*3 10.6 C 0 km/h
2259 14-05-2010 20:06:02 10.5 C 7.08 g/m*3 10.5 C 0 km/h
2260 14-05-2010 20:18:02 10.2 C 6.95 g/m*3 10.2 C 0 km/h
2261 14-05-2010 20:30:02 9.9 C 6.91 g/m*3 9.9 C 0 km/h
2262 14-05-2010 20:42:02 9.6 C 6.78 g/m*3 9.6 C 0 km/h
2263 14-05-2010 20:54:02 9.5 C 6.92 g/m*3 9.5 C 0 km/h
2264 14-05-2010 21:06:02 9.3 C 6.83 g/m*3 9.3 C 0 km/h
2265 14-05-2010 21:18:02 9.2 C 6.88 g/m*3 9.2 C 0 km/h
2266 14-05-2010 21:30:02 9.1 C 6.83 g/m*3 9.1 C 0 km/h
2267 14-05-2010 21:42:02 9.1 C 6.92 g/m*3 9.1 C 0 km/h
2268 14-05-2010 21:54:02 9 C 6.88 g/m*3 9 C 0 km/h
2269 14-05-2010 22:06:02 9.1 C 7.01 g/m*3 9.1 C 0 km/h
2270 14-05-2010 22:18:02 9.1 C 7.01 g/m*3 9.1 C 0 km/h
2271 14-05-2010 22:30:02 9.1 C 7.1 g/m*3 9.1 C 0 km/h
2272 14-05-2010 22:42:02 9.1 C 7.1 g/m*3 9.1 C 0 km/h
2273 14-05-2010 22:55:03 9 C 7.14 g/m*3 9 C 0 km/h
2274 14-05-2010 23:07:03 8.6 C 7.13 g/m*3 8.6 C 0 km/h
2275 14-05-2010 23:19:03 8.2 C 7.12 g/m*3 8.2 C 0 km/h
Sensor: Nr:Datum:Temp:Abs-Feuchte:Windchill:Wind:
Aussen-T/F 2276 14-05-2010 23:31:03 8.2 C 7.2 g/m*3 8.2 C 0 km/h
2277 14-05-2010 23:43:03 8.1 C 7.16 g/m*3 8.1 C 0 km/h
2278 14-05-2010 23:55:03 8.1 C 7.24 g/m*3 8.1 C 0 km/h
2279 15-05-2010 00:07:03 8 C 7.19 g/m*3 8 C 0 km/h
2280 15-05-2010 00:19:03 8 C 7.19 g/m*3 8 C 0 km/h
2281 15-05-2010 00:31:04 7.9 C 7.23 g/m*3 7.9 C 0 km/h
2282 15-05-2010 00:43:04 7.8 C 7.18 g/m*3 7.8 C 0 km/h
2283 15-05-2010 00:55:04 7.8 C 7.18 g/m*3 7.8 C 0 km/h
2284 15-05-2010 01:07:04 7.9 C 7.23 g/m*3 7.9 C 0 km/h
2285 15-05-2010 01:19:04 7.8 C 7.18 g/m*3 7.8 C 0 km/h
2286 15-05-2010 01:31:04 7.6 C 7.09 g/m*3 7.6 C 0 km/h
2287 15-05-2010 01:43:04 7.6 C 7.09 g/m*3 7.6 C 0 km/h
2288 15-05-2010 01:55:04 7.6 C 7.09 g/m*3 7.6 C 0 km/h
2289 15-05-2010 02:07:04 7.5 C 7.04 g/m*3 7.5 C 0 km/h
2290 15-05-2010 02:19:04 7.5 C 7.12 g/m*3 7.5 C 0 km/h
2291 15-05-2010 02:31:04 7.6 C 7.17 g/m*3 7.6 C 0 km/h
2292 15-05-2010 02:43:04 7.8 C 7.26 g/m*3 7.8 C 0 km/h
2293 15-05-2010 02:55:04 7.8 C 7.26 g/m*3 7.8 C 0 km/h
2294 15-05-2010 03:07:04 7.6 C 7.17 g/m*3 7.6 C 0 km/h
2295 15-05-2010 03:19:04 7.6 C 7.17 g/m*3 7.6 C 0 km/h
2296 15-05-2010 03:31:04 7.6 C 7.25 g/m*3 7.6 C 0 km/h
2297 15-05-2010 03:43:04 7.6 C 7.25 g/m*3 7.6 C 0 km/h
2298 15-05-2010 03:55:04 7.6 C 7.25 g/m*3 7.6 C 0 km/h
2299 15-05-2010 04:07:04 7.6 C 7.25 g/m*3 7.6 C 0 km/h
2300 15-05-2010 04:19:04 7.7 C 7.3 g/m*3 7.7 C 0 km/h
Sensor: Nr:Datum:Temp:Abs-Feuchte:Windchill:Wind:
Aussen-T/F 2301 15-05-2010 04:31:04 7.6 C 7.25 g/m*3 7.6 C 0 km/h
2302 15-05-2010 04:43:05 7.6 C 7.25 g/m*3 7.6 C 0 km/h
2303 15-05-2010 04:55:05 7.5 C 7.2 g/m*3 7.5 C 0 km/h
2304 15-05-2010 05:07:05 7.4 C 7.24 g/m*3 7.4 C 0 km/h
2305 15-05-2010 05:19:05 7.3 C 7.19 g/m*3 7.3 C 0 km/h
2306 15-05-2010 05:31:05 7.3 C 7.19 g/m*3 7.3 C 0 km/h
2307 15-05-2010 05:43:05 7.2 C 7.14 g/m*3 7.2 C 0 km/h
2308 15-05-2010 05:55:05 7.1 C 7.1 g/m*3 7.1 C 0 km/h
2309 15-05-2010 06:07:05 7.1 C 7.1 g/m*3 7.1 C 0 km/h
2310 15-05-2010 06:19:05 7.1 C 7.1 g/m*3 7.1 C 0 km/h
2311 15-05-2010 06:31:05 7.1 C 7.18 g/m*3 7.1 C 0 km/h
2312 15-05-2010 06:43:05 7.1 C 7.18 g/m*3 7.1 C 0 km/h
2313 15-05-2010 06:55:05 7.1 C 7.18 g/m*3 7.1 C 0 km/h
2314 15-05-2010 07:07:05 7.1 C 7.18 g/m*3 7.1 C 0 km/h
2315 15-05-2010 07:19:05 7.4 C 7.32 g/m*3 7.4 C 0 km/h
2316 15-05-2010 07:31:05 7.5 C 7.36 g/m*3 7.5 C 0 km/h
2317 15-05-2010 07:43:05 7.8 C 7.51 g/m*3 7.8 C 0 km/h
2318 15-05-2010 07:55:02 8.2 C 7.62 g/m*3 8.2 C 0 km/h
2319 15-05-2010 08:07:02 8.3 C 7.59 g/m*3 8.3 C 0 km/h
2320 15-05-2010 08:19:02 8.2 C 7.29 g/m*3 8.2 C 0 km/h
2321 15-05-2010 08:31:03 8.6 C 7.39 g/m*3 8.6 C 0 km/h
2322 15-05-2010 08:43:03 8.5 C 7 g/m*3 8.5 C 0 km/h
2323 15-05-2010 08:55:02 8.8 C 7.05 g/m*3 8.8 C 0 km/h
2324 15-05-2010 09:07:02 9 C 6.88 g/m*3 9 C 0 km/h
2325 15-05-2010 09:19:02 9.3 C 6.92 g/m*3 9.3 C 0 km/h
Sensor: Nr:Datum:Temp:Abs-Feuchte:Windchill:Wind:
Aussen-T/F 2326 15-05-2010 09:31:02 9.5 C 6.83 g/m*3 9.5 C 0 km/h
2327 15-05-2010 09:43:02 9.6 C 6.78 g/m*3 9.6 C 0 km/h
2328 15-05-2010 09:55:01 10 C 6.67 g/m*3 10 C 0 km/h
2329 15-05-2010 10:07:02 10.5 C 6.6 g/m*3 10.5 C 0 km/h
2330 15-05-2010 10:19:01 10.7 C 6.48 g/m*3 10.7 C 0 km/h
2331 15-05-2010 10:31:02 10.6 C 6.34 g/m*3 10.6 C 0 km/h
2332 15-05-2010 10:43:02 11.1 C 6.35 g/m*3 11.1 C 0 km/h
2333 15-05-2010 10:55:02 11.1 C 6.35 g/m*3 11.1 C 0 km/h
2334 15-05-2010 11:07:02 10.9 C 6.27 g/m*3 10.9 C 0 km/h
2335 15-05-2010 11:19:01 10.8 C 6.23 g/m*3 10.8 C 0 km/h
2336 15-05-2010 11:31:02 10.9 C 6.17 g/m*3 10.9 C 0 km/h
2337 15-05-2010 11:43:02 11.5 C 5.89 g/m*3 11.5 C 0 km/h
2338 15-05-2010 11:55:02 11.9 C 6.04 g/m*3 11.9 C 0 km/h
2339 15-05-2010 12:07:02 11.2 C 5.68 g/m*3 11.2 C 0 km/h
2340 15-05-2010 12:19:02 11.1 C 5.64 g/m*3 11.1 C 0 km/h
2341 15-05-2010 12:31:02 11.2 C 5.57 g/m*3 11.2 C 0 km/h
2342 15-05-2010 12:43:02 12.4 C 5.46 g/m*3 12.4 C 0 km/h
2343 15-05-2010 12:55:02 12.3 C 4.78 g/m*3 12.3 C 0 km/h
2344 15-05-2010 13:07:02 13.9 C 5.04 g/m*3 13.9 C 0 km/h
2345 15-05-2010 13:19:03 12 C 4.58 g/m*3 12 C 0 km/h
2346 15-05-2010 13:31:02 11.1 C 5.14 g/m*3 11.1 C 0 km/h
2347 15-05-2010 13:43:02 11.2 C 4.87 g/m*3 11.2 C 0 km/h
2348 15-05-2010 13:55:02 12.1 C 4.5 g/m*3 12.1 C 0 km/h
2349 15-05-2010 14:07:02 13.7 C 4.5 g/m*3 13.7 C 0 km/h
2350 15-05-2010 14:19:02 15 C 4.62 g/m*3 15 C 0 km/h
Sensor: Nr:Datum:Temp:Abs-Feuchte:Windchill:Wind:
Aussen-T/F 2351 15-05-2010 14:31:02 14.7 C 4.15 g/m*3 14.7 C 0 km/h
2352 15-05-2010 14:43:02 14 C 3.98 g/m*3 14 C 0 km/h
2353 15-05-2010 14:55:01 13.9 C 3.72 g/m*3 13.9 C 0 km/h
2354 15-05-2010 15:07:01 14.3 C 3.56 g/m*3 14.3 C 0 km/h
2355 15-05-2010 15:19:01 15.2 C 3.24 g/m*3 15.2 C 0 km/h
2356 15-05-2010 15:31:01 15.8 C 2.69 g/m*3 15.8 C 0 km/h
2357 15-05-2010 15:43:01 16 C 2.72 g/m*3 16 C 0 km/h
2358 15-05-2010 15:55:01 16.2 C 2.76 g/m*3 16.2 C 0 km/h
2359 15-05-2010 16:07:02 16.2 C 2.76 g/m*3 16.2 C 0 km/h
2360 15-05-2010 16:19:01 15.1 C 2.58 g/m*3 15.1 C 0 km/h
2361 15-05-2010 16:31:01 14.4 C 2.47 g/m*3 14.4 C 0 km/h
2362 15-05-2010 16:43:01 14.4 C 2.97 g/m*3 14.4 C 0 km/h
2363 15-05-2010 16:55:01 13.8 C 2.98 g/m*3 13.8 C 0 km/h
2364 15-05-2010 17:07:02 13.9 C 3.12 g/m*3 13.9 C 0 km/h
2365 15-05-2010 17:19:01 14 C 3.02 g/m*3 14 C 0 km/h
2366 15-05-2010 17:31:02 14.1 C 3.16 g/m*3 14.1 C 0 km/h
2367 15-05-2010 17:43:02 14 C 3.26 g/m*3 14 C 0 km/h
2368 15-05-2010 17:55:02 14 C 3.26 g/m*3 14 C 0 km/h
2369 15-05-2010 18:07:02 13.7 C 3.43 g/m*3 13.7 C 0 km/h
2370 15-05-2010 18:19:01 14 C 3.62 g/m*3 14 C 0 km/h
2371 15-05-2010 18:31:02 13.8 C 3.46 g/m*3 13.8 C 0 km/h
2372 15-05-2010 18:43:02 13.7 C 3.43 g/m*3 13.7 C 0 km/h
2373 15-05-2010 18:55:02 13.9 C 3.36 g/m*3 13.9 C 0 km/h
2374 15-05-2010 19:07:02 13.9 C 3.24 g/m*3 13.9 C 0 km/h
2375 15-05-2010 19:19:02 14.6 C 3.5 g/m*3 14.6 C 0 km/h
Sensor: Nr:Datum:Temp:Abs-Feuchte:Windchill:Wind:
Aussen-T/F 2376 15-05-2010 19:31:02 15.1 C 3.23 g/m*3 15.1 C 0 km/h
2377 15-05-2010 19:43:02 14.9 C 3.44 g/m*3 14.9 C 0 km/h
2378 15-05-2010 19:55:02 14.4 C 3.58 g/m*3 14.4 C 0 km/h
2379 15-05-2010 20:07:02 13.9 C 4.2 g/m*3 13.9 C 0 km/h
2380 15-05-2010 20:19:02 13.3 C 4.62 g/m*3 13.3 C 0 km/h
2381 15-05-2010 20:31:02 12.4 C 4.48 g/m*3 12.4 C 0 km/h
2382 15-05-2010 20:43:02 11.6 C 4.47 g/m*3 11.6 C 0 km/h
2383 15-05-2010 20:55:02 11.3 C 4.59 g/m*3 11.3 C 0 km/h
2384 15-05-2010 21:07:02 11.4 C 4.62 g/m*3 11.4 C 0 km/h
2385 15-05-2010 21:19:02 11.1 C 4.53 g/m*3 11.1 C 0 km/h
2386 15-05-2010 21:31:02 10.8 C 4.55 g/m*3 10.8 C 0 km/h
2387 15-05-2010 21:43:02 10.8 C 4.84 g/m*3 10.8 C 0 km/h
2388 15-05-2010 21:55:01 10.8 C 4.84 g/m*3 10.8 C 0 km/h
2389 15-05-2010 22:07:02 10.8 C 4.94 g/m*3 10.8 C 0 km/h
2390 15-05-2010 22:19:02 11 C 5 g/m*3 11 C 0 km/h
2391 15-05-2010 22:32:02 11.1 C 4.83 g/m*3 11.1 C 0 km/h
2392 15-05-2010 22:44:03 11.2 C 4.66 g/m*3 11.2 C 0 km/h
2393 15-05-2010 22:56:03 11.2 C 4.66 g/m*3 11.2 C 0 km/h
2394 15-05-2010 23:08:03 11.1 C 4.73 g/m*3 11.1 C 0 km/h
2395 15-05-2010 23:20:03 10.9 C 4.97 g/m*3 10.9 C 0 km/h
2396 15-05-2010 23:32:03 10.9 C 5.07 g/m*3 10.9 C 0 km/h
2397 15-05-2010 23:44:03 10.8 C 5.04 g/m*3 10.8 C 0 km/h
2398 15-05-2010 23:56:03 10.5 C 5.04 g/m*3 10.5 C 0 km/h
2399 16-05-2010 00:08:03 10.2 C 5.04 g/m*3 10.2 C 0 km/h
2400 16-05-2010 00:20:03 10.1 C 5.3 g/m*3 10.1 C 0 km/h
Sensor: Nr:Datum:Temp:Abs-Feuchte:Windchill:Wind:
Aussen-T/F 2401 16-05-2010 00:32:03 10.1 C 5.39 g/m*3 10.1 C 0 km/h
2402 16-05-2010 00:44:03 10 C 5.45 g/m*3 10 C 0 km/h
2403 16-05-2010 00:56:03 10.1 C 5.48 g/m*3 10.1 C 0 km/h
2404 16-05-2010 01:08:03 10 C 5.54 g/m*3 10 C 0 km/h
2405 16-05-2010 01:20:03 9.7 C 5.62 g/m*3 9.7 C 0 km/h
2406 16-05-2010 01:32:03 9.3 C 5.66 g/m*3 9.3 C 0 km/h
2407 16-05-2010 01:44:03 9 C 5.64 g/m*3 9 C 0 km/h
2408 16-05-2010 01:56:03 8.7 C 5.88 g/m*3 8.7 C 0 km/h
2409 16-05-2010 02:08:03 8.4 C 5.85 g/m*3 8.4 C 0 km/h
2410 16-05-2010 02:20:03 8.2 C 5.86 g/m*3 8.2 C 0 km/h
2411 16-05-2010 02:32:03 8 C 5.87 g/m*3 8 C 0 km/h
2412 16-05-2010 02:44:04 7.8 C 5.96 g/m*3 7.8 C 0 km/h
2413 16-05-2010 02:56:04 7.8 C 5.88 g/m*3 7.8 C 0 km/h
2414 16-05-2010 03:08:04 7.6 C 5.88 g/m*3 7.6 C 0 km/h
2415 16-05-2010 03:20:04 7.4 C 5.88 g/m*3 7.4 C 0 km/h
2416 16-05-2010 03:32:04 7.4 C 5.88 g/m*3 7.4 C 0 km/h
2417 16-05-2010 03:44:04 7.5 C 5.92 g/m*3 7.5 C 0 km/h
2418 16-05-2010 03:56:04 7.5 C 5.92 g/m*3 7.5 C 0 km/h
2419 16-05-2010 04:08:04 7.6 C 5.96 g/m*3 7.6 C 0 km/h
2420 16-05-2010 04:20:04 7.6 C 5.88 g/m*3 7.6 C 0 km/h
2421 16-05-2010 04:32:04 7.6 C 5.96 g/m*3 7.6 C 0 km/h
2422 16-05-2010 04:44:04 7.6 C 5.96 g/m*3 7.6 C 0 km/h
2423 16-05-2010 04:56:04 7.6 C 5.96 g/m*3 7.6 C 0 km/h
2424 16-05-2010 05:08:04 7.6 C 5.96 g/m*3 7.6 C 0 km/h
2425 16-05-2010 05:20:04 7.5 C 5.92 g/m*3 7.5 C 0 km/h
Sensor: Nr:Datum:Temp:Abs-Feuchte:Windchill:Wind:
Aussen-T/F 2426 16-05-2010 05:32:04 7.2 C 5.89 g/m*3 7.2 C 0 km/h
2427 16-05-2010 05:44:04 7 C 5.89 g/m*3 7 C 0 km/h
2428 16-05-2010 05:56:04 7.2 C 5.97 g/m*3 7.2 C 0 km/h
2429 16-05-2010 06:08:04 7.4 C 6.04 g/m*3 7.4 C 0 km/h
2430 16-05-2010 06:20:04 7.4 C 5.96 g/m*3 7.4 C 0 km/h
2431 16-05-2010 06:32:04 7.4 C 5.96 g/m*3 7.4 C 0 km/h
2432 16-05-2010 06:44:04 7.4 C 5.96 g/m*3 7.4 C 0 km/h
2433 16-05-2010 06:56:05 7.5 C 6 g/m*3 7.5 C 0 km/h
2434 16-05-2010 07:08:05 7.7 C 6.08 g/m*3 7.7 C 0 km/h
2435 16-05-2010 07:20:05 7.8 C 6.04 g/m*3 7.8 C 0 km/h
2436 16-05-2010 07:32:05 7.9 C 6.08 g/m*3 7.9 C 0 km/h
2437 16-05-2010 07:44:05 7.9 C 6.08 g/m*3 7.9 C 0 km/h
2438 16-05-2010 07:56:05 7.9 C 6.08 g/m*3 7.9 C 0 km/h
2439 16-05-2010 08:08:05 8 C 6.04 g/m*3 8 C 0 km/h
2440 16-05-2010 08:20:05 8.2 C 6.2 g/m*3 8.2 C 0 km/h
2441 16-05-2010 08:32:05 8.7 C 6.14 g/m*3 8.7 C 0 km/h
2442 16-05-2010 08:44:05 9.1 C 6.03 g/m*3 9.1 C 0 km/h
2443 16-05-2010 08:56:05 9.6 C 6.05 g/m*3 9.6 C 0 km/h
2444 16-05-2010 09:08:02 10.2 C 5.8 g/m*3 10.2 C 0 km/h
2445 16-05-2010 09:20:01 10.6 C 4.98 g/m*3 10.6 C 0 km/h
2446 16-05-2010 09:32:02 11 C 4.7 g/m*3 11 C 0 km/h
2447 16-05-2010 09:44:02 11.3 C 4.39 g/m*3 11.3 C 0 km/h
2448 16-05-2010 09:56:02 11.7 C 4.39 g/m*3 11.7 C 0 km/h
2449 16-05-2010 10:08:02 11.9 C 4.24 g/m*3 11.9 C 0 km/h
2450 16-05-2010 10:20:01 12.2 C 4.1 g/m*3 12.2 C 0 km/h
Sensor: Nr:Datum:Temp:Abs-Feuchte:Windchill:Wind:
Aussen-T/F 2451 16-05-2010 10:32:02 12.4 C 4.15 g/m*3 12.4 C 0 km/h
2452 16-05-2010 10:44:02 13 C 4.31 g/m*3 13 C 0 km/h
2453 16-05-2010 10:56:01 13.3 C 4.16 g/m*3 13.3 C 0 km/h
2454 16-05-2010 11:08:02 13.7 C 4.03 g/m*3 13.7 C 0 km/h
2455 16-05-2010 11:20:02 14.3 C 4.05 g/m*3 14.3 C 0 km/h
2456 16-05-2010 11:32:02 15.4 C 4.07 g/m*3 15.4 C 0 km/h
2457 16-05-2010 11:44:02 15.4 C 3.94 g/m*3 15.4 C 0 km/h
2458 16-05-2010 11:56:01 15.4 C 3.81 g/m*3 15.4 C 0 km/h
2459 16-05-2010 12:08:02 15.9 C 3.52 g/m*3 15.9 C 0 km/h
2460 16-05-2010 12:20:02 16.1 C 3.84 g/m*3 16.1 C 0 km/h
2461 16-05-2010 12:32:02 17.9 C 3.82 g/m*3 17.9 C 0 km/h
2462 16-05-2010 12:44:02 17.2 C 3.37 g/m*3 17.2 C 0 km/h
2463 16-05-2010 12:56:01 16.1 C 3.43 g/m*3 16.1 C 0 km/h
2464 16-05-2010 13:08:02 18.3 C 3.6 g/m*3 18.3 C 0 km/h
2465 16-05-2010 13:20:02 17.3 C 3.39 g/m*3 17.3 C 0 km/h
2466 16-05-2010 13:32:01 17.4 C 3.41 g/m*3 17.4 C 0 km/h
2467 16-05-2010 13:44:01 18 C 3.69 g/m*3 18 C 0 km/h
2468 16-05-2010 13:56:02 17.3 C 3.54 g/m*3 17.3 C 0 km/h
2469 16-05-2010 14:08:01 16.7 C 3.55 g/m*3 16.7 C 0 km/h
2470 16-05-2010 14:20:02 18.4 C 3.93 g/m*3 18.4 C 0 km/h
2471 16-05-2010 14:32:02 18.4 C 3.3 g/m*3 18.4 C 0 km/h
2472 16-05-2010 14:44:02 17.9 C 3.51 g/m*3 17.9 C 0 km/h
2473 16-05-2010 14:56:02 18.2 C 3.42 g/m*3 18.2 C 0 km/h
2474 16-05-2010 15:08:02 19 C 3.26 g/m*3 19 C 0 km/h
2475 16-05-2010 15:20:02 19.3 C 3.32 g/m*3 19.3 C 0 km/h
Sensor: Nr:Datum:Temp:Abs-Feuchte:Windchill:Wind:
Aussen-T/F 2476 16-05-2010 15:32:02 19.8 C 3.42 g/m*3 19.8 C 0 km/h
2477 16-05-2010 15:44:02 19.1 C 3.28 g/m*3 19.1 C 0 km/h
2478 16-05-2010 15:56:02 20.3 C 3.52 g/m*3 20.3 C 0 km/h
2479 16-05-2010 16:08:02 21 C 3.66 g/m*3 21 C 0 km/h
2480 16-05-2010 16:20:01 20.1 C 3.48 g/m*3 20.1 C 0 km/h
2481 16-05-2010 16:32:02 20.4 C 3.54 g/m*3 20.4 C 0 km/h
2482 16-05-2010 16:44:02 20 C 3.46 g/m*3 20 C 0 km/h
2483 16-05-2010 16:56:02 21.2 C 3.71 g/m*3 21.2 C 0 km/h
2484 16-05-2010 17:08:02 21.7 C 3.82 g/m*3 21.7 C 0 km/h
2485 16-05-2010 17:20:02 21.1 C 3.69 g/m*3 21.1 C 0 km/h
2486 16-05-2010 17:32:02 21.5 C 3.77 g/m*3 21.5 C 0 km/h
2487 16-05-2010 17:44:02 21.4 C 3.75 g/m*3 21.4 C 0 km/h
2488 16-05-2010 17:56:02 20.8 C 3.62 g/m*3 20.8 C 0 km/h
2489 16-05-2010 18:08:02 20.8 C 3.62 g/m*3 20.8 C 0 km/h
2490 16-05-2010 18:20:02 20 C 3.46 g/m*3 20 C 0 km/h
2491 16-05-2010 18:32:02 19.5 C 3.52 g/m*3 19.5 C 0 km/h
2492 16-05-2010 18:44:02 18.9 C 3.56 g/m*3 18.9 C 0 km/h
2493 16-05-2010 18:56:02 19.9 C 3.44 g/m*3 19.9 C 0 km/h
2494 16-05-2010 19:08:02 19.7 C 3.57 g/m*3 19.7 C 0 km/h
2495 16-05-2010 19:20:03 19.5 C 3.52 g/m*3 19.5 C 0 km/h
2496 16-05-2010 19:32:02 18.6 C 3.5 g/m*3 18.6 C 0 km/h
2497 16-05-2010 19:44:02 18.2 C 3.89 g/m*3 18.2 C 0 km/h
2498 16-05-2010 19:56:02 18.3 C 3.91 g/m*3 18.3 C 0 km/h
2499 16-05-2010 20:08:02 19.3 C 4.15 g/m*3 19.3 C 0 km/h
2500 16-05-2010 20:20:02 19.3 C 4.48 g/m*3 19.3 C 0 km/h
Sensor: Nr:Datum:Temp:Abs-Feuchte:Windchill:Wind:
Aussen-T/F 2501 16-05-2010 20:32:02 18.2 C 4.51 g/m*3 18.2 C 0 km/h
2502 16-05-2010 20:44:02 17 C 4.63 g/m*3 17 C 0 km/h
2503 16-05-2010 20:56:02 16 C 4.5 g/m*3 16 C 0 km/h
2504 16-05-2010 21:08:02 15.1 C 4.52 g/m*3 15.1 C 0 km/h
2505 16-05-2010 21:20:02 14.6 C 4.63 g/m*3 14.6 C 0 km/h
2506 16-05-2010 21:32:02 14.2 C 4.76 g/m*3 14.2 C 0 km/h
2507 16-05-2010 21:44:02 13.9 C 4.92 g/m*3 13.9 C 0 km/h
2508 16-05-2010 21:56:02 13.6 C 5.18 g/m*3 13.6 C 0 km/h
2509 16-05-2010 22:08:02 13.2 C 5.05 g/m*3 13.2 C 0 km/h
2510 16-05-2010 22:20:03 12.6 C 5.31 g/m*3 12.6 C 0 km/h
2511 16-05-2010 22:33:03 12.3 C 5.32 g/m*3 12.3 C 0 km/h
2512 16-05-2010 22:45:03 11.9 C 5.4 g/m*3 11.9 C 0 km/h
2513 16-05-2010 22:57:03 11.8 C 5.58 g/m*3 11.8 C 0 km/h
2514 16-05-2010 23:09:03 11.4 C 5.65 g/m*3 11.4 C 0 km/h
2515 16-05-2010 23:21:03 11 C 5.71 g/m*3 11 C 0 km/h
2516 16-05-2010 23:33:03 10.7 C 5.8 g/m*3 10.7 C 0 km/h
2517 16-05-2010 23:45:03 10.7 C 5.89 g/m*3 10.7 C 0 km/h
2518 16-05-2010 23:57:03 10.5 C 6.01 g/m*3 10.5 C 0 km/h

Legende:
   Min
   Max


Maximal/Minimal-Werte vom 26.04.2010 - 16.05.2010

Sensor Min Max Avg
Temp
(Aussen-T/F)
2.5 °C
05-05-2010  06:45:03
29.2 °C
28-04-2010  17:14:01
12.12 °C
Abs-Feuchte
(Aussen-T/F)
2.23 g/m*3
05-05-2010  12:09:02
9.24 g/m*3
26-04-2010  02:59:03
6.18 g/m*3
Windchill
(Aussen-T/F)
2.5 C
05-05-2010  06:45:03
29.2 C
28-04-2010  17:14:01
12.12 C

Die Daten stammen von einer Davis Vantage Pro 2 Wetter-Station und werden unter Linux mit der Software wview2wettercgi und aufbereitet. Alle Angaben erfolgen ohne Gewähr für ihre Vollständigkeit oder Richtigkeit.
Kontakt: Rainer Krienke krienke@uni-koblenz.de . Meine Webseiten an der Uni Koblenz oder privat.
Version: $Revision: 0.78 $